<?xml version="1.0" encoding="UTF-8" standalone="no" ?>
<gpx xmlns="http://www.topografix.com/GPX/1/1" xmlns:xsi="http://www.w3.org/2001/XMLSchema-instance" xsi:schemaLocation="http://www.topografix.com/GPX/1/1 http://www.topografix.com/GPX/1/1/gpx.xsd" version="1.1" creator="VisuGPX - https://www.visugpx.com">
  <metadata>
    <name>15-VTT AD 23 km 2022</name>
    <desc><![CDATA[VTT AD 23 km 2022]]></desc>
  </metadata>
  <trk>
    <name><![CDATA[15-VTT AD 23 km 2022]]></name>
    <trkseg>
      <trkpt lat="49.67277" lon="5.60389">
        <ele>333.20001220703</ele>
        <time>2022-03-23T08:02:21.000Z</time>
      </trkpt>
      <trkpt lat="49.67275" lon="5.60384">
        <ele>333.20001220703</ele>
        <time>2022-03-23T08:02:26.000Z</time>
      </trkpt>
      <trkpt lat="49.67272" lon="5.6038">
        <ele>333.39999389648</ele>
        <time>2022-03-23T08:02:28.000Z</time>
      </trkpt>
      <trkpt lat="49.67259" lon="5.60383">
        <ele>333.79998779297</ele>
        <time>2022-03-23T08:02:32.000Z</time>
      </trkpt>
      <trkpt lat="49.67246" lon="5.6039">
        <ele>334</ele>
        <time>2022-03-23T08:02:37.000Z</time>
      </trkpt>
      <trkpt lat="49.67222" lon="5.60393">
        <ele>333.79998779297</ele>
        <time>2022-03-23T08:02:45.000Z</time>
      </trkpt>
      <trkpt lat="49.67199" lon="5.60386">
        <ele>333.20001220703</ele>
        <time>2022-03-23T08:02:53.000Z</time>
      </trkpt>
      <trkpt lat="49.67186" lon="5.60373">
        <ele>333.60000610352</ele>
        <time>2022-03-23T08:02:58.000Z</time>
      </trkpt>
      <trkpt lat="49.6718" lon="5.60374">
        <ele>333.60000610352</ele>
        <time>2022-03-23T08:03:00.000Z</time>
      </trkpt>
      <trkpt lat="49.67167" lon="5.60376">
        <ele>333.60000610352</ele>
        <time>2022-03-23T08:03:04.000Z</time>
      </trkpt>
      <trkpt lat="49.67149" lon="5.60387">
        <ele>333.20001220703</ele>
        <time>2022-03-23T08:03:09.000Z</time>
      </trkpt>
      <trkpt lat="49.67145" lon="5.6039">
        <ele>333</ele>
        <time>2022-03-23T08:03:10.000Z</time>
      </trkpt>
      <trkpt lat="49.67119" lon="5.6042">
        <ele>333.79998779297</ele>
        <time>2022-03-23T08:03:17.000Z</time>
      </trkpt>
      <trkpt lat="49.6709" lon="5.6045">
        <ele>333.79998779297</ele>
        <time>2022-03-23T08:03:24.000Z</time>
      </trkpt>
      <trkpt lat="49.67073" lon="5.60469">
        <ele>332.20001220703</ele>
        <time>2022-03-23T08:03:28.000Z</time>
      </trkpt>
      <trkpt lat="49.6706" lon="5.60481">
        <ele>331.20001220703</ele>
        <time>2022-03-23T08:03:31.000Z</time>
      </trkpt>
      <trkpt lat="49.6705" lon="5.60487">
        <ele>331.39999389648</ele>
        <time>2022-03-23T08:03:33.000Z</time>
      </trkpt>
      <trkpt lat="49.67015" lon="5.60495">
        <ele>333.20001220703</ele>
        <time>2022-03-23T08:03:40.000Z</time>
      </trkpt>
      <trkpt lat="49.66977" lon="5.60498">
        <ele>338.20001220703</ele>
        <time>2022-03-23T08:03:49.000Z</time>
      </trkpt>
      <trkpt lat="49.66973" lon="5.60498">
        <ele>338.60000610352</ele>
        <time>2022-03-23T08:03:50.000Z</time>
      </trkpt>
      <trkpt lat="49.66953" lon="5.605">
        <ele>340</ele>
        <time>2022-03-23T08:03:55.000Z</time>
      </trkpt>
      <trkpt lat="49.66945" lon="5.60501">
        <ele>340.39999389648</ele>
        <time>2022-03-23T08:03:57.000Z</time>
      </trkpt>
      <trkpt lat="49.66934" lon="5.60503">
        <ele>341.20001220703</ele>
        <time>2022-03-23T08:04:00.000Z</time>
      </trkpt>
      <trkpt lat="49.66915" lon="5.60508">
        <ele>341.79998779297</ele>
        <time>2022-03-23T08:04:05.000Z</time>
      </trkpt>
      <trkpt lat="49.66897" lon="5.60517">
        <ele>342.20001220703</ele>
        <time>2022-03-23T08:04:10.000Z</time>
      </trkpt>
      <trkpt lat="49.66889" lon="5.60521">
        <ele>342.20001220703</ele>
        <time>2022-03-23T08:04:12.000Z</time>
      </trkpt>
      <trkpt lat="49.66874" lon="5.60529">
        <ele>342</ele>
        <time>2022-03-23T08:04:16.000Z</time>
      </trkpt>
      <trkpt lat="49.66856" lon="5.60537">
        <ele>341.39999389648</ele>
        <time>2022-03-23T08:04:20.000Z</time>
      </trkpt>
      <trkpt lat="49.66852" lon="5.60539">
        <ele>341.20001220703</ele>
        <time>2022-03-23T08:04:21.000Z</time>
      </trkpt>
      <trkpt lat="49.66834" lon="5.6055">
        <ele>341</ele>
        <time>2022-03-23T08:04:26.000Z</time>
      </trkpt>
      <trkpt lat="49.66826" lon="5.60556">
        <ele>341</ele>
        <time>2022-03-23T08:04:28.000Z</time>
      </trkpt>
      <trkpt lat="49.66793" lon="5.60578">
        <ele>340.79998779297</ele>
        <time>2022-03-23T08:04:37.000Z</time>
      </trkpt>
      <trkpt lat="49.66779" lon="5.60591">
        <ele>341.20001220703</ele>
        <time>2022-03-23T08:04:41.000Z</time>
      </trkpt>
      <trkpt lat="49.66774" lon="5.60601">
        <ele>341.60000610352</ele>
        <time>2022-03-23T08:04:43.000Z</time>
      </trkpt>
      <trkpt lat="49.66757" lon="5.60614">
        <ele>341.20001220703</ele>
        <time>2022-03-23T08:04:48.000Z</time>
      </trkpt>
      <trkpt lat="49.66742" lon="5.60601">
        <ele>341</ele>
        <time>2022-03-23T08:04:52.000Z</time>
      </trkpt>
      <trkpt lat="49.66716" lon="5.60572">
        <ele>340.60000610352</ele>
        <time>2022-03-23T08:04:59.000Z</time>
      </trkpt>
      <trkpt lat="49.66708" lon="5.60565">
        <ele>340.39999389648</ele>
        <time>2022-03-23T08:05:01.000Z</time>
      </trkpt>
      <trkpt lat="49.66677" lon="5.60535">
        <ele>340</ele>
        <time>2022-03-23T08:05:09.000Z</time>
      </trkpt>
      <trkpt lat="49.66649" lon="5.60506">
        <ele>340.79998779297</ele>
        <time>2022-03-23T08:05:16.000Z</time>
      </trkpt>
      <trkpt lat="49.66631" lon="5.60492">
        <ele>341.39999389648</ele>
        <time>2022-03-23T08:05:20.000Z</time>
      </trkpt>
      <trkpt lat="49.66621" lon="5.60487">
        <ele>341.79998779297</ele>
        <time>2022-03-23T08:05:22.000Z</time>
      </trkpt>
      <trkpt lat="49.66595" lon="5.60486">
        <ele>341.20001220703</ele>
        <time>2022-03-23T08:05:27.000Z</time>
      </trkpt>
      <trkpt lat="49.6659" lon="5.60488">
        <ele>341</ele>
        <time>2022-03-23T08:05:28.000Z</time>
      </trkpt>
      <trkpt lat="49.66571" lon="5.605">
        <ele>339.79998779297</ele>
        <time>2022-03-23T08:05:32.000Z</time>
      </trkpt>
      <trkpt lat="49.66557" lon="5.60513">
        <ele>339.20001220703</ele>
        <time>2022-03-23T08:05:35.000Z</time>
      </trkpt>
      <trkpt lat="49.6654" lon="5.60534">
        <ele>339.79998779297</ele>
        <time>2022-03-23T08:05:39.000Z</time>
      </trkpt>
      <trkpt lat="49.66508" lon="5.60568">
        <ele>343.39999389648</ele>
        <time>2022-03-23T08:05:46.000Z</time>
      </trkpt>
      <trkpt lat="49.66481" lon="5.60578">
        <ele>346</ele>
        <time>2022-03-23T08:05:51.000Z</time>
      </trkpt>
      <trkpt lat="49.66476" lon="5.60578">
        <ele>346.39999389648</ele>
        <time>2022-03-23T08:05:52.000Z</time>
      </trkpt>
      <trkpt lat="49.66466" lon="5.60577">
        <ele>345.60000610352</ele>
        <time>2022-03-23T08:05:54.000Z</time>
      </trkpt>
      <trkpt lat="49.66453" lon="5.6057">
        <ele>344.39999389648</ele>
        <time>2022-03-23T08:05:57.000Z</time>
      </trkpt>
      <trkpt lat="49.66444" lon="5.60562">
        <ele>343.39999389648</ele>
        <time>2022-03-23T08:05:59.000Z</time>
      </trkpt>
      <trkpt lat="49.66436" lon="5.60552">
        <ele>342.79998779297</ele>
        <time>2022-03-23T08:06:01.000Z</time>
      </trkpt>
      <trkpt lat="49.66432" lon="5.60546">
        <ele>342.60000610352</ele>
        <time>2022-03-23T08:06:02.000Z</time>
      </trkpt>
      <trkpt lat="49.66407" lon="5.60497">
        <ele>341.79998779297</ele>
        <time>2022-03-23T08:06:10.000Z</time>
      </trkpt>
      <trkpt lat="49.66403" lon="5.60491">
        <ele>341.79998779297</ele>
        <time>2022-03-23T08:06:11.000Z</time>
      </trkpt>
      <trkpt lat="49.66378" lon="5.60442">
        <ele>342.79998779297</ele>
        <time>2022-03-23T08:06:19.000Z</time>
      </trkpt>
      <trkpt lat="49.66363" lon="5.60416">
        <ele>344.39999389648</ele>
        <time>2022-03-23T08:06:24.000Z</time>
      </trkpt>
      <trkpt lat="49.6636" lon="5.60412">
        <ele>344.79998779297</ele>
        <time>2022-03-23T08:06:25.000Z</time>
      </trkpt>
      <trkpt lat="49.66356" lon="5.60411">
        <ele>345.39999389648</ele>
        <time>2022-03-23T08:06:26.000Z</time>
      </trkpt>
      <trkpt lat="49.66345" lon="5.60417">
        <ele>346.39999389648</ele>
        <time>2022-03-23T08:06:29.000Z</time>
      </trkpt>
      <trkpt lat="49.66331" lon="5.60436">
        <ele>347.39999389648</ele>
        <time>2022-03-23T08:06:33.000Z</time>
      </trkpt>
      <trkpt lat="49.66327" lon="5.60442">
        <ele>348</ele>
        <time>2022-03-23T08:06:34.000Z</time>
      </trkpt>
      <trkpt lat="49.66298" lon="5.60492">
        <ele>352.39999389648</ele>
        <time>2022-03-23T08:06:43.000Z</time>
      </trkpt>
      <trkpt lat="49.66277" lon="5.60534">
        <ele>352.60000610352</ele>
        <time>2022-03-23T08:06:50.000Z</time>
      </trkpt>
      <trkpt lat="49.66251" lon="5.60591">
        <ele>350.60000610352</ele>
        <time>2022-03-23T08:06:59.000Z</time>
      </trkpt>
      <trkpt lat="49.66224" lon="5.60649">
        <ele>346.79998779297</ele>
        <time>2022-03-23T08:07:08.000Z</time>
      </trkpt>
      <trkpt lat="49.66199" lon="5.60702">
        <ele>344</ele>
        <time>2022-03-23T08:07:16.000Z</time>
      </trkpt>
      <trkpt lat="49.66193" lon="5.60716">
        <ele>344.20001220703</ele>
        <time>2022-03-23T08:07:18.000Z</time>
      </trkpt>
      <trkpt lat="49.66164" lon="5.60777">
        <ele>346</ele>
        <time>2022-03-23T08:07:27.000Z</time>
      </trkpt>
      <trkpt lat="49.66132" lon="5.60842">
        <ele>346.79998779297</ele>
        <time>2022-03-23T08:07:37.000Z</time>
      </trkpt>
      <trkpt lat="49.66105" lon="5.60894">
        <ele>348.20001220703</ele>
        <time>2022-03-23T08:07:45.000Z</time>
      </trkpt>
      <trkpt lat="49.66072" lon="5.60961">
        <ele>349.60000610352</ele>
        <time>2022-03-23T08:07:55.000Z</time>
      </trkpt>
      <trkpt lat="49.66036" lon="5.61027">
        <ele>346.39999389648</ele>
        <time>2022-03-23T08:08:05.000Z</time>
      </trkpt>
      <trkpt lat="49.66032" lon="5.61034">
        <ele>345.79998779297</ele>
        <time>2022-03-23T08:08:06.000Z</time>
      </trkpt>
      <trkpt lat="49.6602" lon="5.61054">
        <ele>344.20001220703</ele>
        <time>2022-03-23T08:08:09.000Z</time>
      </trkpt>
      <trkpt lat="49.65994" lon="5.61095">
        <ele>343.60000610352</ele>
        <time>2022-03-23T08:08:15.000Z</time>
      </trkpt>
      <trkpt lat="49.6599" lon="5.61102">
        <ele>344</ele>
        <time>2022-03-23T08:08:16.000Z</time>
      </trkpt>
      <trkpt lat="49.65969" lon="5.61136">
        <ele>345.60000610352</ele>
        <time>2022-03-23T08:08:21.000Z</time>
      </trkpt>
      <trkpt lat="49.65953" lon="5.61161">
        <ele>346.79998779297</ele>
        <time>2022-03-23T08:08:25.000Z</time>
      </trkpt>
      <trkpt lat="49.65925" lon="5.61205">
        <ele>347.39999389648</ele>
        <time>2022-03-23T08:08:33.000Z</time>
      </trkpt>
      <trkpt lat="49.65905" lon="5.61234">
        <ele>348.39999389648</ele>
        <time>2022-03-23T08:08:40.000Z</time>
      </trkpt>
      <trkpt lat="49.65903" lon="5.61236">
        <ele>348.60000610352</ele>
        <time>2022-03-23T08:08:41.000Z</time>
      </trkpt>
      <trkpt lat="49.65895" lon="5.61251">
        <ele>349.79998779297</ele>
        <time>2022-03-23T08:08:47.000Z</time>
      </trkpt>
      <trkpt lat="49.65895" lon="5.61272">
        <ele>353.60000610352</ele>
        <time>2022-03-23T08:08:51.000Z</time>
      </trkpt>
      <trkpt lat="49.65895" lon="5.61278">
        <ele>354.60000610352</ele>
        <time>2022-03-23T08:08:52.000Z</time>
      </trkpt>
      <trkpt lat="49.65896" lon="5.613">
        <ele>357.79998779297</ele>
        <time>2022-03-23T08:08:56.000Z</time>
      </trkpt>
      <trkpt lat="49.65901" lon="5.61315">
        <ele>359.39999389648</ele>
        <time>2022-03-23T08:08:59.000Z</time>
      </trkpt>
      <trkpt lat="49.65905" lon="5.61324">
        <ele>359.79998779297</ele>
        <time>2022-03-23T08:09:01.000Z</time>
      </trkpt>
      <trkpt lat="49.6592" lon="5.61346">
        <ele>360.20001220703</ele>
        <time>2022-03-23T08:09:07.000Z</time>
      </trkpt>
      <trkpt lat="49.65934" lon="5.61363">
        <ele>359.60000610352</ele>
        <time>2022-03-23T08:09:13.000Z</time>
      </trkpt>
      <trkpt lat="49.65937" lon="5.61366">
        <ele>359.39999389648</ele>
        <time>2022-03-23T08:09:14.000Z</time>
      </trkpt>
      <trkpt lat="49.65957" lon="5.61377">
        <ele>360</ele>
        <time>2022-03-23T08:09:20.000Z</time>
      </trkpt>
      <trkpt lat="49.6598" lon="5.61391">
        <ele>361.39999389648</ele>
        <time>2022-03-23T08:09:27.000Z</time>
      </trkpt>
      <trkpt lat="49.65998" lon="5.61408">
        <ele>361</ele>
        <time>2022-03-23T08:09:34.000Z</time>
      </trkpt>
      <trkpt lat="49.66014" lon="5.61424">
        <ele>358.79998779297</ele>
        <time>2022-03-23T08:09:40.000Z</time>
      </trkpt>
      <trkpt lat="49.66033" lon="5.61455">
        <ele>353</ele>
        <time>2022-03-23T08:09:48.000Z</time>
      </trkpt>
      <trkpt lat="49.6604" lon="5.61478">
        <ele>349.39999389648</ele>
        <time>2022-03-23T08:09:54.000Z</time>
      </trkpt>
      <trkpt lat="49.6604" lon="5.61484">
        <ele>348.79998779297</ele>
        <time>2022-03-23T08:09:56.000Z</time>
      </trkpt>
      <trkpt lat="49.66039" lon="5.61494">
        <ele>348.20001220703</ele>
        <time>2022-03-23T08:09:59.000Z</time>
      </trkpt>
      <trkpt lat="49.66039" lon="5.61518">
        <ele>346.79998779297</ele>
        <time>2022-03-23T08:10:04.000Z</time>
      </trkpt>
      <trkpt lat="49.66038" lon="5.6155">
        <ele>346.20001220703</ele>
        <time>2022-03-23T08:10:10.000Z</time>
      </trkpt>
      <trkpt lat="49.66039" lon="5.61582">
        <ele>346.60000610352</ele>
        <time>2022-03-23T08:10:16.000Z</time>
      </trkpt>
      <trkpt lat="49.66039" lon="5.61589">
        <ele>346.79998779297</ele>
        <time>2022-03-23T08:10:17.000Z</time>
      </trkpt>
      <trkpt lat="49.66045" lon="5.61618">
        <ele>346.20001220703</ele>
        <time>2022-03-23T08:10:22.000Z</time>
      </trkpt>
      <trkpt lat="49.66046" lon="5.61622">
        <ele>346</ele>
        <time>2022-03-23T08:10:23.000Z</time>
      </trkpt>
      <trkpt lat="49.66052" lon="5.61645">
        <ele>345.20001220703</ele>
        <time>2022-03-23T08:10:28.000Z</time>
      </trkpt>
      <trkpt lat="49.66065" lon="5.6167">
        <ele>344.60000610352</ele>
        <time>2022-03-23T08:10:34.000Z</time>
      </trkpt>
      <trkpt lat="49.66064" lon="5.61678">
        <ele>344.79998779297</ele>
        <time>2022-03-23T08:10:51.000Z</time>
      </trkpt>
      <trkpt lat="49.66063" lon="5.61682">
        <ele>344.79998779297</ele>
        <time>2022-03-23T08:10:52.000Z</time>
      </trkpt>
      <trkpt lat="49.66059" lon="5.61688">
        <ele>345.20001220703</ele>
        <time>2022-03-23T08:10:55.000Z</time>
      </trkpt>
      <trkpt lat="49.66054" lon="5.61697">
        <ele>345.60000610352</ele>
        <time>2022-03-23T08:10:58.000Z</time>
      </trkpt>
      <trkpt lat="49.66041" lon="5.61714">
        <ele>347</ele>
        <time>2022-03-23T08:11:04.000Z</time>
      </trkpt>
      <trkpt lat="49.66035" lon="5.61724">
        <ele>347.79998779297</ele>
        <time>2022-03-23T08:11:06.000Z</time>
      </trkpt>
      <trkpt lat="49.66031" lon="5.61728">
        <ele>348</ele>
        <time>2022-03-23T08:11:07.000Z</time>
      </trkpt>
      <trkpt lat="49.66024" lon="5.61737">
        <ele>348.79998779297</ele>
        <time>2022-03-23T08:11:10.000Z</time>
      </trkpt>
      <trkpt lat="49.6602" lon="5.61742">
        <ele>349.20001220703</ele>
        <time>2022-03-23T08:11:12.000Z</time>
      </trkpt>
      <trkpt lat="49.66011" lon="5.61756">
        <ele>350</ele>
        <time>2022-03-23T08:11:16.000Z</time>
      </trkpt>
      <trkpt lat="49.65994" lon="5.61777">
        <ele>351.39999389648</ele>
        <time>2022-03-23T08:11:23.000Z</time>
      </trkpt>
      <trkpt lat="49.65982" lon="5.61791">
        <ele>352.79998779297</ele>
        <time>2022-03-23T08:11:28.000Z</time>
      </trkpt>
      <trkpt lat="49.65978" lon="5.61797">
        <ele>353.20001220703</ele>
        <time>2022-03-23T08:11:30.000Z</time>
      </trkpt>
      <trkpt lat="49.65959" lon="5.61822">
        <ele>353.79998779297</ele>
        <time>2022-03-23T08:11:38.000Z</time>
      </trkpt>
      <trkpt lat="49.65947" lon="5.61842">
        <ele>354.39999389648</ele>
        <time>2022-03-23T08:11:45.000Z</time>
      </trkpt>
      <trkpt lat="49.65933" lon="5.61863">
        <ele>353.20001220703</ele>
        <time>2022-03-23T08:11:52.000Z</time>
      </trkpt>
      <trkpt lat="49.65917" lon="5.61882">
        <ele>352.60000610352</ele>
        <time>2022-03-23T08:11:59.000Z</time>
      </trkpt>
      <trkpt lat="49.65897" lon="5.6191">
        <ele>352.60000610352</ele>
        <time>2022-03-23T08:12:07.000Z</time>
      </trkpt>
      <trkpt lat="49.65878" lon="5.61934">
        <ele>351.39999389648</ele>
        <time>2022-03-23T08:12:14.000Z</time>
      </trkpt>
      <trkpt lat="49.65867" lon="5.61949">
        <ele>350.79998779297</ele>
        <time>2022-03-23T08:12:17.000Z</time>
      </trkpt>
      <trkpt lat="49.65856" lon="5.61963">
        <ele>349.20001220703</ele>
        <time>2022-03-23T08:12:20.000Z</time>
      </trkpt>
      <trkpt lat="49.6585" lon="5.61971">
        <ele>347.79998779297</ele>
        <time>2022-03-23T08:12:22.000Z</time>
      </trkpt>
      <trkpt lat="49.65838" lon="5.61991">
        <ele>346</ele>
        <time>2022-03-23T08:12:26.000Z</time>
      </trkpt>
      <trkpt lat="49.65828" lon="5.62005">
        <ele>346</ele>
        <time>2022-03-23T08:12:30.000Z</time>
      </trkpt>
      <trkpt lat="49.65825" lon="5.62016">
        <ele>346</ele>
        <time>2022-03-23T08:12:33.000Z</time>
      </trkpt>
      <trkpt lat="49.65827" lon="5.62018">
        <ele>346</ele>
        <time>2022-03-23T08:12:34.000Z</time>
      </trkpt>
      <trkpt lat="49.65835" lon="5.62024">
        <ele>346</ele>
        <time>2022-03-23T08:12:37.000Z</time>
      </trkpt>
      <trkpt lat="49.65839" lon="5.62026">
        <ele>346</ele>
        <time>2022-03-23T08:12:38.000Z</time>
      </trkpt>
      <trkpt lat="49.65861" lon="5.62033">
        <ele>346</ele>
        <time>2022-03-23T08:12:44.000Z</time>
      </trkpt>
      <trkpt lat="49.65877" lon="5.62042">
        <ele>346.79998779297</ele>
        <time>2022-03-23T08:12:50.000Z</time>
      </trkpt>
      <trkpt lat="49.65873" lon="5.62053">
        <ele>347</ele>
        <time>2022-03-23T08:12:53.000Z</time>
      </trkpt>
      <trkpt lat="49.65866" lon="5.62053">
        <ele>346.79998779297</ele>
        <time>2022-03-23T08:12:55.000Z</time>
      </trkpt>
      <trkpt lat="49.65857" lon="5.62051">
        <ele>346.60000610352</ele>
        <time>2022-03-23T08:12:57.000Z</time>
      </trkpt>
      <trkpt lat="49.65852" lon="5.6205">
        <ele>346.60000610352</ele>
        <time>2022-03-23T08:12:58.000Z</time>
      </trkpt>
      <trkpt lat="49.65842" lon="5.6205">
        <ele>346.20001220703</ele>
        <time>2022-03-23T08:13:00.000Z</time>
      </trkpt>
      <trkpt lat="49.65828" lon="5.62051">
        <ele>346.20001220703</ele>
        <time>2022-03-23T08:13:03.000Z</time>
      </trkpt>
      <trkpt lat="49.65807" lon="5.62055">
        <ele>346.20001220703</ele>
        <time>2022-03-23T08:13:08.000Z</time>
      </trkpt>
      <trkpt lat="49.65772" lon="5.62059">
        <ele>346.39999389648</ele>
        <time>2022-03-23T08:13:16.000Z</time>
      </trkpt>
      <trkpt lat="49.65746" lon="5.62059">
        <ele>347.20001220703</ele>
        <time>2022-03-23T08:13:22.000Z</time>
      </trkpt>
      <trkpt lat="49.65713" lon="5.62061">
        <ele>348.20001220703</ele>
        <time>2022-03-23T08:13:30.000Z</time>
      </trkpt>
      <trkpt lat="49.65677" lon="5.6206">
        <ele>351.20001220703</ele>
        <time>2022-03-23T08:13:38.000Z</time>
      </trkpt>
      <trkpt lat="49.65652" lon="5.62071">
        <ele>351.39999389648</ele>
        <time>2022-03-23T08:13:44.000Z</time>
      </trkpt>
      <trkpt lat="49.65637" lon="5.62091">
        <ele>350</ele>
        <time>2022-03-23T08:13:50.000Z</time>
      </trkpt>
      <trkpt lat="49.65636" lon="5.62095">
        <ele>350</ele>
        <time>2022-03-23T08:13:51.000Z</time>
      </trkpt>
      <trkpt lat="49.65631" lon="5.62109">
        <ele>350</ele>
        <time>2022-03-23T08:13:55.000Z</time>
      </trkpt>
      <trkpt lat="49.6563" lon="5.62116">
        <ele>350</ele>
        <time>2022-03-23T08:13:57.000Z</time>
      </trkpt>
      <trkpt lat="49.65629" lon="5.6212">
        <ele>350.20001220703</ele>
        <time>2022-03-23T08:13:58.000Z</time>
      </trkpt>
      <trkpt lat="49.65625" lon="5.62137">
        <ele>351.20001220703</ele>
        <time>2022-03-23T08:14:03.000Z</time>
      </trkpt>
      <trkpt lat="49.65623" lon="5.62146">
        <ele>351.79998779297</ele>
        <time>2022-03-23T08:14:06.000Z</time>
      </trkpt>
      <trkpt lat="49.65621" lon="5.62153">
        <ele>352.39999389648</ele>
        <time>2022-03-23T08:14:08.000Z</time>
      </trkpt>
      <trkpt lat="49.65619" lon="5.62171">
        <ele>353.79998779297</ele>
        <time>2022-03-23T08:14:13.000Z</time>
      </trkpt>
      <trkpt lat="49.65613" lon="5.62208">
        <ele>355.39999389648</ele>
        <time>2022-03-23T08:14:21.000Z</time>
      </trkpt>
      <trkpt lat="49.65606" lon="5.62245">
        <ele>357.39999389648</ele>
        <time>2022-03-23T08:14:28.000Z</time>
      </trkpt>
      <trkpt lat="49.656" lon="5.62284">
        <ele>358</ele>
        <time>2022-03-23T08:14:35.000Z</time>
      </trkpt>
      <trkpt lat="49.65591" lon="5.62328">
        <ele>355.60000610352</ele>
        <time>2022-03-23T08:14:42.000Z</time>
      </trkpt>
      <trkpt lat="49.65586" lon="5.62342">
        <ele>354.20001220703</ele>
        <time>2022-03-23T08:14:44.000Z</time>
      </trkpt>
      <trkpt lat="49.65579" lon="5.62364">
        <ele>352.60000610352</ele>
        <time>2022-03-23T08:14:47.000Z</time>
      </trkpt>
      <trkpt lat="49.65576" lon="5.62371">
        <ele>352.39999389648</ele>
        <time>2022-03-23T08:14:48.000Z</time>
      </trkpt>
      <trkpt lat="49.65569" lon="5.62387">
        <ele>351.60000610352</ele>
        <time>2022-03-23T08:14:50.000Z</time>
      </trkpt>
      <trkpt lat="49.6556" lon="5.62422">
        <ele>349</ele>
        <time>2022-03-23T08:14:54.000Z</time>
      </trkpt>
      <trkpt lat="49.65558" lon="5.62431">
        <ele>348.79998779297</ele>
        <time>2022-03-23T08:14:55.000Z</time>
      </trkpt>
      <trkpt lat="49.65551" lon="5.6247">
        <ele>350.79998779297</ele>
        <time>2022-03-23T08:15:00.000Z</time>
      </trkpt>
      <trkpt lat="49.65547" lon="5.62495">
        <ele>352.39999389648</ele>
        <time>2022-03-23T08:15:05.000Z</time>
      </trkpt>
      <trkpt lat="49.65546" lon="5.62499">
        <ele>352.60000610352</ele>
        <time>2022-03-23T08:15:06.000Z</time>
      </trkpt>
      <trkpt lat="49.65544" lon="5.62507">
        <ele>353</ele>
        <time>2022-03-23T08:15:08.000Z</time>
      </trkpt>
      <trkpt lat="49.65542" lon="5.62519">
        <ele>353.60000610352</ele>
        <time>2022-03-23T08:15:11.000Z</time>
      </trkpt>
      <trkpt lat="49.65539" lon="5.62527">
        <ele>353.79998779297</ele>
        <time>2022-03-23T08:15:13.000Z</time>
      </trkpt>
      <trkpt lat="49.65532" lon="5.6254">
        <ele>354.39999389648</ele>
        <time>2022-03-23T08:15:16.000Z</time>
      </trkpt>
      <trkpt lat="49.65523" lon="5.62551">
        <ele>355</ele>
        <time>2022-03-23T08:15:19.000Z</time>
      </trkpt>
      <trkpt lat="49.655" lon="5.62579">
        <ele>355.60000610352</ele>
        <time>2022-03-23T08:15:27.000Z</time>
      </trkpt>
      <trkpt lat="49.65491" lon="5.62593">
        <ele>355</ele>
        <time>2022-03-23T08:15:30.000Z</time>
      </trkpt>
      <trkpt lat="49.65485" lon="5.62609">
        <ele>355</ele>
        <time>2022-03-23T08:15:33.000Z</time>
      </trkpt>
      <trkpt lat="49.65471" lon="5.62647">
        <ele>355.79998779297</ele>
        <time>2022-03-23T08:15:40.000Z</time>
      </trkpt>
      <trkpt lat="49.65455" lon="5.62679">
        <ele>354.60000610352</ele>
        <time>2022-03-23T08:15:46.000Z</time>
      </trkpt>
      <trkpt lat="49.65452" lon="5.62684">
        <ele>354.39999389648</ele>
        <time>2022-03-23T08:15:47.000Z</time>
      </trkpt>
      <trkpt lat="49.65434" lon="5.62723">
        <ele>353.79998779297</ele>
        <time>2022-03-23T08:15:54.000Z</time>
      </trkpt>
      <trkpt lat="49.65422" lon="5.62748">
        <ele>354.60000610352</ele>
        <time>2022-03-23T08:15:59.000Z</time>
      </trkpt>
      <trkpt lat="49.65409" lon="5.62782">
        <ele>357</ele>
        <time>2022-03-23T08:16:04.000Z</time>
      </trkpt>
      <trkpt lat="49.65407" lon="5.62789">
        <ele>357.20001220703</ele>
        <time>2022-03-23T08:16:05.000Z</time>
      </trkpt>
      <trkpt lat="49.6541" lon="5.62819">
        <ele>358.79998779297</ele>
        <time>2022-03-23T08:16:09.000Z</time>
      </trkpt>
      <trkpt lat="49.65413" lon="5.62826">
        <ele>359</ele>
        <time>2022-03-23T08:16:10.000Z</time>
      </trkpt>
      <trkpt lat="49.65425" lon="5.62867">
        <ele>358.79998779297</ele>
        <time>2022-03-23T08:16:16.000Z</time>
      </trkpt>
      <trkpt lat="49.65435" lon="5.62917">
        <ele>357.20001220703</ele>
        <time>2022-03-23T08:16:23.000Z</time>
      </trkpt>
      <trkpt lat="49.65447" lon="5.62976">
        <ele>358</ele>
        <time>2022-03-23T08:16:31.000Z</time>
      </trkpt>
      <trkpt lat="49.65449" lon="5.62983">
        <ele>358</ele>
        <time>2022-03-23T08:16:32.000Z</time>
      </trkpt>
      <trkpt lat="49.65459" lon="5.63033">
        <ele>356.60000610352</ele>
        <time>2022-03-23T08:16:39.000Z</time>
      </trkpt>
      <trkpt lat="49.65462" lon="5.63047">
        <ele>355.79998779297</ele>
        <time>2022-03-23T08:16:41.000Z</time>
      </trkpt>
      <trkpt lat="49.65464" lon="5.63054">
        <ele>355.39999389648</ele>
        <time>2022-03-23T08:16:42.000Z</time>
      </trkpt>
      <trkpt lat="49.6547" lon="5.63075">
        <ele>353.79998779297</ele>
        <time>2022-03-23T08:16:45.000Z</time>
      </trkpt>
      <trkpt lat="49.65483" lon="5.63139">
        <ele>352.20001220703</ele>
        <time>2022-03-23T08:16:54.000Z</time>
      </trkpt>
      <trkpt lat="49.6549" lon="5.6317">
        <ele>353</ele>
        <time>2022-03-23T08:16:58.000Z</time>
      </trkpt>
      <trkpt lat="49.65493" lon="5.63186">
        <ele>353.79998779297</ele>
        <time>2022-03-23T08:17:00.000Z</time>
      </trkpt>
      <trkpt lat="49.65495" lon="5.63193">
        <ele>354</ele>
        <time>2022-03-23T08:17:01.000Z</time>
      </trkpt>
      <trkpt lat="49.65506" lon="5.63233">
        <ele>353.60000610352</ele>
        <time>2022-03-23T08:17:06.000Z</time>
      </trkpt>
      <trkpt lat="49.65516" lon="5.63272">
        <ele>351.79998779297</ele>
        <time>2022-03-23T08:17:11.000Z</time>
      </trkpt>
      <trkpt lat="49.65522" lon="5.63299">
        <ele>351</ele>
        <time>2022-03-23T08:17:14.000Z</time>
      </trkpt>
      <trkpt lat="49.65532" lon="5.63332">
        <ele>350.20001220703</ele>
        <time>2022-03-23T08:17:18.000Z</time>
      </trkpt>
      <trkpt lat="49.6554" lon="5.63353">
        <ele>349.79998779297</ele>
        <time>2022-03-23T08:17:21.000Z</time>
      </trkpt>
      <trkpt lat="49.65558" lon="5.63407">
        <ele>348.20001220703</ele>
        <time>2022-03-23T08:17:28.000Z</time>
      </trkpt>
      <trkpt lat="49.65571" lon="5.63451">
        <ele>344.20001220703</ele>
        <time>2022-03-23T08:17:34.000Z</time>
      </trkpt>
      <trkpt lat="49.65571" lon="5.63459">
        <ele>343.79998779297</ele>
        <time>2022-03-23T08:17:35.000Z</time>
      </trkpt>
      <trkpt lat="49.65563" lon="5.63478">
        <ele>343.79998779297</ele>
        <time>2022-03-23T08:17:38.000Z</time>
      </trkpt>
      <trkpt lat="49.65554" lon="5.63489">
        <ele>345</ele>
        <time>2022-03-23T08:17:40.000Z</time>
      </trkpt>
      <trkpt lat="49.6555" lon="5.63495">
        <ele>345.39999389648</ele>
        <time>2022-03-23T08:17:41.000Z</time>
      </trkpt>
      <trkpt lat="49.65547" lon="5.63503">
        <ele>345.39999389648</ele>
        <time>2022-03-23T08:17:42.000Z</time>
      </trkpt>
      <trkpt lat="49.65536" lon="5.63539">
        <ele>346.39999389648</ele>
        <time>2022-03-23T08:17:47.000Z</time>
      </trkpt>
      <trkpt lat="49.65534" lon="5.63553">
        <ele>346.79998779297</ele>
        <time>2022-03-23T08:17:49.000Z</time>
      </trkpt>
      <trkpt lat="49.65532" lon="5.6356">
        <ele>347</ele>
        <time>2022-03-23T08:17:50.000Z</time>
      </trkpt>
      <trkpt lat="49.65528" lon="5.63576">
        <ele>346.60000610352</ele>
        <time>2022-03-23T08:17:52.000Z</time>
      </trkpt>
      <trkpt lat="49.6551" lon="5.63642">
        <ele>349.60000610352</ele>
        <time>2022-03-23T08:18:00.000Z</time>
      </trkpt>
      <trkpt lat="49.65493" lon="5.63678">
        <ele>348.79998779297</ele>
        <time>2022-03-23T08:18:05.000Z</time>
      </trkpt>
      <trkpt lat="49.65489" lon="5.63684">
        <ele>348.60000610352</ele>
        <time>2022-03-23T08:18:06.000Z</time>
      </trkpt>
      <trkpt lat="49.6547" lon="5.63714">
        <ele>344.60000610352</ele>
        <time>2022-03-23T08:18:11.000Z</time>
      </trkpt>
      <trkpt lat="49.65459" lon="5.63735">
        <ele>341.20001220703</ele>
        <time>2022-03-23T08:18:14.000Z</time>
      </trkpt>
      <trkpt lat="49.65444" lon="5.63766">
        <ele>337.79998779297</ele>
        <time>2022-03-23T08:18:19.000Z</time>
      </trkpt>
      <trkpt lat="49.65441" lon="5.63772">
        <ele>337.79998779297</ele>
        <time>2022-03-23T08:18:20.000Z</time>
      </trkpt>
      <trkpt lat="49.65427" lon="5.63813">
        <ele>341</ele>
        <time>2022-03-23T08:18:26.000Z</time>
      </trkpt>
      <trkpt lat="49.65421" lon="5.63828">
        <ele>343.79998779297</ele>
        <time>2022-03-23T08:18:30.000Z</time>
      </trkpt>
      <trkpt lat="49.65418" lon="5.63829">
        <ele>343.79998779297</ele>
        <time>2022-03-23T08:18:31.000Z</time>
      </trkpt>
      <trkpt lat="49.65411" lon="5.63828">
        <ele>343.79998779297</ele>
        <time>2022-03-23T08:18:33.000Z</time>
      </trkpt>
      <trkpt lat="49.65399" lon="5.63826">
        <ele>343.79998779297</ele>
        <time>2022-03-23T08:18:36.000Z</time>
      </trkpt>
      <trkpt lat="49.6538" lon="5.6382">
        <ele>343.79998779297</ele>
        <time>2022-03-23T08:18:41.000Z</time>
      </trkpt>
      <trkpt lat="49.65363" lon="5.63814">
        <ele>344</ele>
        <time>2022-03-23T08:18:46.000Z</time>
      </trkpt>
      <trkpt lat="49.65357" lon="5.63812">
        <ele>345</ele>
        <time>2022-03-23T08:18:48.000Z</time>
      </trkpt>
      <trkpt lat="49.65352" lon="5.6381">
        <ele>346</ele>
        <time>2022-03-23T08:18:50.000Z</time>
      </trkpt>
      <trkpt lat="49.65342" lon="5.63808">
        <ele>347.79998779297</ele>
        <time>2022-03-23T08:18:54.000Z</time>
      </trkpt>
      <trkpt lat="49.6534" lon="5.63806">
        <ele>348.20001220703</ele>
        <time>2022-03-23T08:18:55.000Z</time>
      </trkpt>
      <trkpt lat="49.65335" lon="5.63804">
        <ele>348.79998779297</ele>
        <time>2022-03-23T08:18:57.000Z</time>
      </trkpt>
      <trkpt lat="49.65321" lon="5.63797">
        <ele>350.39999389648</ele>
        <time>2022-03-23T08:19:02.000Z</time>
      </trkpt>
      <trkpt lat="49.65296" lon="5.63783">
        <ele>351.60000610352</ele>
        <time>2022-03-23T08:19:09.000Z</time>
      </trkpt>
      <trkpt lat="49.65278" lon="5.63771">
        <ele>351.79998779297</ele>
        <time>2022-03-23T08:19:13.000Z</time>
      </trkpt>
      <trkpt lat="49.65275" lon="5.63767">
        <ele>352</ele>
        <time>2022-03-23T08:19:14.000Z</time>
      </trkpt>
      <trkpt lat="49.65272" lon="5.63762">
        <ele>352</ele>
        <time>2022-03-23T08:19:15.000Z</time>
      </trkpt>
      <trkpt lat="49.65263" lon="5.63743">
        <ele>351.20001220703</ele>
        <time>2022-03-23T08:19:18.000Z</time>
      </trkpt>
      <trkpt lat="49.65256" lon="5.63732">
        <ele>350.60000610352</ele>
        <time>2022-03-23T08:19:20.000Z</time>
      </trkpt>
      <trkpt lat="49.65235" lon="5.63703">
        <ele>349.60000610352</ele>
        <time>2022-03-23T08:19:27.000Z</time>
      </trkpt>
      <trkpt lat="49.65213" lon="5.63672">
        <ele>348.60000610352</ele>
        <time>2022-03-23T08:19:34.000Z</time>
      </trkpt>
      <trkpt lat="49.65201" lon="5.63654">
        <ele>349.39999389648</ele>
        <time>2022-03-23T08:19:38.000Z</time>
      </trkpt>
      <trkpt lat="49.65199" lon="5.63649">
        <ele>349.39999389648</ele>
        <time>2022-03-23T08:19:39.000Z</time>
      </trkpt>
      <trkpt lat="49.65182" lon="5.63624">
        <ele>350.79998779297</ele>
        <time>2022-03-23T08:19:45.000Z</time>
      </trkpt>
      <trkpt lat="49.65171" lon="5.63603">
        <ele>351.60000610352</ele>
        <time>2022-03-23T08:19:50.000Z</time>
      </trkpt>
      <trkpt lat="49.65171" lon="5.63599">
        <ele>351.39999389648</ele>
        <time>2022-03-23T08:19:51.000Z</time>
      </trkpt>
      <trkpt lat="49.65178" lon="5.6358">
        <ele>350.60000610352</ele>
        <time>2022-03-23T08:19:55.000Z</time>
      </trkpt>
      <trkpt lat="49.65185" lon="5.63555">
        <ele>350</ele>
        <time>2022-03-23T08:20:00.000Z</time>
      </trkpt>
      <trkpt lat="49.6519" lon="5.63532">
        <ele>349</ele>
        <time>2022-03-23T08:20:05.000Z</time>
      </trkpt>
      <trkpt lat="49.6519" lon="5.63523">
        <ele>349.20001220703</ele>
        <time>2022-03-23T08:20:07.000Z</time>
      </trkpt>
      <trkpt lat="49.6519" lon="5.6351">
        <ele>349.20001220703</ele>
        <time>2022-03-23T08:20:10.000Z</time>
      </trkpt>
      <trkpt lat="49.65187" lon="5.63474">
        <ele>350.20001220703</ele>
        <time>2022-03-23T08:20:17.000Z</time>
      </trkpt>
      <trkpt lat="49.65174" lon="5.63442">
        <ele>352</ele>
        <time>2022-03-23T08:20:21.000Z</time>
      </trkpt>
      <trkpt lat="49.65154" lon="5.63415">
        <ele>351.79998779297</ele>
        <time>2022-03-23T08:20:28.000Z</time>
      </trkpt>
      <trkpt lat="49.65139" lon="5.63386">
        <ele>350.60000610352</ele>
        <time>2022-03-23T08:20:34.000Z</time>
      </trkpt>
      <trkpt lat="49.65123" lon="5.63354">
        <ele>348</ele>
        <time>2022-03-23T08:20:41.000Z</time>
      </trkpt>
      <trkpt lat="49.65109" lon="5.63329">
        <ele>346</ele>
        <time>2022-03-23T08:20:48.000Z</time>
      </trkpt>
      <trkpt lat="49.65094" lon="5.63306">
        <ele>345.79998779297</ele>
        <time>2022-03-23T08:20:54.000Z</time>
      </trkpt>
      <trkpt lat="49.6508" lon="5.63287">
        <ele>347.20001220703</ele>
        <time>2022-03-23T08:20:59.000Z</time>
      </trkpt>
      <trkpt lat="49.65078" lon="5.63284">
        <ele>347.60000610352</ele>
        <time>2022-03-23T08:21:00.000Z</time>
      </trkpt>
      <trkpt lat="49.65056" lon="5.63259">
        <ele>350.79998779297</ele>
        <time>2022-03-23T08:21:07.000Z</time>
      </trkpt>
      <trkpt lat="49.65039" lon="5.63238">
        <ele>350.79998779297</ele>
        <time>2022-03-23T08:21:14.000Z</time>
      </trkpt>
      <trkpt lat="49.65026" lon="5.63217">
        <ele>349.39999389648</ele>
        <time>2022-03-23T08:21:20.000Z</time>
      </trkpt>
      <trkpt lat="49.65019" lon="5.63206">
        <ele>348.60000610352</ele>
        <time>2022-03-23T08:21:23.000Z</time>
      </trkpt>
      <trkpt lat="49.6501" lon="5.63191">
        <ele>347.79998779297</ele>
        <time>2022-03-23T08:21:27.000Z</time>
      </trkpt>
      <trkpt lat="49.64984" lon="5.63165">
        <ele>348.79998779297</ele>
        <time>2022-03-23T08:21:35.000Z</time>
      </trkpt>
      <trkpt lat="49.64964" lon="5.63145">
        <ele>349.20001220703</ele>
        <time>2022-03-23T08:21:42.000Z</time>
      </trkpt>
      <trkpt lat="49.64948" lon="5.63124">
        <ele>350</ele>
        <time>2022-03-23T08:21:48.000Z</time>
      </trkpt>
      <trkpt lat="49.64941" lon="5.63102">
        <ele>350.39999389648</ele>
        <time>2022-03-23T08:21:53.000Z</time>
      </trkpt>
      <trkpt lat="49.64928" lon="5.63087">
        <ele>351</ele>
        <time>2022-03-23T08:21:58.000Z</time>
      </trkpt>
      <trkpt lat="49.64909" lon="5.63095">
        <ele>350.79998779297</ele>
        <time>2022-03-23T08:22:04.000Z</time>
      </trkpt>
      <trkpt lat="49.64901" lon="5.631">
        <ele>350.79998779297</ele>
        <time>2022-03-23T08:22:07.000Z</time>
      </trkpt>
      <trkpt lat="49.64885" lon="5.63107">
        <ele>351</ele>
        <time>2022-03-23T08:22:12.000Z</time>
      </trkpt>
      <trkpt lat="49.64869" lon="5.63115">
        <ele>351</ele>
        <time>2022-03-23T08:22:17.000Z</time>
      </trkpt>
      <trkpt lat="49.64855" lon="5.63123">
        <ele>352</ele>
        <time>2022-03-23T08:22:22.000Z</time>
      </trkpt>
      <trkpt lat="49.64852" lon="5.63124">
        <ele>352.20001220703</ele>
        <time>2022-03-23T08:22:23.000Z</time>
      </trkpt>
      <trkpt lat="49.64837" lon="5.63128">
        <ele>352.39999389648</ele>
        <time>2022-03-23T08:22:28.000Z</time>
      </trkpt>
      <trkpt lat="49.64814" lon="5.63133">
        <ele>352.39999389648</ele>
        <time>2022-03-23T08:22:34.000Z</time>
      </trkpt>
      <trkpt lat="49.64785" lon="5.6314">
        <ele>353</ele>
        <time>2022-03-23T08:22:41.000Z</time>
      </trkpt>
      <trkpt lat="49.64758" lon="5.63142">
        <ele>354.79998779297</ele>
        <time>2022-03-23T08:22:48.000Z</time>
      </trkpt>
      <trkpt lat="49.6474" lon="5.63157">
        <ele>356</ele>
        <time>2022-03-23T08:22:54.000Z</time>
      </trkpt>
      <trkpt lat="49.64734" lon="5.63164">
        <ele>356</ele>
        <time>2022-03-23T08:22:57.000Z</time>
      </trkpt>
      <trkpt lat="49.6473" lon="5.63171">
        <ele>356</ele>
        <time>2022-03-23T08:23:00.000Z</time>
      </trkpt>
      <trkpt lat="49.64726" lon="5.63178">
        <ele>356</ele>
        <time>2022-03-23T08:23:03.000Z</time>
      </trkpt>
      <trkpt lat="49.64721" lon="5.63188">
        <ele>356.20001220703</ele>
        <time>2022-03-23T08:23:07.000Z</time>
      </trkpt>
      <trkpt lat="49.64717" lon="5.63197">
        <ele>356.39999389648</ele>
        <time>2022-03-23T08:23:10.000Z</time>
      </trkpt>
      <trkpt lat="49.6471" lon="5.63211">
        <ele>357</ele>
        <time>2022-03-23T08:23:14.000Z</time>
      </trkpt>
      <trkpt lat="49.64709" lon="5.63215">
        <ele>357.20001220703</ele>
        <time>2022-03-23T08:23:15.000Z</time>
      </trkpt>
      <trkpt lat="49.64701" lon="5.63231">
        <ele>358</ele>
        <time>2022-03-23T08:23:20.000Z</time>
      </trkpt>
      <trkpt lat="49.64699" lon="5.63234">
        <ele>358</ele>
        <time>2022-03-23T08:23:21.000Z</time>
      </trkpt>
      <trkpt lat="49.64686" lon="5.63252">
        <ele>359</ele>
        <time>2022-03-23T08:23:28.000Z</time>
      </trkpt>
      <trkpt lat="49.64678" lon="5.63262">
        <ele>359.79998779297</ele>
        <time>2022-03-23T08:23:32.000Z</time>
      </trkpt>
      <trkpt lat="49.64671" lon="5.63271">
        <ele>359.39999389648</ele>
        <time>2022-03-23T08:23:35.000Z</time>
      </trkpt>
      <trkpt lat="49.64659" lon="5.63297">
        <ele>359.39999389648</ele>
        <time>2022-03-23T08:23:41.000Z</time>
      </trkpt>
      <trkpt lat="49.64646" lon="5.63321">
        <ele>360.20001220703</ele>
        <time>2022-03-23T08:23:47.000Z</time>
      </trkpt>
      <trkpt lat="49.64633" lon="5.63353">
        <ele>362.39999389648</ele>
        <time>2022-03-23T08:23:53.000Z</time>
      </trkpt>
      <trkpt lat="49.64628" lon="5.63363">
        <ele>362.60000610352</ele>
        <time>2022-03-23T08:23:55.000Z</time>
      </trkpt>
      <trkpt lat="49.64614" lon="5.63389">
        <ele>364</ele>
        <time>2022-03-23T08:24:01.000Z</time>
      </trkpt>
      <trkpt lat="49.64601" lon="5.63416">
        <ele>364.20001220703</ele>
        <time>2022-03-23T08:24:08.000Z</time>
      </trkpt>
      <trkpt lat="49.64596" lon="5.63429">
        <ele>363.79998779297</ele>
        <time>2022-03-23T08:24:11.000Z</time>
      </trkpt>
      <trkpt lat="49.64596" lon="5.63435">
        <ele>363.20001220703</ele>
        <time>2022-03-23T08:24:12.000Z</time>
      </trkpt>
      <trkpt lat="49.64599" lon="5.63448">
        <ele>362.39999389648</ele>
        <time>2022-03-23T08:24:15.000Z</time>
      </trkpt>
      <trkpt lat="49.64602" lon="5.63455">
        <ele>362</ele>
        <time>2022-03-23T08:24:17.000Z</time>
      </trkpt>
      <trkpt lat="49.64608" lon="5.63467">
        <ele>361.39999389648</ele>
        <time>2022-03-23T08:24:20.000Z</time>
      </trkpt>
      <trkpt lat="49.64612" lon="5.63478">
        <ele>360.79998779297</ele>
        <time>2022-03-23T08:24:22.000Z</time>
      </trkpt>
      <trkpt lat="49.64618" lon="5.63498">
        <ele>360.20001220703</ele>
        <time>2022-03-23T08:24:26.000Z</time>
      </trkpt>
      <trkpt lat="49.64618" lon="5.63522">
        <ele>360</ele>
        <time>2022-03-23T08:24:31.000Z</time>
      </trkpt>
      <trkpt lat="49.64614" lon="5.63539">
        <ele>360.20001220703</ele>
        <time>2022-03-23T08:24:35.000Z</time>
      </trkpt>
      <trkpt lat="49.64607" lon="5.63556">
        <ele>360.20001220703</ele>
        <time>2022-03-23T08:24:48.000Z</time>
      </trkpt>
      <trkpt lat="49.64602" lon="5.63575">
        <ele>360.60000610352</ele>
        <time>2022-03-23T08:24:53.000Z</time>
      </trkpt>
      <trkpt lat="49.64596" lon="5.63599">
        <ele>361</ele>
        <time>2022-03-23T08:24:57.000Z</time>
      </trkpt>
      <trkpt lat="49.64586" lon="5.63625">
        <ele>361</ele>
        <time>2022-03-23T08:25:01.000Z</time>
      </trkpt>
      <trkpt lat="49.64583" lon="5.63631">
        <ele>360.79998779297</ele>
        <time>2022-03-23T08:25:02.000Z</time>
      </trkpt>
      <trkpt lat="49.64574" lon="5.63655">
        <ele>360</ele>
        <time>2022-03-23T08:25:06.000Z</time>
      </trkpt>
      <trkpt lat="49.64572" lon="5.63679">
        <ele>360</ele>
        <time>2022-03-23T08:25:10.000Z</time>
      </trkpt>
      <trkpt lat="49.64579" lon="5.63705">
        <ele>360</ele>
        <time>2022-03-23T08:25:15.000Z</time>
      </trkpt>
      <trkpt lat="49.64589" lon="5.63721">
        <ele>360</ele>
        <time>2022-03-23T08:25:19.000Z</time>
      </trkpt>
      <trkpt lat="49.64611" lon="5.63745">
        <ele>360.20001220703</ele>
        <time>2022-03-23T08:25:26.000Z</time>
      </trkpt>
      <trkpt lat="49.64627" lon="5.63759">
        <ele>360.20001220703</ele>
        <time>2022-03-23T08:25:31.000Z</time>
      </trkpt>
      <trkpt lat="49.64644" lon="5.63777">
        <ele>360.20001220703</ele>
        <time>2022-03-23T08:25:37.000Z</time>
      </trkpt>
      <trkpt lat="49.64668" lon="5.63796">
        <ele>361.79998779297</ele>
        <time>2022-03-23T08:25:44.000Z</time>
      </trkpt>
      <trkpt lat="49.64687" lon="5.6382">
        <ele>362.60000610352</ele>
        <time>2022-03-23T08:25:50.000Z</time>
      </trkpt>
      <trkpt lat="49.64708" lon="5.63839">
        <ele>363.39999389648</ele>
        <time>2022-03-23T08:25:56.000Z</time>
      </trkpt>
      <trkpt lat="49.64728" lon="5.63855">
        <ele>363.79998779297</ele>
        <time>2022-03-23T08:26:01.000Z</time>
      </trkpt>
      <trkpt lat="49.64739" lon="5.63873">
        <ele>362.79998779297</ele>
        <time>2022-03-23T08:26:05.000Z</time>
      </trkpt>
      <trkpt lat="49.64746" lon="5.63888">
        <ele>361.79998779297</ele>
        <time>2022-03-23T08:26:09.000Z</time>
      </trkpt>
      <trkpt lat="49.64749" lon="5.63912">
        <ele>361.39999389648</ele>
        <time>2022-03-23T08:26:14.000Z</time>
      </trkpt>
      <trkpt lat="49.64746" lon="5.6394">
        <ele>361.60000610352</ele>
        <time>2022-03-23T08:26:20.000Z</time>
      </trkpt>
      <trkpt lat="49.64738" lon="5.63959">
        <ele>362.20001220703</ele>
        <time>2022-03-23T08:26:25.000Z</time>
      </trkpt>
      <trkpt lat="49.64734" lon="5.63968">
        <ele>362</ele>
        <time>2022-03-23T08:26:27.000Z</time>
      </trkpt>
      <trkpt lat="49.64734" lon="5.63981">
        <ele>361.79998779297</ele>
        <time>2022-03-23T08:26:29.000Z</time>
      </trkpt>
      <trkpt lat="49.64733" lon="5.63993">
        <ele>361.39999389648</ele>
        <time>2022-03-23T08:26:31.000Z</time>
      </trkpt>
      <trkpt lat="49.64733" lon="5.64012">
        <ele>360.79998779297</ele>
        <time>2022-03-23T08:26:34.000Z</time>
      </trkpt>
      <trkpt lat="49.64735" lon="5.64051">
        <ele>360.79998779297</ele>
        <time>2022-03-23T08:26:40.000Z</time>
      </trkpt>
      <trkpt lat="49.64741" lon="5.64103">
        <ele>362.60000610352</ele>
        <time>2022-03-23T08:26:48.000Z</time>
      </trkpt>
      <trkpt lat="49.64751" lon="5.64132">
        <ele>363</ele>
        <time>2022-03-23T08:26:53.000Z</time>
      </trkpt>
      <trkpt lat="49.6476" lon="5.64168">
        <ele>363.60000610352</ele>
        <time>2022-03-23T08:26:59.000Z</time>
      </trkpt>
      <trkpt lat="49.64769" lon="5.64201">
        <ele>363</ele>
        <time>2022-03-23T08:27:05.000Z</time>
      </trkpt>
      <trkpt lat="49.64775" lon="5.6423">
        <ele>362.20001220703</ele>
        <time>2022-03-23T08:27:10.000Z</time>
      </trkpt>
      <trkpt lat="49.64777" lon="5.64263">
        <ele>362</ele>
        <time>2022-03-23T08:27:16.000Z</time>
      </trkpt>
      <trkpt lat="49.64782" lon="5.64295">
        <ele>362</ele>
        <time>2022-03-23T08:27:21.000Z</time>
      </trkpt>
      <trkpt lat="49.64787" lon="5.64326">
        <ele>361.79998779297</ele>
        <time>2022-03-23T08:27:27.000Z</time>
      </trkpt>
      <trkpt lat="49.64795" lon="5.64353">
        <ele>360.39999389648</ele>
        <time>2022-03-23T08:27:32.000Z</time>
      </trkpt>
      <trkpt lat="49.64802" lon="5.64367">
        <ele>359.39999389648</ele>
        <time>2022-03-23T08:27:35.000Z</time>
      </trkpt>
      <trkpt lat="49.64806" lon="5.64378">
        <ele>358.79998779297</ele>
        <time>2022-03-23T08:27:37.000Z</time>
      </trkpt>
      <trkpt lat="49.64815" lon="5.64412">
        <ele>357.79998779297</ele>
        <time>2022-03-23T08:27:43.000Z</time>
      </trkpt>
      <trkpt lat="49.64823" lon="5.64449">
        <ele>359</ele>
        <time>2022-03-23T08:27:49.000Z</time>
      </trkpt>
      <trkpt lat="49.64836" lon="5.64473">
        <ele>360</ele>
        <time>2022-03-23T08:27:54.000Z</time>
      </trkpt>
      <trkpt lat="49.64839" lon="5.64484">
        <ele>359.79998779297</ele>
        <time>2022-03-23T08:27:56.000Z</time>
      </trkpt>
      <trkpt lat="49.64839" lon="5.64489">
        <ele>359.60000610352</ele>
        <time>2022-03-23T08:27:57.000Z</time>
      </trkpt>
      <trkpt lat="49.64838" lon="5.64492">
        <ele>359.39999389648</ele>
        <time>2022-03-23T08:27:58.000Z</time>
      </trkpt>
      <trkpt lat="49.64836" lon="5.64493">
        <ele>359.20001220703</ele>
        <time>2022-03-23T08:27:59.000Z</time>
      </trkpt>
      <trkpt lat="49.64831" lon="5.64495">
        <ele>358.79998779297</ele>
        <time>2022-03-23T08:28:02.000Z</time>
      </trkpt>
      <trkpt lat="49.64828" lon="5.64495">
        <ele>358.60000610352</ele>
        <time>2022-03-23T08:28:03.000Z</time>
      </trkpt>
      <trkpt lat="49.64797" lon="5.64496">
        <ele>359</ele>
        <time>2022-03-23T08:28:10.000Z</time>
      </trkpt>
      <trkpt lat="49.64794" lon="5.64496">
        <ele>359</ele>
        <time>2022-03-23T08:28:11.000Z</time>
      </trkpt>
      <trkpt lat="49.64781" lon="5.64498">
        <ele>359</ele>
        <time>2022-03-23T08:28:15.000Z</time>
      </trkpt>
      <trkpt lat="49.6476" lon="5.645">
        <ele>359</ele>
        <time>2022-03-23T08:28:21.000Z</time>
      </trkpt>
      <trkpt lat="49.64756" lon="5.64502">
        <ele>359</ele>
        <time>2022-03-23T08:28:22.000Z</time>
      </trkpt>
      <trkpt lat="49.64735" lon="5.64517">
        <ele>359</ele>
        <time>2022-03-23T08:28:28.000Z</time>
      </trkpt>
      <trkpt lat="49.64728" lon="5.64534">
        <ele>359</ele>
        <time>2022-03-23T08:28:33.000Z</time>
      </trkpt>
      <trkpt lat="49.64729" lon="5.64549">
        <ele>359.60000610352</ele>
        <time>2022-03-23T08:28:37.000Z</time>
      </trkpt>
      <trkpt lat="49.64732" lon="5.64558">
        <ele>360</ele>
        <time>2022-03-23T08:28:39.000Z</time>
      </trkpt>
      <trkpt lat="49.64736" lon="5.64579">
        <ele>360.39999389648</ele>
        <time>2022-03-23T08:28:43.000Z</time>
      </trkpt>
      <trkpt lat="49.64741" lon="5.64601">
        <ele>361</ele>
        <time>2022-03-23T08:28:47.000Z</time>
      </trkpt>
      <trkpt lat="49.64739" lon="5.64629">
        <ele>361.60000610352</ele>
        <time>2022-03-23T08:29:53.000Z</time>
      </trkpt>
      <trkpt lat="49.64736" lon="5.64639">
        <ele>361.79998779297</ele>
        <time>2022-03-23T08:29:56.000Z</time>
      </trkpt>
      <trkpt lat="49.64726" lon="5.64667">
        <ele>362.79998779297</ele>
        <time>2022-03-23T08:30:00.000Z</time>
      </trkpt>
      <trkpt lat="49.64723" lon="5.64675">
        <ele>362.79998779297</ele>
        <time>2022-03-23T08:30:01.000Z</time>
      </trkpt>
      <trkpt lat="49.64716" lon="5.64691">
        <ele>362.60000610352</ele>
        <time>2022-03-23T08:30:04.000Z</time>
      </trkpt>
      <trkpt lat="49.64702" lon="5.64707">
        <ele>362.20001220703</ele>
        <time>2022-03-23T08:30:09.000Z</time>
      </trkpt>
      <trkpt lat="49.64693" lon="5.64731">
        <ele>361.60000610352</ele>
        <time>2022-03-23T08:30:13.000Z</time>
      </trkpt>
      <trkpt lat="49.64693" lon="5.64769">
        <ele>360.79998779297</ele>
        <time>2022-03-23T08:30:19.000Z</time>
      </trkpt>
      <trkpt lat="49.64689" lon="5.64797">
        <ele>359.79998779297</ele>
        <time>2022-03-23T08:30:23.000Z</time>
      </trkpt>
      <trkpt lat="49.64688" lon="5.64804">
        <ele>359.39999389648</ele>
        <time>2022-03-23T08:30:24.000Z</time>
      </trkpt>
      <trkpt lat="49.64678" lon="5.64824">
        <ele>358.20001220703</ele>
        <time>2022-03-23T08:30:28.000Z</time>
      </trkpt>
      <trkpt lat="49.64671" lon="5.64831">
        <ele>358</ele>
        <time>2022-03-23T08:30:30.000Z</time>
      </trkpt>
      <trkpt lat="49.64657" lon="5.64844">
        <ele>357.20001220703</ele>
        <time>2022-03-23T08:30:34.000Z</time>
      </trkpt>
      <trkpt lat="49.64649" lon="5.64849">
        <ele>357</ele>
        <time>2022-03-23T08:30:36.000Z</time>
      </trkpt>
      <trkpt lat="49.64635" lon="5.64852">
        <ele>357.60000610352</ele>
        <time>2022-03-23T08:30:39.000Z</time>
      </trkpt>
      <trkpt lat="49.64625" lon="5.64859">
        <ele>358.20001220703</ele>
        <time>2022-03-23T08:30:41.000Z</time>
      </trkpt>
      <trkpt lat="49.64617" lon="5.64868">
        <ele>359</ele>
        <time>2022-03-23T08:30:43.000Z</time>
      </trkpt>
      <trkpt lat="49.64613" lon="5.64872">
        <ele>359.39999389648</ele>
        <time>2022-03-23T08:30:44.000Z</time>
      </trkpt>
      <trkpt lat="49.64599" lon="5.64882">
        <ele>360</ele>
        <time>2022-03-23T08:30:47.000Z</time>
      </trkpt>
      <trkpt lat="49.64595" lon="5.64885">
        <ele>360</ele>
        <time>2022-03-23T08:30:48.000Z</time>
      </trkpt>
      <trkpt lat="49.64566" lon="5.64902">
        <ele>359.60000610352</ele>
        <time>2022-03-23T08:30:54.000Z</time>
      </trkpt>
      <trkpt lat="49.64556" lon="5.64907">
        <ele>359.39999389648</ele>
        <time>2022-03-23T08:30:56.000Z</time>
      </trkpt>
      <trkpt lat="49.64538" lon="5.64921">
        <ele>358.39999389648</ele>
        <time>2022-03-23T08:31:00.000Z</time>
      </trkpt>
      <trkpt lat="49.64535" lon="5.64927">
        <ele>358.20001220703</ele>
        <time>2022-03-23T08:31:01.000Z</time>
      </trkpt>
      <trkpt lat="49.64531" lon="5.6494">
        <ele>358</ele>
        <time>2022-03-23T08:31:03.000Z</time>
      </trkpt>
      <trkpt lat="49.64522" lon="5.64969">
        <ele>357.79998779297</ele>
        <time>2022-03-23T08:31:07.000Z</time>
      </trkpt>
      <trkpt lat="49.64517" lon="5.64981">
        <ele>358</ele>
        <time>2022-03-23T08:31:09.000Z</time>
      </trkpt>
      <trkpt lat="49.64507" lon="5.64992">
        <ele>358</ele>
        <time>2022-03-23T08:31:12.000Z</time>
      </trkpt>
      <trkpt lat="49.64505" lon="5.64992">
        <ele>358</ele>
        <time>2022-03-23T08:31:13.000Z</time>
      </trkpt>
      <trkpt lat="49.64498" lon="5.64975">
        <ele>357.79998779297</ele>
        <time>2022-03-23T08:31:17.000Z</time>
      </trkpt>
      <trkpt lat="49.64498" lon="5.6497">
        <ele>358</ele>
        <time>2022-03-23T08:31:18.000Z</time>
      </trkpt>
      <trkpt lat="49.6449" lon="5.64932">
        <ele>357.39999389648</ele>
        <time>2022-03-23T08:31:24.000Z</time>
      </trkpt>
      <trkpt lat="49.64484" lon="5.64894">
        <ele>358.79998779297</ele>
        <time>2022-03-23T08:31:31.000Z</time>
      </trkpt>
      <trkpt lat="49.64478" lon="5.64867">
        <ele>360.79998779297</ele>
        <time>2022-03-23T08:31:36.000Z</time>
      </trkpt>
      <trkpt lat="49.64473" lon="5.64837">
        <ele>361.20001220703</ele>
        <time>2022-03-23T08:31:42.000Z</time>
      </trkpt>
      <trkpt lat="49.64457" lon="5.64793">
        <ele>362.39999389648</ele>
        <time>2022-03-23T08:31:49.000Z</time>
      </trkpt>
      <trkpt lat="49.64441" lon="5.64754">
        <ele>364</ele>
        <time>2022-03-23T08:31:56.000Z</time>
      </trkpt>
      <trkpt lat="49.64436" lon="5.64724">
        <ele>363</ele>
        <time>2022-03-23T08:32:01.000Z</time>
      </trkpt>
      <trkpt lat="49.64431" lon="5.64691">
        <ele>362.39999389648</ele>
        <time>2022-03-23T08:32:07.000Z</time>
      </trkpt>
      <trkpt lat="49.64426" lon="5.64662">
        <ele>361.20001220703</ele>
        <time>2022-03-23T08:32:13.000Z</time>
      </trkpt>
      <trkpt lat="49.64418" lon="5.6463">
        <ele>360.60000610352</ele>
        <time>2022-03-23T08:32:19.000Z</time>
      </trkpt>
      <trkpt lat="49.64416" lon="5.64621">
        <ele>360.20001220703</ele>
        <time>2022-03-23T08:32:21.000Z</time>
      </trkpt>
      <trkpt lat="49.64413" lon="5.64601">
        <ele>360</ele>
        <time>2022-03-23T08:32:25.000Z</time>
      </trkpt>
      <trkpt lat="49.64415" lon="5.64577">
        <ele>360.20001220703</ele>
        <time>2022-03-23T08:32:30.000Z</time>
      </trkpt>
      <trkpt lat="49.64419" lon="5.64542">
        <ele>361.60000610352</ele>
        <time>2022-03-23T08:32:36.000Z</time>
      </trkpt>
      <trkpt lat="49.64426" lon="5.64514">
        <ele>362</ele>
        <time>2022-03-23T08:32:41.000Z</time>
      </trkpt>
      <trkpt lat="49.64425" lon="5.64481">
        <ele>360.20001220703</ele>
        <time>2022-03-23T08:32:46.000Z</time>
      </trkpt>
      <trkpt lat="49.64419" lon="5.64445">
        <ele>359</ele>
        <time>2022-03-23T08:32:51.000Z</time>
      </trkpt>
      <trkpt lat="49.64415" lon="5.64423">
        <ele>358.20001220703</ele>
        <time>2022-03-23T08:32:54.000Z</time>
      </trkpt>
      <trkpt lat="49.6441" lon="5.64401">
        <ele>357</ele>
        <time>2022-03-23T08:32:57.000Z</time>
      </trkpt>
      <trkpt lat="49.64408" lon="5.64392">
        <ele>356.39999389648</ele>
        <time>2022-03-23T08:32:58.000Z</time>
      </trkpt>
      <trkpt lat="49.64405" lon="5.64384">
        <ele>356.20001220703</ele>
        <time>2022-03-23T08:32:59.000Z</time>
      </trkpt>
      <trkpt lat="49.64398" lon="5.64366">
        <ele>355.79998779297</ele>
        <time>2022-03-23T08:33:01.000Z</time>
      </trkpt>
      <trkpt lat="49.64394" lon="5.64356">
        <ele>355.60000610352</ele>
        <time>2022-03-23T08:33:02.000Z</time>
      </trkpt>
      <trkpt lat="49.64381" lon="5.64328">
        <ele>355</ele>
        <time>2022-03-23T08:33:05.000Z</time>
      </trkpt>
      <trkpt lat="49.64372" lon="5.64311">
        <ele>355</ele>
        <time>2022-03-23T08:33:07.000Z</time>
      </trkpt>
      <trkpt lat="49.64369" lon="5.64304">
        <ele>355</ele>
        <time>2022-03-23T08:33:08.000Z</time>
      </trkpt>
      <trkpt lat="49.64356" lon="5.6428">
        <ele>355.60000610352</ele>
        <time>2022-03-23T08:33:12.000Z</time>
      </trkpt>
      <trkpt lat="49.64352" lon="5.64275">
        <ele>355.60000610352</ele>
        <time>2022-03-23T08:33:13.000Z</time>
      </trkpt>
      <trkpt lat="49.64339" lon="5.64261">
        <ele>356.20001220703</ele>
        <time>2022-03-23T08:33:16.000Z</time>
      </trkpt>
      <trkpt lat="49.64336" lon="5.64256">
        <ele>356.20001220703</ele>
        <time>2022-03-23T08:33:17.000Z</time>
      </trkpt>
      <trkpt lat="49.64325" lon="5.64233">
        <ele>356</ele>
        <time>2022-03-23T08:33:21.000Z</time>
      </trkpt>
      <trkpt lat="49.64323" lon="5.64228">
        <ele>356</ele>
        <time>2022-03-23T08:33:22.000Z</time>
      </trkpt>
      <trkpt lat="49.64303" lon="5.64197">
        <ele>355.20001220703</ele>
        <time>2022-03-23T08:33:28.000Z</time>
      </trkpt>
      <trkpt lat="49.64281" lon="5.64156">
        <ele>354</ele>
        <time>2022-03-23T08:33:35.000Z</time>
      </trkpt>
      <trkpt lat="49.64278" lon="5.64149">
        <ele>353.79998779297</ele>
        <time>2022-03-23T08:33:36.000Z</time>
      </trkpt>
      <trkpt lat="49.64265" lon="5.64112">
        <ele>353.39999389648</ele>
        <time>2022-03-23T08:33:41.000Z</time>
      </trkpt>
      <trkpt lat="49.64263" lon="5.64104">
        <ele>353.20001220703</ele>
        <time>2022-03-23T08:33:42.000Z</time>
      </trkpt>
      <trkpt lat="49.64252" lon="5.64069">
        <ele>352.39999389648</ele>
        <time>2022-03-23T08:33:47.000Z</time>
      </trkpt>
      <trkpt lat="49.64249" lon="5.64062">
        <ele>352.20001220703</ele>
        <time>2022-03-23T08:33:48.000Z</time>
      </trkpt>
      <trkpt lat="49.64227" lon="5.64016">
        <ele>352.39999389648</ele>
        <time>2022-03-23T08:33:55.000Z</time>
      </trkpt>
      <trkpt lat="49.64223" lon="5.64009">
        <ele>352.20001220703</ele>
        <time>2022-03-23T08:33:56.000Z</time>
      </trkpt>
      <trkpt lat="49.64205" lon="5.63978">
        <ele>351.20001220703</ele>
        <time>2022-03-23T08:34:01.000Z</time>
      </trkpt>
      <trkpt lat="49.64191" lon="5.63954">
        <ele>350.20001220703</ele>
        <time>2022-03-23T08:34:05.000Z</time>
      </trkpt>
      <trkpt lat="49.64184" lon="5.63943">
        <ele>349.39999389648</ele>
        <time>2022-03-23T08:34:07.000Z</time>
      </trkpt>
      <trkpt lat="49.64173" lon="5.63925">
        <ele>348.20001220703</ele>
        <time>2022-03-23T08:34:10.000Z</time>
      </trkpt>
      <trkpt lat="49.64166" lon="5.63913">
        <ele>347.79998779297</ele>
        <time>2022-03-23T08:34:12.000Z</time>
      </trkpt>
      <trkpt lat="49.6416" lon="5.63901">
        <ele>347.60000610352</ele>
        <time>2022-03-23T08:34:14.000Z</time>
      </trkpt>
      <trkpt lat="49.64157" lon="5.63896">
        <ele>347.39999389648</ele>
        <time>2022-03-23T08:34:15.000Z</time>
      </trkpt>
      <trkpt lat="49.64146" lon="5.63878">
        <ele>347.20001220703</ele>
        <time>2022-03-23T08:34:18.000Z</time>
      </trkpt>
      <trkpt lat="49.64143" lon="5.63868">
        <ele>347</ele>
        <time>2022-03-23T08:34:20.000Z</time>
      </trkpt>
      <trkpt lat="49.64137" lon="5.6386">
        <ele>347.60000610352</ele>
        <time>2022-03-23T08:34:24.000Z</time>
      </trkpt>
      <trkpt lat="49.64137" lon="5.63875">
        <ele>347.60000610352</ele>
        <time>2022-03-23T08:34:29.000Z</time>
      </trkpt>
      <trkpt lat="49.64132" lon="5.63908">
        <ele>347.79998779297</ele>
        <time>2022-03-23T08:34:35.000Z</time>
      </trkpt>
      <trkpt lat="49.64125" lon="5.63934">
        <ele>347.39999389648</ele>
        <time>2022-03-23T08:34:39.000Z</time>
      </trkpt>
      <trkpt lat="49.64123" lon="5.6394">
        <ele>346.79998779297</ele>
        <time>2022-03-23T08:34:40.000Z</time>
      </trkpt>
      <trkpt lat="49.64121" lon="5.63946">
        <ele>346.39999389648</ele>
        <time>2022-03-23T08:34:41.000Z</time>
      </trkpt>
      <trkpt lat="49.64104" lon="5.63975">
        <ele>345</ele>
        <time>2022-03-23T08:34:45.000Z</time>
      </trkpt>
      <trkpt lat="49.64095" lon="5.6399">
        <ele>344.39999389648</ele>
        <time>2022-03-23T08:34:47.000Z</time>
      </trkpt>
      <trkpt lat="49.64073" lon="5.64024">
        <ele>342.79998779297</ele>
        <time>2022-03-23T08:34:52.000Z</time>
      </trkpt>
      <trkpt lat="49.64065" lon="5.64036">
        <ele>343.20001220703</ele>
        <time>2022-03-23T08:34:54.000Z</time>
      </trkpt>
      <trkpt lat="49.64051" lon="5.64057">
        <ele>341.79998779297</ele>
        <time>2022-03-23T08:34:57.000Z</time>
      </trkpt>
      <trkpt lat="49.64046" lon="5.64063">
        <ele>341.60000610352</ele>
        <time>2022-03-23T08:34:58.000Z</time>
      </trkpt>
      <trkpt lat="49.64036" lon="5.64074">
        <ele>341.20001220703</ele>
        <time>2022-03-23T08:35:00.000Z</time>
      </trkpt>
      <trkpt lat="49.64031" lon="5.64079">
        <ele>341</ele>
        <time>2022-03-23T08:35:01.000Z</time>
      </trkpt>
      <trkpt lat="49.64017" lon="5.6409">
        <ele>341</ele>
        <time>2022-03-23T08:35:04.000Z</time>
      </trkpt>
      <trkpt lat="49.64008" lon="5.64096">
        <ele>341.39999389648</ele>
        <time>2022-03-23T08:35:06.000Z</time>
      </trkpt>
      <trkpt lat="49.63995" lon="5.64104">
        <ele>342</ele>
        <time>2022-03-23T08:35:09.000Z</time>
      </trkpt>
      <trkpt lat="49.63984" lon="5.64111">
        <ele>342</ele>
        <time>2022-03-23T08:35:12.000Z</time>
      </trkpt>
      <trkpt lat="49.63976" lon="5.64118">
        <ele>342.20001220703</ele>
        <time>2022-03-23T08:35:16.000Z</time>
      </trkpt>
      <trkpt lat="49.63975" lon="5.6412">
        <ele>342.39999389648</ele>
        <time>2022-03-23T08:35:17.000Z</time>
      </trkpt>
      <trkpt lat="49.63987" lon="5.6417">
        <ele>347.79998779297</ele>
        <time>2022-03-23T08:35:39.000Z</time>
      </trkpt>
      <trkpt lat="49.6399" lon="5.64177">
        <ele>348.20001220703</ele>
        <time>2022-03-23T08:35:42.000Z</time>
      </trkpt>
      <trkpt lat="49.63991" lon="5.6418">
        <ele>348.39999389648</ele>
        <time>2022-03-23T08:35:43.000Z</time>
      </trkpt>
      <trkpt lat="49.63995" lon="5.64192">
        <ele>348.79998779297</ele>
        <time>2022-03-23T08:35:47.000Z</time>
      </trkpt>
      <trkpt lat="49.63995" lon="5.64195">
        <ele>348.79998779297</ele>
        <time>2022-03-23T08:35:48.000Z</time>
      </trkpt>
      <trkpt lat="49.63996" lon="5.64197">
        <ele>349</ele>
        <time>2022-03-23T08:35:49.000Z</time>
      </trkpt>
      <trkpt lat="49.64" lon="5.64205">
        <ele>349.20001220703</ele>
        <time>2022-03-23T08:35:53.000Z</time>
      </trkpt>
      <trkpt lat="49.64001" lon="5.64207">
        <ele>349.39999389648</ele>
        <time>2022-03-23T08:35:54.000Z</time>
      </trkpt>
      <trkpt lat="49.64006" lon="5.6422">
        <ele>349.79998779297</ele>
        <time>2022-03-23T08:35:59.000Z</time>
      </trkpt>
      <trkpt lat="49.64008" lon="5.64223">
        <ele>350</ele>
        <time>2022-03-23T08:36:01.000Z</time>
      </trkpt>
      <trkpt lat="49.64013" lon="5.64237">
        <ele>350.60000610352</ele>
        <time>2022-03-23T08:36:07.000Z</time>
      </trkpt>
      <trkpt lat="49.64013" lon="5.64239">
        <ele>350.79998779297</ele>
        <time>2022-03-23T08:36:08.000Z</time>
      </trkpt>
      <trkpt lat="49.64015" lon="5.64257">
        <ele>351.39999389648</ele>
        <time>2022-03-23T08:36:15.000Z</time>
      </trkpt>
      <trkpt lat="49.64015" lon="5.64259">
        <ele>351.39999389648</ele>
        <time>2022-03-23T08:36:16.000Z</time>
      </trkpt>
      <trkpt lat="49.64016" lon="5.64262">
        <ele>351.39999389648</ele>
        <time>2022-03-23T08:36:17.000Z</time>
      </trkpt>
      <trkpt lat="49.64016" lon="5.64275">
        <ele>351</ele>
        <time>2022-03-23T08:36:21.000Z</time>
      </trkpt>
      <trkpt lat="49.64016" lon="5.64278">
        <ele>351</ele>
        <time>2022-03-23T08:36:22.000Z</time>
      </trkpt>
      <trkpt lat="49.64015" lon="5.64301">
        <ele>350.79998779297</ele>
        <time>2022-03-23T08:36:28.000Z</time>
      </trkpt>
      <trkpt lat="49.64015" lon="5.64304">
        <ele>350.79998779297</ele>
        <time>2022-03-23T08:36:29.000Z</time>
      </trkpt>
      <trkpt lat="49.64007" lon="5.6436">
        <ele>353.79998779297</ele>
        <time>2022-03-23T08:36:54.000Z</time>
      </trkpt>
      <trkpt lat="49.64006" lon="5.64368">
        <ele>354.20001220703</ele>
        <time>2022-03-23T08:36:58.000Z</time>
      </trkpt>
      <trkpt lat="49.64004" lon="5.64408">
        <ele>357</ele>
        <time>2022-03-23T08:37:15.000Z</time>
      </trkpt>
      <trkpt lat="49.64007" lon="5.64415">
        <ele>357.60000610352</ele>
        <time>2022-03-23T08:37:17.000Z</time>
      </trkpt>
      <trkpt lat="49.64011" lon="5.64437">
        <ele>358.60000610352</ele>
        <time>2022-03-23T08:37:23.000Z</time>
      </trkpt>
      <trkpt lat="49.64017" lon="5.64457">
        <ele>359</ele>
        <time>2022-03-23T08:37:29.000Z</time>
      </trkpt>
      <trkpt lat="49.64023" lon="5.64474">
        <ele>359</ele>
        <time>2022-03-23T08:37:35.000Z</time>
      </trkpt>
      <trkpt lat="49.64031" lon="5.64498">
        <ele>359</ele>
        <time>2022-03-23T08:37:41.000Z</time>
      </trkpt>
      <trkpt lat="49.64043" lon="5.64522">
        <ele>359</ele>
        <time>2022-03-23T08:37:48.000Z</time>
      </trkpt>
      <trkpt lat="49.64045" lon="5.64526">
        <ele>359</ele>
        <time>2022-03-23T08:37:49.000Z</time>
      </trkpt>
      <trkpt lat="49.64052" lon="5.64537">
        <ele>359</ele>
        <time>2022-03-23T08:37:53.000Z</time>
      </trkpt>
      <trkpt lat="49.64066" lon="5.64553">
        <ele>359</ele>
        <time>2022-03-23T08:38:00.000Z</time>
      </trkpt>
      <trkpt lat="49.64078" lon="5.64574">
        <ele>358.39999389648</ele>
        <time>2022-03-23T08:38:05.000Z</time>
      </trkpt>
      <trkpt lat="49.64097" lon="5.64604">
        <ele>357.20001220703</ele>
        <time>2022-03-23T08:38:11.000Z</time>
      </trkpt>
      <trkpt lat="49.64107" lon="5.64621">
        <ele>356.60000610352</ele>
        <time>2022-03-23T08:38:15.000Z</time>
      </trkpt>
      <trkpt lat="49.64111" lon="5.64627">
        <ele>356.20001220703</ele>
        <time>2022-03-23T08:38:17.000Z</time>
      </trkpt>
      <trkpt lat="49.64124" lon="5.64644">
        <ele>356</ele>
        <time>2022-03-23T08:38:23.000Z</time>
      </trkpt>
      <trkpt lat="49.64129" lon="5.6465">
        <ele>356.39999389648</ele>
        <time>2022-03-23T08:38:25.000Z</time>
      </trkpt>
      <trkpt lat="49.64138" lon="5.64658">
        <ele>357</ele>
        <time>2022-03-23T08:38:28.000Z</time>
      </trkpt>
      <trkpt lat="49.6415" lon="5.64677">
        <ele>358.20001220703</ele>
        <time>2022-03-23T08:38:34.000Z</time>
      </trkpt>
      <trkpt lat="49.64163" lon="5.647">
        <ele>358.79998779297</ele>
        <time>2022-03-23T08:38:39.000Z</time>
      </trkpt>
      <trkpt lat="49.64178" lon="5.64729">
        <ele>359.20001220703</ele>
        <time>2022-03-23T08:38:46.000Z</time>
      </trkpt>
      <trkpt lat="49.64183" lon="5.64736">
        <ele>359.39999389648</ele>
        <time>2022-03-23T08:38:48.000Z</time>
      </trkpt>
      <trkpt lat="49.64192" lon="5.64753">
        <ele>360</ele>
        <time>2022-03-23T08:38:52.000Z</time>
      </trkpt>
      <trkpt lat="49.64204" lon="5.64783">
        <ele>361.39999389648</ele>
        <time>2022-03-23T08:38:58.000Z</time>
      </trkpt>
      <trkpt lat="49.64217" lon="5.64808">
        <ele>362.60000610352</ele>
        <time>2022-03-23T08:39:03.000Z</time>
      </trkpt>
      <trkpt lat="49.6423" lon="5.64837">
        <ele>363.39999389648</ele>
        <time>2022-03-23T08:39:09.000Z</time>
      </trkpt>
      <trkpt lat="49.6424" lon="5.64864">
        <ele>363.60000610352</ele>
        <time>2022-03-23T08:39:15.000Z</time>
      </trkpt>
      <trkpt lat="49.64256" lon="5.64885">
        <ele>363.20001220703</ele>
        <time>2022-03-23T08:39:20.000Z</time>
      </trkpt>
      <trkpt lat="49.64258" lon="5.64893">
        <ele>363</ele>
        <time>2022-03-23T08:39:22.000Z</time>
      </trkpt>
      <trkpt lat="49.64257" lon="5.64899">
        <ele>362.60000610352</ele>
        <time>2022-03-23T08:39:24.000Z</time>
      </trkpt>
      <trkpt lat="49.64253" lon="5.64909">
        <ele>361.79998779297</ele>
        <time>2022-03-23T08:39:27.000Z</time>
      </trkpt>
      <trkpt lat="49.64248" lon="5.64922">
        <ele>361</ele>
        <time>2022-03-23T08:39:30.000Z</time>
      </trkpt>
      <trkpt lat="49.64235" lon="5.64946">
        <ele>360.20001220703</ele>
        <time>2022-03-23T08:39:36.000Z</time>
      </trkpt>
      <trkpt lat="49.64213" lon="5.64973">
        <ele>360</ele>
        <time>2022-03-23T08:39:43.000Z</time>
      </trkpt>
      <trkpt lat="49.64189" lon="5.64995">
        <ele>360.39999389648</ele>
        <time>2022-03-23T08:39:50.000Z</time>
      </trkpt>
      <trkpt lat="49.64173" lon="5.65008">
        <ele>359.39999389648</ele>
        <time>2022-03-23T08:39:55.000Z</time>
      </trkpt>
      <trkpt lat="49.6417" lon="5.65011">
        <ele>359.20001220703</ele>
        <time>2022-03-23T08:39:56.000Z</time>
      </trkpt>
      <trkpt lat="49.64152" lon="5.65033">
        <ele>358.60000610352</ele>
        <time>2022-03-23T08:40:02.000Z</time>
      </trkpt>
      <trkpt lat="49.64132" lon="5.65066">
        <ele>357.20001220703</ele>
        <time>2022-03-23T08:40:08.000Z</time>
      </trkpt>
      <trkpt lat="49.64104" lon="5.65103">
        <ele>356.79998779297</ele>
        <time>2022-03-23T08:40:15.000Z</time>
      </trkpt>
      <trkpt lat="49.64088" lon="5.65117">
        <ele>357.20001220703</ele>
        <time>2022-03-23T08:40:19.000Z</time>
      </trkpt>
      <trkpt lat="49.64083" lon="5.65119">
        <ele>357.20001220703</ele>
        <time>2022-03-23T08:40:20.000Z</time>
      </trkpt>
      <trkpt lat="49.64077" lon="5.65121">
        <ele>357</ele>
        <time>2022-03-23T08:40:21.000Z</time>
      </trkpt>
      <trkpt lat="49.64072" lon="5.65122">
        <ele>356.79998779297</ele>
        <time>2022-03-23T08:40:22.000Z</time>
      </trkpt>
      <trkpt lat="49.64061" lon="5.65125">
        <ele>356.79998779297</ele>
        <time>2022-03-23T08:40:24.000Z</time>
      </trkpt>
      <trkpt lat="49.64056" lon="5.65128">
        <ele>357</ele>
        <time>2022-03-23T08:40:25.000Z</time>
      </trkpt>
      <trkpt lat="49.64046" lon="5.65136">
        <ele>357.79998779297</ele>
        <time>2022-03-23T08:40:27.000Z</time>
      </trkpt>
      <trkpt lat="49.64028" lon="5.65154">
        <ele>358.60000610352</ele>
        <time>2022-03-23T08:40:31.000Z</time>
      </trkpt>
      <trkpt lat="49.64015" lon="5.6517">
        <ele>359</ele>
        <time>2022-03-23T08:40:34.000Z</time>
      </trkpt>
      <trkpt lat="49.64008" lon="5.65181">
        <ele>359</ele>
        <time>2022-03-23T08:40:36.000Z</time>
      </trkpt>
      <trkpt lat="49.63989" lon="5.65214">
        <ele>357</ele>
        <time>2022-03-23T08:40:41.000Z</time>
      </trkpt>
      <trkpt lat="49.63964" lon="5.65266">
        <ele>355.39999389648</ele>
        <time>2022-03-23T08:40:49.000Z</time>
      </trkpt>
      <trkpt lat="49.6396" lon="5.65272">
        <ele>355.60000610352</ele>
        <time>2022-03-23T08:40:50.000Z</time>
      </trkpt>
      <trkpt lat="49.63953" lon="5.65283">
        <ele>356</ele>
        <time>2022-03-23T08:40:52.000Z</time>
      </trkpt>
      <trkpt lat="49.63944" lon="5.65293">
        <ele>356.39999389648</ele>
        <time>2022-03-23T08:40:54.000Z</time>
      </trkpt>
      <trkpt lat="49.63939" lon="5.65297">
        <ele>356.60000610352</ele>
        <time>2022-03-23T08:40:55.000Z</time>
      </trkpt>
      <trkpt lat="49.63918" lon="5.65308">
        <ele>356.79998779297</ele>
        <time>2022-03-23T08:40:59.000Z</time>
      </trkpt>
      <trkpt lat="49.63913" lon="5.65312">
        <ele>356.60000610352</ele>
        <time>2022-03-23T08:41:00.000Z</time>
      </trkpt>
      <trkpt lat="49.63895" lon="5.65321">
        <ele>355.20001220703</ele>
        <time>2022-03-23T08:41:04.000Z</time>
      </trkpt>
      <trkpt lat="49.63869" lon="5.65337">
        <ele>353.20001220703</ele>
        <time>2022-03-23T08:41:09.000Z</time>
      </trkpt>
      <trkpt lat="49.63864" lon="5.65341">
        <ele>353</ele>
        <time>2022-03-23T08:41:10.000Z</time>
      </trkpt>
      <trkpt lat="49.63828" lon="5.65364">
        <ele>354.39999389648</ele>
        <time>2022-03-23T08:41:17.000Z</time>
      </trkpt>
      <trkpt lat="49.63811" lon="5.65374">
        <ele>355</ele>
        <time>2022-03-23T08:41:20.000Z</time>
      </trkpt>
      <trkpt lat="49.63788" lon="5.65384">
        <ele>353.79998779297</ele>
        <time>2022-03-23T08:41:24.000Z</time>
      </trkpt>
      <trkpt lat="49.63761" lon="5.65391">
        <ele>352.39999389648</ele>
        <time>2022-03-23T08:41:29.000Z</time>
      </trkpt>
      <trkpt lat="49.63756" lon="5.65392">
        <ele>352.20001220703</ele>
        <time>2022-03-23T08:41:30.000Z</time>
      </trkpt>
      <trkpt lat="49.63751" lon="5.65392">
        <ele>352</ele>
        <time>2022-03-23T08:41:31.000Z</time>
      </trkpt>
      <trkpt lat="49.63727" lon="5.65387">
        <ele>352</ele>
        <time>2022-03-23T08:41:35.000Z</time>
      </trkpt>
      <trkpt lat="49.63721" lon="5.65385">
        <ele>352</ele>
        <time>2022-03-23T08:41:36.000Z</time>
      </trkpt>
      <trkpt lat="49.63698" lon="5.65378">
        <ele>352</ele>
        <time>2022-03-23T08:41:40.000Z</time>
      </trkpt>
      <trkpt lat="49.63687" lon="5.65373">
        <ele>352.39999389648</ele>
        <time>2022-03-23T08:41:42.000Z</time>
      </trkpt>
      <trkpt lat="49.63664" lon="5.65376">
        <ele>353.39999389648</ele>
        <time>2022-03-23T08:41:46.000Z</time>
      </trkpt>
      <trkpt lat="49.63647" lon="5.65388">
        <ele>353.79998779297</ele>
        <time>2022-03-23T08:41:49.000Z</time>
      </trkpt>
      <trkpt lat="49.63636" lon="5.65397">
        <ele>353.39999389648</ele>
        <time>2022-03-23T08:41:51.000Z</time>
      </trkpt>
      <trkpt lat="49.63611" lon="5.65418">
        <ele>350.60000610352</ele>
        <time>2022-03-23T08:41:55.000Z</time>
      </trkpt>
      <trkpt lat="49.63604" lon="5.65424">
        <ele>349.79998779297</ele>
        <time>2022-03-23T08:41:56.000Z</time>
      </trkpt>
      <trkpt lat="49.63598" lon="5.65428">
        <ele>348.79998779297</ele>
        <time>2022-03-23T08:41:57.000Z</time>
      </trkpt>
      <trkpt lat="49.63591" lon="5.65432">
        <ele>348.20001220703</ele>
        <time>2022-03-23T08:41:58.000Z</time>
      </trkpt>
      <trkpt lat="49.63572" lon="5.65446">
        <ele>346.39999389648</ele>
        <time>2022-03-23T08:42:01.000Z</time>
      </trkpt>
      <trkpt lat="49.63566" lon="5.65451">
        <ele>345.60000610352</ele>
        <time>2022-03-23T08:42:02.000Z</time>
      </trkpt>
      <trkpt lat="49.63546" lon="5.65475">
        <ele>344.60000610352</ele>
        <time>2022-03-23T08:42:06.000Z</time>
      </trkpt>
      <trkpt lat="49.6353" lon="5.65494">
        <ele>343.39999389648</ele>
        <time>2022-03-23T08:42:09.000Z</time>
      </trkpt>
      <trkpt lat="49.63515" lon="5.65515">
        <ele>342.20001220703</ele>
        <time>2022-03-23T08:42:12.000Z</time>
      </trkpt>
      <trkpt lat="49.63511" lon="5.65521">
        <ele>342.20001220703</ele>
        <time>2022-03-23T08:42:13.000Z</time>
      </trkpt>
      <trkpt lat="49.63502" lon="5.65533">
        <ele>341.79998779297</ele>
        <time>2022-03-23T08:42:16.000Z</time>
      </trkpt>
      <trkpt lat="49.635" lon="5.65536">
        <ele>341.60000610352</ele>
        <time>2022-03-23T08:42:17.000Z</time>
      </trkpt>
      <trkpt lat="49.6347" lon="5.65581">
        <ele>338.60000610352</ele>
        <time>2022-03-23T08:43:30.000Z</time>
      </trkpt>
      <trkpt lat="49.63474" lon="5.65594">
        <ele>338.79998779297</ele>
        <time>2022-03-23T08:43:35.000Z</time>
      </trkpt>
      <trkpt lat="49.63476" lon="5.65605">
        <ele>339</ele>
        <time>2022-03-23T08:43:38.000Z</time>
      </trkpt>
      <trkpt lat="49.63477" lon="5.65613">
        <ele>339.20001220703</ele>
        <time>2022-03-23T08:43:40.000Z</time>
      </trkpt>
      <trkpt lat="49.63478" lon="5.65623">
        <ele>339.39999389648</ele>
        <time>2022-03-23T08:43:43.000Z</time>
      </trkpt>
      <trkpt lat="49.63478" lon="5.65626">
        <ele>339.39999389648</ele>
        <time>2022-03-23T08:43:44.000Z</time>
      </trkpt>
      <trkpt lat="49.6348" lon="5.65645">
        <ele>340.39999389648</ele>
        <time>2022-03-23T08:43:48.000Z</time>
      </trkpt>
      <trkpt lat="49.63484" lon="5.65669">
        <ele>340.60000610352</ele>
        <time>2022-03-23T08:43:53.000Z</time>
      </trkpt>
      <trkpt lat="49.63485" lon="5.65682">
        <ele>341</ele>
        <time>2022-03-23T08:43:56.000Z</time>
      </trkpt>
      <trkpt lat="49.63486" lon="5.65694">
        <ele>341.60000610352</ele>
        <time>2022-03-23T08:43:59.000Z</time>
      </trkpt>
      <trkpt lat="49.63488" lon="5.65702">
        <ele>342</ele>
        <time>2022-03-23T08:44:02.000Z</time>
      </trkpt>
      <trkpt lat="49.6349" lon="5.65705">
        <ele>342.20001220703</ele>
        <time>2022-03-23T08:44:03.000Z</time>
      </trkpt>
      <trkpt lat="49.63496" lon="5.65721">
        <ele>343.20001220703</ele>
        <time>2022-03-23T08:44:08.000Z</time>
      </trkpt>
      <trkpt lat="49.63497" lon="5.65724">
        <ele>343.39999389648</ele>
        <time>2022-03-23T08:44:09.000Z</time>
      </trkpt>
      <trkpt lat="49.63505" lon="5.65738">
        <ele>344.39999389648</ele>
        <time>2022-03-23T08:44:14.000Z</time>
      </trkpt>
      <trkpt lat="49.6351" lon="5.65747">
        <ele>345.20001220703</ele>
        <time>2022-03-23T08:44:17.000Z</time>
      </trkpt>
      <trkpt lat="49.63514" lon="5.65751">
        <ele>345.60000610352</ele>
        <time>2022-03-23T08:44:19.000Z</time>
      </trkpt>
      <trkpt lat="49.6352" lon="5.65755">
        <ele>346.20001220703</ele>
        <time>2022-03-23T08:44:22.000Z</time>
      </trkpt>
      <trkpt lat="49.63529" lon="5.6576">
        <ele>346.79998779297</ele>
        <time>2022-03-23T08:44:26.000Z</time>
      </trkpt>
      <trkpt lat="49.63545" lon="5.65763">
        <ele>347.60000610352</ele>
        <time>2022-03-23T08:44:32.000Z</time>
      </trkpt>
      <trkpt lat="49.6356" lon="5.6577">
        <ele>348.39999389648</ele>
        <time>2022-03-23T08:44:38.000Z</time>
      </trkpt>
      <trkpt lat="49.63571" lon="5.65785">
        <ele>348.39999389648</ele>
        <time>2022-03-23T08:44:43.000Z</time>
      </trkpt>
      <trkpt lat="49.63576" lon="5.65791">
        <ele>348.20001220703</ele>
        <time>2022-03-23T08:44:45.000Z</time>
      </trkpt>
      <trkpt lat="49.63583" lon="5.65801">
        <ele>348.20001220703</ele>
        <time>2022-03-23T08:44:48.000Z</time>
      </trkpt>
      <trkpt lat="49.63598" lon="5.65824">
        <ele>347.39999389648</ele>
        <time>2022-03-23T08:44:54.000Z</time>
      </trkpt>
      <trkpt lat="49.63608" lon="5.65848">
        <ele>346.20001220703</ele>
        <time>2022-03-23T08:44:59.000Z</time>
      </trkpt>
      <trkpt lat="49.63619" lon="5.65859">
        <ele>345.39999389648</ele>
        <time>2022-03-23T08:45:03.000Z</time>
      </trkpt>
      <trkpt lat="49.63623" lon="5.6586">
        <ele>345.39999389648</ele>
        <time>2022-03-23T08:45:04.000Z</time>
      </trkpt>
      <trkpt lat="49.63646" lon="5.6586">
        <ele>345.60000610352</ele>
        <time>2022-03-23T08:45:10.000Z</time>
      </trkpt>
      <trkpt lat="49.63666" lon="5.65867">
        <ele>347.60000610352</ele>
        <time>2022-03-23T08:45:16.000Z</time>
      </trkpt>
      <trkpt lat="49.63672" lon="5.6587">
        <ele>348.20001220703</ele>
        <time>2022-03-23T08:45:18.000Z</time>
      </trkpt>
      <trkpt lat="49.63683" lon="5.65871">
        <ele>349.39999389648</ele>
        <time>2022-03-23T08:45:22.000Z</time>
      </trkpt>
      <trkpt lat="49.63702" lon="5.6587">
        <ele>350.60000610352</ele>
        <time>2022-03-23T08:45:29.000Z</time>
      </trkpt>
      <trkpt lat="49.6372" lon="5.65873">
        <ele>350</ele>
        <time>2022-03-23T08:45:34.000Z</time>
      </trkpt>
      <trkpt lat="49.63736" lon="5.65883">
        <ele>348.60000610352</ele>
        <time>2022-03-23T08:45:39.000Z</time>
      </trkpt>
      <trkpt lat="49.6375" lon="5.65901">
        <ele>347</ele>
        <time>2022-03-23T08:45:44.000Z</time>
      </trkpt>
      <trkpt lat="49.63767" lon="5.65917">
        <ele>346.20001220703</ele>
        <time>2022-03-23T08:45:49.000Z</time>
      </trkpt>
      <trkpt lat="49.63785" lon="5.65935">
        <ele>345.60000610352</ele>
        <time>2022-03-23T08:45:55.000Z</time>
      </trkpt>
      <trkpt lat="49.63796" lon="5.6595">
        <ele>345.60000610352</ele>
        <time>2022-03-23T08:46:01.000Z</time>
      </trkpt>
      <trkpt lat="49.638" lon="5.65958">
        <ele>345.60000610352</ele>
        <time>2022-03-23T08:46:04.000Z</time>
      </trkpt>
      <trkpt lat="49.63803" lon="5.65966">
        <ele>345.79998779297</ele>
        <time>2022-03-23T08:46:06.000Z</time>
      </trkpt>
      <trkpt lat="49.63807" lon="5.65993">
        <ele>345.79998779297</ele>
        <time>2022-03-23T08:46:12.000Z</time>
      </trkpt>
      <trkpt lat="49.63805" lon="5.66004">
        <ele>345.60000610352</ele>
        <time>2022-03-23T08:46:15.000Z</time>
      </trkpt>
      <trkpt lat="49.63803" lon="5.66005">
        <ele>345.60000610352</ele>
        <time>2022-03-23T08:46:16.000Z</time>
      </trkpt>
      <trkpt lat="49.63799" lon="5.6601">
        <ele>345.20001220703</ele>
        <time>2022-03-23T08:46:19.000Z</time>
      </trkpt>
      <trkpt lat="49.63793" lon="5.66011">
        <ele>344.79998779297</ele>
        <time>2022-03-23T08:46:21.000Z</time>
      </trkpt>
      <trkpt lat="49.63786" lon="5.66014">
        <ele>344.39999389648</ele>
        <time>2022-03-23T08:46:23.000Z</time>
      </trkpt>
      <trkpt lat="49.63775" lon="5.66021">
        <ele>343.60000610352</ele>
        <time>2022-03-23T08:46:26.000Z</time>
      </trkpt>
      <trkpt lat="49.6376" lon="5.66034">
        <ele>343.20001220703</ele>
        <time>2022-03-23T08:46:30.000Z</time>
      </trkpt>
      <trkpt lat="49.63756" lon="5.66038">
        <ele>343.20001220703</ele>
        <time>2022-03-23T08:46:31.000Z</time>
      </trkpt>
      <trkpt lat="49.6373" lon="5.66057">
        <ele>343.20001220703</ele>
        <time>2022-03-23T08:46:37.000Z</time>
      </trkpt>
      <trkpt lat="49.63726" lon="5.66062">
        <ele>343</ele>
        <time>2022-03-23T08:46:38.000Z</time>
      </trkpt>
      <trkpt lat="49.63716" lon="5.66081">
        <ele>342.39999389648</ele>
        <time>2022-03-23T08:46:41.000Z</time>
      </trkpt>
      <trkpt lat="49.63709" lon="5.661">
        <ele>340.60000610352</ele>
        <time>2022-03-23T08:46:44.000Z</time>
      </trkpt>
      <trkpt lat="49.637" lon="5.6612">
        <ele>338.79998779297</ele>
        <time>2022-03-23T08:46:47.000Z</time>
      </trkpt>
      <trkpt lat="49.63691" lon="5.66145">
        <ele>336.39999389648</ele>
        <time>2022-03-23T08:46:50.000Z</time>
      </trkpt>
      <trkpt lat="49.63688" lon="5.66155">
        <ele>335.39999389648</ele>
        <time>2022-03-23T08:46:51.000Z</time>
      </trkpt>
      <trkpt lat="49.63684" lon="5.66165">
        <ele>335</ele>
        <time>2022-03-23T08:46:52.000Z</time>
      </trkpt>
      <trkpt lat="49.6368" lon="5.66175">
        <ele>335</ele>
        <time>2022-03-23T08:46:53.000Z</time>
      </trkpt>
      <trkpt lat="49.63673" lon="5.66194">
        <ele>334.20001220703</ele>
        <time>2022-03-23T08:46:55.000Z</time>
      </trkpt>
      <trkpt lat="49.63667" lon="5.66207">
        <ele>333.79998779297</ele>
        <time>2022-03-23T08:46:57.000Z</time>
      </trkpt>
      <trkpt lat="49.63658" lon="5.66229">
        <ele>332.79998779297</ele>
        <time>2022-03-23T08:47:01.000Z</time>
      </trkpt>
      <trkpt lat="49.63656" lon="5.66234">
        <ele>332.39999389648</ele>
        <time>2022-03-23T08:47:02.000Z</time>
      </trkpt>
      <trkpt lat="49.63649" lon="5.6625">
        <ele>330.79998779297</ele>
        <time>2022-03-23T08:47:05.000Z</time>
      </trkpt>
      <trkpt lat="49.63646" lon="5.66256">
        <ele>330</ele>
        <time>2022-03-23T08:47:06.000Z</time>
      </trkpt>
      <trkpt lat="49.63643" lon="5.66261">
        <ele>329.39999389648</ele>
        <time>2022-03-23T08:47:07.000Z</time>
      </trkpt>
      <trkpt lat="49.63639" lon="5.66266">
        <ele>328.60000610352</ele>
        <time>2022-03-23T08:47:08.000Z</time>
      </trkpt>
      <trkpt lat="49.63635" lon="5.6627">
        <ele>328</ele>
        <time>2022-03-23T08:47:09.000Z</time>
      </trkpt>
      <trkpt lat="49.63631" lon="5.66274">
        <ele>327.39999389648</ele>
        <time>2022-03-23T08:47:10.000Z</time>
      </trkpt>
      <trkpt lat="49.63615" lon="5.66284">
        <ele>325.79998779297</ele>
        <time>2022-03-23T08:47:13.000Z</time>
      </trkpt>
      <trkpt lat="49.63606" lon="5.6629">
        <ele>325</ele>
        <time>2022-03-23T08:47:15.000Z</time>
      </trkpt>
      <trkpt lat="49.63586" lon="5.66299">
        <ele>324</ele>
        <time>2022-03-23T08:47:20.000Z</time>
      </trkpt>
      <trkpt lat="49.63582" lon="5.66301">
        <ele>323.39999389648</ele>
        <time>2022-03-23T08:47:21.000Z</time>
      </trkpt>
      <trkpt lat="49.63569" lon="5.66306">
        <ele>321.60000610352</ele>
        <time>2022-03-23T08:47:24.000Z</time>
      </trkpt>
      <trkpt lat="49.63549" lon="5.6631">
        <ele>318.79998779297</ele>
        <time>2022-03-23T08:47:28.000Z</time>
      </trkpt>
      <trkpt lat="49.63533" lon="5.66311">
        <ele>317</ele>
        <time>2022-03-23T08:47:31.000Z</time>
      </trkpt>
      <trkpt lat="49.63523" lon="5.6631">
        <ele>317</ele>
        <time>2022-03-23T08:47:33.000Z</time>
      </trkpt>
      <trkpt lat="49.63519" lon="5.66307">
        <ele>317.20001220703</ele>
        <time>2022-03-23T08:47:34.000Z</time>
      </trkpt>
      <trkpt lat="49.63512" lon="5.663">
        <ele>317.39999389648</ele>
        <time>2022-03-23T08:47:37.000Z</time>
      </trkpt>
      <trkpt lat="49.63511" lon="5.66297">
        <ele>317.39999389648</ele>
        <time>2022-03-23T08:47:38.000Z</time>
      </trkpt>
      <trkpt lat="49.63507" lon="5.66286">
        <ele>317.79998779297</ele>
        <time>2022-03-23T08:47:43.000Z</time>
      </trkpt>
      <trkpt lat="49.63499" lon="5.66289">
        <ele>317</ele>
        <time>2022-03-23T08:47:56.000Z</time>
      </trkpt>
      <trkpt lat="49.63496" lon="5.6629">
        <ele>316.60000610352</ele>
        <time>2022-03-23T08:47:57.000Z</time>
      </trkpt>
      <trkpt lat="49.63486" lon="5.66281">
        <ele>315.39999389648</ele>
        <time>2022-03-23T08:48:01.000Z</time>
      </trkpt>
      <trkpt lat="49.63483" lon="5.66277">
        <ele>315</ele>
        <time>2022-03-23T08:48:02.000Z</time>
      </trkpt>
      <trkpt lat="49.63472" lon="5.6626">
        <ele>314</ele>
        <time>2022-03-23T08:48:08.000Z</time>
      </trkpt>
      <trkpt lat="49.63463" lon="5.66248">
        <ele>313.79998779297</ele>
        <time>2022-03-23T08:48:14.000Z</time>
      </trkpt>
      <trkpt lat="49.63462" lon="5.66246">
        <ele>313.60000610352</ele>
        <time>2022-03-23T08:48:15.000Z</time>
      </trkpt>
      <trkpt lat="49.63454" lon="5.66236">
        <ele>313.39999389648</ele>
        <time>2022-03-23T08:48:21.000Z</time>
      </trkpt>
      <trkpt lat="49.63451" lon="5.66232">
        <ele>313.20001220703</ele>
        <time>2022-03-23T08:48:23.000Z</time>
      </trkpt>
      <trkpt lat="49.63446" lon="5.66226">
        <ele>313.20001220703</ele>
        <time>2022-03-23T08:48:27.000Z</time>
      </trkpt>
      <trkpt lat="49.63443" lon="5.66223">
        <ele>313.39999389648</ele>
        <time>2022-03-23T08:48:29.000Z</time>
      </trkpt>
      <trkpt lat="49.63438" lon="5.6622">
        <ele>313.79998779297</ele>
        <time>2022-03-23T08:48:32.000Z</time>
      </trkpt>
      <trkpt lat="49.63433" lon="5.66215">
        <ele>314.20001220703</ele>
        <time>2022-03-23T08:48:36.000Z</time>
      </trkpt>
      <trkpt lat="49.63425" lon="5.66207">
        <ele>314.79998779297</ele>
        <time>2022-03-23T08:48:42.000Z</time>
      </trkpt>
      <trkpt lat="49.63424" lon="5.66206">
        <ele>315</ele>
        <time>2022-03-23T08:48:43.000Z</time>
      </trkpt>
      <trkpt lat="49.63418" lon="5.66197">
        <ele>315.60000610352</ele>
        <time>2022-03-23T08:48:49.000Z</time>
      </trkpt>
      <trkpt lat="49.63413" lon="5.66186">
        <ele>316.79998779297</ele>
        <time>2022-03-23T08:48:56.000Z</time>
      </trkpt>
      <trkpt lat="49.63411" lon="5.66184">
        <ele>317</ele>
        <time>2022-03-23T08:48:57.000Z</time>
      </trkpt>
      <trkpt lat="49.6341" lon="5.6618">
        <ele>317.39999389648</ele>
        <time>2022-03-23T08:48:59.000Z</time>
      </trkpt>
      <trkpt lat="49.63403" lon="5.66158">
        <ele>318</ele>
        <time>2022-03-23T08:49:10.000Z</time>
      </trkpt>
      <trkpt lat="49.63401" lon="5.66153">
        <ele>318.39999389648</ele>
        <time>2022-03-23T08:49:12.000Z</time>
      </trkpt>
      <trkpt lat="49.63397" lon="5.6615">
        <ele>319.20001220703</ele>
        <time>2022-03-23T08:49:14.000Z</time>
      </trkpt>
      <trkpt lat="49.63395" lon="5.66148">
        <ele>319.60000610352</ele>
        <time>2022-03-23T08:49:15.000Z</time>
      </trkpt>
      <trkpt lat="49.6339" lon="5.66143">
        <ele>320.60000610352</ele>
        <time>2022-03-23T08:49:18.000Z</time>
      </trkpt>
      <trkpt lat="49.6338" lon="5.66133">
        <ele>322.60000610352</ele>
        <time>2022-03-23T08:49:24.000Z</time>
      </trkpt>
      <trkpt lat="49.63378" lon="5.66132">
        <ele>322.79998779297</ele>
        <time>2022-03-23T08:49:25.000Z</time>
      </trkpt>
      <trkpt lat="49.63368" lon="5.66124">
        <ele>325</ele>
        <time>2022-03-23T08:49:31.000Z</time>
      </trkpt>
      <trkpt lat="49.63358" lon="5.66114">
        <ele>326.20001220703</ele>
        <time>2022-03-23T08:49:37.000Z</time>
      </trkpt>
      <trkpt lat="49.63345" lon="5.66101">
        <ele>326.60000610352</ele>
        <time>2022-03-23T08:49:43.000Z</time>
      </trkpt>
      <trkpt lat="49.63331" lon="5.66082">
        <ele>325.60000610352</ele>
        <time>2022-03-23T08:49:49.000Z</time>
      </trkpt>
      <trkpt lat="49.63317" lon="5.66058">
        <ele>323.60000610352</ele>
        <time>2022-03-23T08:49:55.000Z</time>
      </trkpt>
      <trkpt lat="49.63303" lon="5.66031">
        <ele>322.39999389648</ele>
        <time>2022-03-23T08:50:01.000Z</time>
      </trkpt>
      <trkpt lat="49.63288" lon="5.66002">
        <ele>321.39999389648</ele>
        <time>2022-03-23T08:50:08.000Z</time>
      </trkpt>
      <trkpt lat="49.6327" lon="5.65973">
        <ele>320.20001220703</ele>
        <time>2022-03-23T08:50:15.000Z</time>
      </trkpt>
      <trkpt lat="49.63255" lon="5.65963">
        <ele>320</ele>
        <time>2022-03-23T08:50:20.000Z</time>
      </trkpt>
      <trkpt lat="49.63238" lon="5.65966">
        <ele>320.39999389648</ele>
        <time>2022-03-23T08:50:25.000Z</time>
      </trkpt>
      <trkpt lat="49.63232" lon="5.65967">
        <ele>320.79998779297</ele>
        <time>2022-03-23T08:50:27.000Z</time>
      </trkpt>
      <trkpt lat="49.63222" lon="5.65967">
        <ele>321.60000610352</ele>
        <time>2022-03-23T08:50:32.000Z</time>
      </trkpt>
      <trkpt lat="49.63212" lon="5.65966">
        <ele>322.60000610352</ele>
        <time>2022-03-23T08:50:37.000Z</time>
      </trkpt>
      <trkpt lat="49.63209" lon="5.65967">
        <ele>322.60000610352</ele>
        <time>2022-03-23T08:50:39.000Z</time>
      </trkpt>
      <trkpt lat="49.63193" lon="5.65974">
        <ele>324</ele>
        <time>2022-03-23T08:50:46.000Z</time>
      </trkpt>
      <trkpt lat="49.63189" lon="5.65976">
        <ele>324.60000610352</ele>
        <time>2022-03-23T08:50:48.000Z</time>
      </trkpt>
      <trkpt lat="49.63183" lon="5.6598">
        <ele>326</ele>
        <time>2022-03-23T08:50:51.000Z</time>
      </trkpt>
      <trkpt lat="49.63181" lon="5.65981">
        <ele>326.60000610352</ele>
        <time>2022-03-23T08:50:52.000Z</time>
      </trkpt>
      <trkpt lat="49.63178" lon="5.65984">
        <ele>327.39999389648</ele>
        <time>2022-03-23T08:50:54.000Z</time>
      </trkpt>
      <trkpt lat="49.63172" lon="5.6599">
        <ele>327.79998779297</ele>
        <time>2022-03-23T08:50:58.000Z</time>
      </trkpt>
      <trkpt lat="49.63169" lon="5.65992">
        <ele>328</ele>
        <time>2022-03-23T08:51:00.000Z</time>
      </trkpt>
      <trkpt lat="49.63161" lon="5.66002">
        <ele>329</ele>
        <time>2022-03-23T08:51:08.000Z</time>
      </trkpt>
      <trkpt lat="49.63144" lon="5.66023">
        <ele>331.60000610352</ele>
        <time>2022-03-23T08:51:20.000Z</time>
      </trkpt>
      <trkpt lat="49.63143" lon="5.66025">
        <ele>331.79998779297</ele>
        <time>2022-03-23T08:51:21.000Z</time>
      </trkpt>
      <trkpt lat="49.6314" lon="5.66031">
        <ele>332</ele>
        <time>2022-03-23T08:51:24.000Z</time>
      </trkpt>
      <trkpt lat="49.63138" lon="5.66035">
        <ele>332.39999389648</ele>
        <time>2022-03-23T08:51:26.000Z</time>
      </trkpt>
      <trkpt lat="49.63134" lon="5.66039">
        <ele>332.79998779297</ele>
        <time>2022-03-23T08:51:28.000Z</time>
      </trkpt>
      <trkpt lat="49.63115" lon="5.66058">
        <ele>334</ele>
        <time>2022-03-23T08:51:41.000Z</time>
      </trkpt>
      <trkpt lat="49.63113" lon="5.66063">
        <ele>334.39999389648</ele>
        <time>2022-03-23T08:51:43.000Z</time>
      </trkpt>
      <trkpt lat="49.6311" lon="5.66068">
        <ele>335</ele>
        <time>2022-03-23T08:51:45.000Z</time>
      </trkpt>
      <trkpt lat="49.63106" lon="5.66076">
        <ele>336.20001220703</ele>
        <time>2022-03-23T08:51:48.000Z</time>
      </trkpt>
      <trkpt lat="49.63102" lon="5.66081">
        <ele>336.60000610352</ele>
        <time>2022-03-23T08:51:50.000Z</time>
      </trkpt>
      <trkpt lat="49.63098" lon="5.66089">
        <ele>337.20001220703</ele>
        <time>2022-03-23T08:51:53.000Z</time>
      </trkpt>
      <trkpt lat="49.63094" lon="5.66096">
        <ele>338</ele>
        <time>2022-03-23T08:51:56.000Z</time>
      </trkpt>
      <trkpt lat="49.63093" lon="5.66098">
        <ele>338.39999389648</ele>
        <time>2022-03-23T08:51:57.000Z</time>
      </trkpt>
      <trkpt lat="49.63087" lon="5.66113">
        <ele>339.79998779297</ele>
        <time>2022-03-23T08:52:03.000Z</time>
      </trkpt>
      <trkpt lat="49.63079" lon="5.66147">
        <ele>342.39999389648</ele>
        <time>2022-03-23T08:52:17.000Z</time>
      </trkpt>
      <trkpt lat="49.63081" lon="5.66157">
        <ele>342.79998779297</ele>
        <time>2022-03-23T08:52:20.000Z</time>
      </trkpt>
      <trkpt lat="49.63081" lon="5.66159">
        <ele>342.79998779297</ele>
        <time>2022-03-23T08:52:21.000Z</time>
      </trkpt>
      <trkpt lat="49.63084" lon="5.6617">
        <ele>343</ele>
        <time>2022-03-23T08:52:25.000Z</time>
      </trkpt>
      <trkpt lat="49.63086" lon="5.66184">
        <ele>343.39999389648</ele>
        <time>2022-03-23T08:52:30.000Z</time>
      </trkpt>
      <trkpt lat="49.63087" lon="5.66191">
        <ele>343.60000610352</ele>
        <time>2022-03-23T08:52:32.000Z</time>
      </trkpt>
      <trkpt lat="49.63092" lon="5.66213">
        <ele>344.20001220703</ele>
        <time>2022-03-23T08:52:38.000Z</time>
      </trkpt>
      <trkpt lat="49.63092" lon="5.66219">
        <ele>344.20001220703</ele>
        <time>2022-03-23T08:52:40.000Z</time>
      </trkpt>
      <trkpt lat="49.63092" lon="5.66233">
        <ele>344.39999389648</ele>
        <time>2022-03-23T08:52:43.000Z</time>
      </trkpt>
      <trkpt lat="49.63085" lon="5.66251">
        <ele>344</ele>
        <time>2022-03-23T08:52:48.000Z</time>
      </trkpt>
      <trkpt lat="49.63072" lon="5.66275">
        <ele>344.39999389648</ele>
        <time>2022-03-23T08:52:55.000Z</time>
      </trkpt>
      <trkpt lat="49.63071" lon="5.66276">
        <ele>344.39999389648</ele>
        <time>2022-03-23T08:52:56.000Z</time>
      </trkpt>
      <trkpt lat="49.63066" lon="5.66278">
        <ele>344.20001220703</ele>
        <time>2022-03-23T08:52:59.000Z</time>
      </trkpt>
      <trkpt lat="49.63065" lon="5.66276">
        <ele>344.20001220703</ele>
        <time>2022-03-23T08:53:00.000Z</time>
      </trkpt>
      <trkpt lat="49.63064" lon="5.66274">
        <ele>344.20001220703</ele>
        <time>2022-03-23T08:53:01.000Z</time>
      </trkpt>
      <trkpt lat="49.63062" lon="5.66263">
        <ele>344</ele>
        <time>2022-03-23T08:53:04.000Z</time>
      </trkpt>
      <trkpt lat="49.63053" lon="5.66239">
        <ele>343.60000610352</ele>
        <time>2022-03-23T08:53:10.000Z</time>
      </trkpt>
      <trkpt lat="49.63045" lon="5.66208">
        <ele>343.60000610352</ele>
        <time>2022-03-23T08:53:17.000Z</time>
      </trkpt>
      <trkpt lat="49.63041" lon="5.66179">
        <ele>344</ele>
        <time>2022-03-23T08:53:22.000Z</time>
      </trkpt>
      <trkpt lat="49.63034" lon="5.66137">
        <ele>345</ele>
        <time>2022-03-23T08:53:30.000Z</time>
      </trkpt>
      <trkpt lat="49.63031" lon="5.66109">
        <ele>346.20001220703</ele>
        <time>2022-03-23T08:53:35.000Z</time>
      </trkpt>
      <trkpt lat="49.63026" lon="5.66061">
        <ele>348.20001220703</ele>
        <time>2022-03-23T08:53:43.000Z</time>
      </trkpt>
      <trkpt lat="49.63028" lon="5.66034">
        <ele>348.39999389648</ele>
        <time>2022-03-23T08:53:48.000Z</time>
      </trkpt>
      <trkpt lat="49.63033" lon="5.65994">
        <ele>348.60000610352</ele>
        <time>2022-03-23T08:53:55.000Z</time>
      </trkpt>
      <trkpt lat="49.63034" lon="5.65989">
        <ele>348.39999389648</ele>
        <time>2022-03-23T08:53:56.000Z</time>
      </trkpt>
      <trkpt lat="49.63035" lon="5.65955">
        <ele>347.20001220703</ele>
        <time>2022-03-23T08:54:03.000Z</time>
      </trkpt>
      <trkpt lat="49.63033" lon="5.65934">
        <ele>347.60000610352</ele>
        <time>2022-03-23T08:54:09.000Z</time>
      </trkpt>
      <trkpt lat="49.63032" lon="5.65914">
        <ele>348</ele>
        <time>2022-03-23T08:54:13.000Z</time>
      </trkpt>
      <trkpt lat="49.63031" lon="5.65909">
        <ele>348</ele>
        <time>2022-03-23T08:54:14.000Z</time>
      </trkpt>
      <trkpt lat="49.63027" lon="5.65863">
        <ele>347.39999389648</ele>
        <time>2022-03-23T08:54:22.000Z</time>
      </trkpt>
      <trkpt lat="49.63024" lon="5.65823">
        <ele>346.60000610352</ele>
        <time>2022-03-23T08:54:29.000Z</time>
      </trkpt>
      <trkpt lat="49.6302" lon="5.65795">
        <ele>346.79998779297</ele>
        <time>2022-03-23T08:54:34.000Z</time>
      </trkpt>
      <trkpt lat="49.6302" lon="5.65788">
        <ele>346.79998779297</ele>
        <time>2022-03-23T08:54:35.000Z</time>
      </trkpt>
      <trkpt lat="49.63018" lon="5.65752">
        <ele>347</ele>
        <time>2022-03-23T08:54:41.000Z</time>
      </trkpt>
      <trkpt lat="49.63017" lon="5.65745">
        <ele>346.60000610352</ele>
        <time>2022-03-23T08:54:42.000Z</time>
      </trkpt>
      <trkpt lat="49.63014" lon="5.6572">
        <ele>346</ele>
        <time>2022-03-23T08:54:47.000Z</time>
      </trkpt>
      <trkpt lat="49.63005" lon="5.65691">
        <ele>345.60000610352</ele>
        <time>2022-03-23T08:54:52.000Z</time>
      </trkpt>
      <trkpt lat="49.62994" lon="5.6566">
        <ele>345</ele>
        <time>2022-03-23T08:54:58.000Z</time>
      </trkpt>
      <trkpt lat="49.62978" lon="5.65628">
        <ele>344.39999389648</ele>
        <time>2022-03-23T08:55:04.000Z</time>
      </trkpt>
      <trkpt lat="49.62964" lon="5.65598">
        <ele>345.39999389648</ele>
        <time>2022-03-23T08:55:10.000Z</time>
      </trkpt>
      <trkpt lat="49.62962" lon="5.65593">
        <ele>345.79998779297</ele>
        <time>2022-03-23T08:55:11.000Z</time>
      </trkpt>
      <trkpt lat="49.6295" lon="5.65563">
        <ele>346.79998779297</ele>
        <time>2022-03-23T08:55:16.000Z</time>
      </trkpt>
      <trkpt lat="49.62935" lon="5.65528">
        <ele>348.60000610352</ele>
        <time>2022-03-23T08:55:22.000Z</time>
      </trkpt>
      <trkpt lat="49.62922" lon="5.65488">
        <ele>349.20001220703</ele>
        <time>2022-03-23T08:55:29.000Z</time>
      </trkpt>
      <trkpt lat="49.62908" lon="5.65448">
        <ele>347.79998779297</ele>
        <time>2022-03-23T08:55:35.000Z</time>
      </trkpt>
      <trkpt lat="49.62897" lon="5.65417">
        <ele>346.60000610352</ele>
        <time>2022-03-23T08:55:40.000Z</time>
      </trkpt>
      <trkpt lat="49.62893" lon="5.65402">
        <ele>346.39999389648</ele>
        <time>2022-03-23T08:55:42.000Z</time>
      </trkpt>
      <trkpt lat="49.62884" lon="5.65369">
        <ele>344.20001220703</ele>
        <time>2022-03-23T08:55:47.000Z</time>
      </trkpt>
      <trkpt lat="49.62882" lon="5.65362">
        <ele>343.79998779297</ele>
        <time>2022-03-23T08:55:48.000Z</time>
      </trkpt>
      <trkpt lat="49.62871" lon="5.65331">
        <ele>341.79998779297</ele>
        <time>2022-03-23T08:55:53.000Z</time>
      </trkpt>
      <trkpt lat="49.62861" lon="5.65305">
        <ele>340.79998779297</ele>
        <time>2022-03-23T08:55:57.000Z</time>
      </trkpt>
      <trkpt lat="49.62856" lon="5.65291">
        <ele>340.39999389648</ele>
        <time>2022-03-23T08:55:59.000Z</time>
      </trkpt>
      <trkpt lat="49.62841" lon="5.65252">
        <ele>339.79998779297</ele>
        <time>2022-03-23T08:56:05.000Z</time>
      </trkpt>
      <trkpt lat="49.62835" lon="5.65238">
        <ele>340.20001220703</ele>
        <time>2022-03-23T08:56:07.000Z</time>
      </trkpt>
      <trkpt lat="49.62821" lon="5.65203">
        <ele>342</ele>
        <time>2022-03-23T08:56:12.000Z</time>
      </trkpt>
      <trkpt lat="49.62815" lon="5.65191">
        <ele>342.79998779297</ele>
        <time>2022-03-23T08:56:14.000Z</time>
      </trkpt>
      <trkpt lat="49.62801" lon="5.65167">
        <ele>343.79998779297</ele>
        <time>2022-03-23T08:56:18.000Z</time>
      </trkpt>
      <trkpt lat="49.62795" lon="5.65155">
        <ele>343.60000610352</ele>
        <time>2022-03-23T08:56:20.000Z</time>
      </trkpt>
      <trkpt lat="49.62791" lon="5.65142">
        <ele>343.39999389648</ele>
        <time>2022-03-23T08:56:22.000Z</time>
      </trkpt>
      <trkpt lat="49.62786" lon="5.65131">
        <ele>343.60000610352</ele>
        <time>2022-03-23T08:56:24.000Z</time>
      </trkpt>
      <trkpt lat="49.62774" lon="5.65097">
        <ele>343.39999389648</ele>
        <time>2022-03-23T08:56:30.000Z</time>
      </trkpt>
      <trkpt lat="49.62767" lon="5.65066">
        <ele>342.20001220703</ele>
        <time>2022-03-23T08:56:36.000Z</time>
      </trkpt>
      <trkpt lat="49.62774" lon="5.65058">
        <ele>342.39999389648</ele>
        <time>2022-03-23T08:56:39.000Z</time>
      </trkpt>
      <trkpt lat="49.6278" lon="5.65053">
        <ele>342.79998779297</ele>
        <time>2022-03-23T08:56:41.000Z</time>
      </trkpt>
      <trkpt lat="49.62792" lon="5.65042">
        <ele>343.79998779297</ele>
        <time>2022-03-23T08:56:45.000Z</time>
      </trkpt>
      <trkpt lat="49.62814" lon="5.65025">
        <ele>345.60000610352</ele>
        <time>2022-03-23T08:56:51.000Z</time>
      </trkpt>
      <trkpt lat="49.62819" lon="5.65022">
        <ele>345.39999389648</ele>
        <time>2022-03-23T08:56:52.000Z</time>
      </trkpt>
      <trkpt lat="49.62823" lon="5.65018">
        <ele>345</ele>
        <time>2022-03-23T08:56:53.000Z</time>
      </trkpt>
      <trkpt lat="49.62832" lon="5.6501">
        <ele>344.39999389648</ele>
        <time>2022-03-23T08:56:55.000Z</time>
      </trkpt>
      <trkpt lat="49.62837" lon="5.65004">
        <ele>344</ele>
        <time>2022-03-23T08:56:56.000Z</time>
      </trkpt>
      <trkpt lat="49.62848" lon="5.64993">
        <ele>341.60000610352</ele>
        <time>2022-03-23T08:56:58.000Z</time>
      </trkpt>
      <trkpt lat="49.62858" lon="5.64989">
        <ele>339.60000610352</ele>
        <time>2022-03-23T08:57:00.000Z</time>
      </trkpt>
      <trkpt lat="49.62873" lon="5.64992">
        <ele>336.79998779297</ele>
        <time>2022-03-23T08:57:02.000Z</time>
      </trkpt>
      <trkpt lat="49.62883" lon="5.64995">
        <ele>335.39999389648</ele>
        <time>2022-03-23T08:57:03.000Z</time>
      </trkpt>
      <trkpt lat="49.62893" lon="5.64999">
        <ele>334</ele>
        <time>2022-03-23T08:57:04.000Z</time>
      </trkpt>
      <trkpt lat="49.62902" lon="5.65005">
        <ele>333</ele>
        <time>2022-03-23T08:57:05.000Z</time>
      </trkpt>
      <trkpt lat="49.6291" lon="5.6501">
        <ele>332.60000610352</ele>
        <time>2022-03-23T08:57:06.000Z</time>
      </trkpt>
      <trkpt lat="49.6292" lon="5.65013">
        <ele>331.79998779297</ele>
        <time>2022-03-23T08:57:07.000Z</time>
      </trkpt>
      <trkpt lat="49.62937" lon="5.65014">
        <ele>331.20001220703</ele>
        <time>2022-03-23T08:57:09.000Z</time>
      </trkpt>
      <trkpt lat="49.62945" lon="5.6501">
        <ele>330</ele>
        <time>2022-03-23T08:57:10.000Z</time>
      </trkpt>
      <trkpt lat="49.62953" lon="5.65005">
        <ele>328.79998779297</ele>
        <time>2022-03-23T08:57:11.000Z</time>
      </trkpt>
      <trkpt lat="49.62965" lon="5.65002">
        <ele>327</ele>
        <time>2022-03-23T08:57:13.000Z</time>
      </trkpt>
      <trkpt lat="49.62981" lon="5.6501">
        <ele>326</ele>
        <time>2022-03-23T08:57:16.000Z</time>
      </trkpt>
      <trkpt lat="49.6299" lon="5.65019">
        <ele>326.20001220703</ele>
        <time>2022-03-23T08:57:18.000Z</time>
      </trkpt>
      <trkpt lat="49.63003" lon="5.65034">
        <ele>326.39999389648</ele>
        <time>2022-03-23T08:57:21.000Z</time>
      </trkpt>
      <trkpt lat="49.63008" lon="5.65038">
        <ele>325.39999389648</ele>
        <time>2022-03-23T08:57:22.000Z</time>
      </trkpt>
      <trkpt lat="49.63027" lon="5.65053">
        <ele>321.39999389648</ele>
        <time>2022-03-23T08:57:25.000Z</time>
      </trkpt>
      <trkpt lat="49.63033" lon="5.6506">
        <ele>320.39999389648</ele>
        <time>2022-03-23T08:57:26.000Z</time>
      </trkpt>
      <trkpt lat="49.63052" lon="5.65079">
        <ele>319.20001220703</ele>
        <time>2022-03-23T08:57:29.000Z</time>
      </trkpt>
      <trkpt lat="49.63078" lon="5.65107">
        <ele>316.39999389648</ele>
        <time>2022-03-23T08:57:33.000Z</time>
      </trkpt>
      <trkpt lat="49.63084" lon="5.65115">
        <ele>316</ele>
        <time>2022-03-23T08:57:34.000Z</time>
      </trkpt>
      <trkpt lat="49.63096" lon="5.65143">
        <ele>313.39999389648</ele>
        <time>2022-03-23T08:57:37.000Z</time>
      </trkpt>
      <trkpt lat="49.63104" lon="5.65162">
        <ele>311.60000610352</ele>
        <time>2022-03-23T08:57:39.000Z</time>
      </trkpt>
      <trkpt lat="49.63107" lon="5.65172">
        <ele>310.79998779297</ele>
        <time>2022-03-23T08:57:40.000Z</time>
      </trkpt>
      <trkpt lat="49.63107" lon="5.65184">
        <ele>311.79998779297</ele>
        <time>2022-03-23T08:57:41.000Z</time>
      </trkpt>
      <trkpt lat="49.63106" lon="5.65195">
        <ele>312.79998779297</ele>
        <time>2022-03-23T08:57:42.000Z</time>
      </trkpt>
      <trkpt lat="49.63106" lon="5.65216">
        <ele>313.79998779297</ele>
        <time>2022-03-23T08:57:44.000Z</time>
      </trkpt>
      <trkpt lat="49.63107" lon="5.65233">
        <ele>314.20001220703</ele>
        <time>2022-03-23T08:57:46.000Z</time>
      </trkpt>
      <trkpt lat="49.63107" lon="5.65245">
        <ele>314.39999389648</ele>
        <time>2022-03-23T08:57:48.000Z</time>
      </trkpt>
      <trkpt lat="49.63108" lon="5.65254">
        <ele>314.20001220703</ele>
        <time>2022-03-23T08:57:50.000Z</time>
      </trkpt>
      <trkpt lat="49.63109" lon="5.65258">
        <ele>313.79998779297</ele>
        <time>2022-03-23T08:57:51.000Z</time>
      </trkpt>
      <trkpt lat="49.63115" lon="5.65271">
        <ele>312.60000610352</ele>
        <time>2022-03-23T08:57:54.000Z</time>
      </trkpt>
      <trkpt lat="49.63119" lon="5.6528">
        <ele>312.60000610352</ele>
        <time>2022-03-23T08:57:56.000Z</time>
      </trkpt>
      <trkpt lat="49.63126" lon="5.65296">
        <ele>313.79998779297</ele>
        <time>2022-03-23T08:57:59.000Z</time>
      </trkpt>
      <trkpt lat="49.63132" lon="5.65306">
        <ele>314.20001220703</ele>
        <time>2022-03-23T08:58:01.000Z</time>
      </trkpt>
      <trkpt lat="49.63139" lon="5.65316">
        <ele>314.79998779297</ele>
        <time>2022-03-23T08:58:03.000Z</time>
      </trkpt>
      <trkpt lat="49.63143" lon="5.65323">
        <ele>314.79998779297</ele>
        <time>2022-03-23T08:58:04.000Z</time>
      </trkpt>
      <trkpt lat="49.63152" lon="5.65339">
        <ele>315.60000610352</ele>
        <time>2022-03-23T08:58:07.000Z</time>
      </trkpt>
      <trkpt lat="49.63161" lon="5.65352">
        <ele>314.20001220703</ele>
        <time>2022-03-23T08:58:10.000Z</time>
      </trkpt>
      <trkpt lat="49.63165" lon="5.65356">
        <ele>313.79998779297</ele>
        <time>2022-03-23T08:58:12.000Z</time>
      </trkpt>
      <trkpt lat="49.63171" lon="5.65354">
        <ele>313.79998779297</ele>
        <time>2022-03-23T08:58:13.000Z</time>
      </trkpt>
      <trkpt lat="49.63172" lon="5.65351">
        <ele>314</ele>
        <time>2022-03-23T08:58:14.000Z</time>
      </trkpt>
      <trkpt lat="49.63171" lon="5.65345">
        <ele>314.39999389648</ele>
        <time>2022-03-23T08:58:16.000Z</time>
      </trkpt>
      <trkpt lat="49.63169" lon="5.65342">
        <ele>314.79998779297</ele>
        <time>2022-03-23T08:58:17.000Z</time>
      </trkpt>
      <trkpt lat="49.63166" lon="5.65334">
        <ele>315</ele>
        <time>2022-03-23T08:58:19.000Z</time>
      </trkpt>
      <trkpt lat="49.6316" lon="5.65315">
        <ele>315.20001220703</ele>
        <time>2022-03-23T08:58:23.000Z</time>
      </trkpt>
      <trkpt lat="49.63149" lon="5.65283">
        <ele>312</ele>
        <time>2022-03-23T08:58:28.000Z</time>
      </trkpt>
      <trkpt lat="49.63147" lon="5.65276">
        <ele>311.20001220703</ele>
        <time>2022-03-23T08:58:29.000Z</time>
      </trkpt>
      <trkpt lat="49.63144" lon="5.6523">
        <ele>307.39999389648</ele>
        <time>2022-03-23T08:58:35.000Z</time>
      </trkpt>
      <trkpt lat="49.63144" lon="5.65212">
        <ele>306.79998779297</ele>
        <time>2022-03-23T08:58:37.000Z</time>
      </trkpt>
      <trkpt lat="49.63145" lon="5.6517">
        <ele>303.39999389648</ele>
        <time>2022-03-23T08:58:42.000Z</time>
      </trkpt>
      <trkpt lat="49.63144" lon="5.6514">
        <ele>301</ele>
        <time>2022-03-23T08:58:46.000Z</time>
      </trkpt>
      <trkpt lat="49.63144" lon="5.65124">
        <ele>299.79998779297</ele>
        <time>2022-03-23T08:58:48.000Z</time>
      </trkpt>
      <trkpt lat="49.63136" lon="5.65081">
        <ele>301</ele>
        <time>2022-03-23T08:58:53.000Z</time>
      </trkpt>
      <trkpt lat="49.63127" lon="5.65058">
        <ele>303.60000610352</ele>
        <time>2022-03-23T08:58:56.000Z</time>
      </trkpt>
      <trkpt lat="49.63116" lon="5.65039">
        <ele>305.39999389648</ele>
        <time>2022-03-23T08:58:59.000Z</time>
      </trkpt>
      <trkpt lat="49.63092" lon="5.65002">
        <ele>300.60000610352</ele>
        <time>2022-03-23T08:59:05.000Z</time>
      </trkpt>
      <trkpt lat="49.6308" lon="5.64982">
        <ele>298.79998779297</ele>
        <time>2022-03-23T08:59:08.000Z</time>
      </trkpt>
      <trkpt lat="49.63066" lon="5.64954">
        <ele>297.79998779297</ele>
        <time>2022-03-23T08:59:12.000Z</time>
      </trkpt>
      <trkpt lat="49.63055" lon="5.64932">
        <ele>297.39999389648</ele>
        <time>2022-03-23T08:59:15.000Z</time>
      </trkpt>
      <trkpt lat="49.63035" lon="5.64887">
        <ele>295</ele>
        <time>2022-03-23T08:59:21.000Z</time>
      </trkpt>
      <trkpt lat="49.63032" lon="5.64879">
        <ele>294.60000610352</ele>
        <time>2022-03-23T08:59:22.000Z</time>
      </trkpt>
      <trkpt lat="49.63028" lon="5.64872">
        <ele>294.60000610352</ele>
        <time>2022-03-23T08:59:23.000Z</time>
      </trkpt>
      <trkpt lat="49.63014" lon="5.64841">
        <ele>296.20001220703</ele>
        <time>2022-03-23T08:59:27.000Z</time>
      </trkpt>
      <trkpt lat="49.63011" lon="5.64833">
        <ele>296.60000610352</ele>
        <time>2022-03-23T08:59:28.000Z</time>
      </trkpt>
      <trkpt lat="49.63008" lon="5.64825">
        <ele>297</ele>
        <time>2022-03-23T08:59:29.000Z</time>
      </trkpt>
      <trkpt lat="49.63" lon="5.64812">
        <ele>298.39999389648</ele>
        <time>2022-03-23T08:59:31.000Z</time>
      </trkpt>
      <trkpt lat="49.62981" lon="5.64783">
        <ele>300.79998779297</ele>
        <time>2022-03-23T08:59:36.000Z</time>
      </trkpt>
      <trkpt lat="49.62969" lon="5.64765">
        <ele>301.39999389648</ele>
        <time>2022-03-23T08:59:39.000Z</time>
      </trkpt>
      <trkpt lat="49.62966" lon="5.64758">
        <ele>301.60000610352</ele>
        <time>2022-03-23T08:59:40.000Z</time>
      </trkpt>
      <trkpt lat="49.62962" lon="5.64731">
        <ele>301.20001220703</ele>
        <time>2022-03-23T08:59:43.000Z</time>
      </trkpt>
      <trkpt lat="49.62963" lon="5.64697">
        <ele>300.20001220703</ele>
        <time>2022-03-23T08:59:47.000Z</time>
      </trkpt>
      <trkpt lat="49.62965" lon="5.64689">
        <ele>299.79998779297</ele>
        <time>2022-03-23T08:59:48.000Z</time>
      </trkpt>
      <trkpt lat="49.6297" lon="5.64668">
        <ele>299.20001220703</ele>
        <time>2022-03-23T08:59:51.000Z</time>
      </trkpt>
      <trkpt lat="49.62973" lon="5.64662">
        <ele>298.20001220703</ele>
        <time>2022-03-23T08:59:52.000Z</time>
      </trkpt>
      <trkpt lat="49.6299" lon="5.64618">
        <ele>295.79998779297</ele>
        <time>2022-03-23T08:59:58.000Z</time>
      </trkpt>
      <trkpt lat="49.62993" lon="5.64611">
        <ele>295.60000610352</ele>
        <time>2022-03-23T08:59:59.000Z</time>
      </trkpt>
      <trkpt lat="49.63" lon="5.6459">
        <ele>294.39999389648</ele>
        <time>2022-03-23T09:00:02.000Z</time>
      </trkpt>
      <trkpt lat="49.63006" lon="5.64576">
        <ele>295.20001220703</ele>
        <time>2022-03-23T09:00:04.000Z</time>
      </trkpt>
      <trkpt lat="49.63012" lon="5.64562">
        <ele>296.20001220703</ele>
        <time>2022-03-23T09:00:06.000Z</time>
      </trkpt>
      <trkpt lat="49.63026" lon="5.64527">
        <ele>295.39999389648</ele>
        <time>2022-03-23T09:00:11.000Z</time>
      </trkpt>
      <trkpt lat="49.63031" lon="5.64512">
        <ele>294.39999389648</ele>
        <time>2022-03-23T09:00:13.000Z</time>
      </trkpt>
      <trkpt lat="49.63045" lon="5.64476">
        <ele>292</ele>
        <time>2022-03-23T09:00:18.000Z</time>
      </trkpt>
      <trkpt lat="49.63054" lon="5.64471">
        <ele>291.39999389648</ele>
        <time>2022-03-23T09:00:20.000Z</time>
      </trkpt>
      <trkpt lat="49.63058" lon="5.64471">
        <ele>290.79998779297</ele>
        <time>2022-03-23T09:00:21.000Z</time>
      </trkpt>
      <trkpt lat="49.63067" lon="5.64475">
        <ele>291.20001220703</ele>
        <time>2022-03-23T09:00:23.000Z</time>
      </trkpt>
      <trkpt lat="49.63073" lon="5.64479">
        <ele>291.79998779297</ele>
        <time>2022-03-23T09:00:25.000Z</time>
      </trkpt>
      <trkpt lat="49.63094" lon="5.64486">
        <ele>293.79998779297</ele>
        <time>2022-03-23T09:00:32.000Z</time>
      </trkpt>
      <trkpt lat="49.63107" lon="5.64492">
        <ele>296</ele>
        <time>2022-03-23T09:00:37.000Z</time>
      </trkpt>
      <trkpt lat="49.63113" lon="5.64494">
        <ele>296.79998779297</ele>
        <time>2022-03-23T09:00:39.000Z</time>
      </trkpt>
      <trkpt lat="49.63124" lon="5.64501">
        <ele>298.60000610352</ele>
        <time>2022-03-23T09:00:44.000Z</time>
      </trkpt>
      <trkpt lat="49.63126" lon="5.64503">
        <ele>299</ele>
        <time>2022-03-23T09:00:45.000Z</time>
      </trkpt>
      <trkpt lat="49.63136" lon="5.6451">
        <ele>301.60000610352</ele>
        <time>2022-03-23T09:00:50.000Z</time>
      </trkpt>
      <trkpt lat="49.63138" lon="5.6451">
        <ele>302</ele>
        <time>2022-03-23T09:00:51.000Z</time>
      </trkpt>
      <trkpt lat="49.6315" lon="5.64512">
        <ele>302.60000610352</ele>
        <time>2022-03-23T09:00:57.000Z</time>
      </trkpt>
      <trkpt lat="49.63153" lon="5.64512">
        <ele>302.39999389648</ele>
        <time>2022-03-23T09:00:58.000Z</time>
      </trkpt>
      <trkpt lat="49.63166" lon="5.64508">
        <ele>301</ele>
        <time>2022-03-23T09:01:03.000Z</time>
      </trkpt>
      <trkpt lat="49.63178" lon="5.64502">
        <ele>301</ele>
        <time>2022-03-23T09:01:08.000Z</time>
      </trkpt>
      <trkpt lat="49.63181" lon="5.64501">
        <ele>301.20001220703</ele>
        <time>2022-03-23T09:01:09.000Z</time>
      </trkpt>
      <trkpt lat="49.63218" lon="5.64486">
        <ele>306.60000610352</ele>
        <time>2022-03-23T09:01:47.000Z</time>
      </trkpt>
      <trkpt lat="49.63232" lon="5.64477">
        <ele>307.39999389648</ele>
        <time>2022-03-23T09:01:51.000Z</time>
      </trkpt>
      <trkpt lat="49.63246" lon="5.64469">
        <ele>310.20001220703</ele>
        <time>2022-03-23T09:01:56.000Z</time>
      </trkpt>
      <trkpt lat="49.63249" lon="5.64469">
        <ele>310.39999389648</ele>
        <time>2022-03-23T09:01:57.000Z</time>
      </trkpt>
      <trkpt lat="49.63261" lon="5.64465">
        <ele>311.20001220703</ele>
        <time>2022-03-23T09:02:02.000Z</time>
      </trkpt>
      <trkpt lat="49.63269" lon="5.64459">
        <ele>311.39999389648</ele>
        <time>2022-03-23T09:02:05.000Z</time>
      </trkpt>
      <trkpt lat="49.6328" lon="5.64454">
        <ele>312</ele>
        <time>2022-03-23T09:02:10.000Z</time>
      </trkpt>
      <trkpt lat="49.63288" lon="5.64452">
        <ele>312.39999389648</ele>
        <time>2022-03-23T09:02:14.000Z</time>
      </trkpt>
      <trkpt lat="49.63292" lon="5.64449">
        <ele>312</ele>
        <time>2022-03-23T09:02:16.000Z</time>
      </trkpt>
      <trkpt lat="49.63301" lon="5.64445">
        <ele>311.79998779297</ele>
        <time>2022-03-23T09:02:20.000Z</time>
      </trkpt>
      <trkpt lat="49.63419" lon="5.64319">
        <ele>319.39999389648</ele>
        <time>2022-03-23T09:04:34.000Z</time>
      </trkpt>
      <trkpt lat="49.63423" lon="5.6432">
        <ele>320.39999389648</ele>
        <time>2022-03-23T09:04:36.000Z</time>
      </trkpt>
      <trkpt lat="49.63433" lon="5.64326">
        <ele>323.79998779297</ele>
        <time>2022-03-23T09:04:40.000Z</time>
      </trkpt>
      <trkpt lat="49.63437" lon="5.64326">
        <ele>324.79998779297</ele>
        <time>2022-03-23T09:04:41.000Z</time>
      </trkpt>
      <trkpt lat="49.63452" lon="5.64321">
        <ele>327.79998779297</ele>
        <time>2022-03-23T09:04:44.000Z</time>
      </trkpt>
      <trkpt lat="49.63458" lon="5.64319">
        <ele>329.20001220703</ele>
        <time>2022-03-23T09:04:45.000Z</time>
      </trkpt>
      <trkpt lat="49.63464" lon="5.64316">
        <ele>330.20001220703</ele>
        <time>2022-03-23T09:04:46.000Z</time>
      </trkpt>
      <trkpt lat="49.63488" lon="5.64305">
        <ele>333.60000610352</ele>
        <time>2022-03-23T09:04:50.000Z</time>
      </trkpt>
      <trkpt lat="49.63497" lon="5.64301">
        <ele>335</ele>
        <time>2022-03-23T09:04:52.000Z</time>
      </trkpt>
      <trkpt lat="49.63502" lon="5.64297">
        <ele>335</ele>
        <time>2022-03-23T09:04:53.000Z</time>
      </trkpt>
      <trkpt lat="49.63523" lon="5.64284">
        <ele>337.20001220703</ele>
        <time>2022-03-23T09:04:57.000Z</time>
      </trkpt>
      <trkpt lat="49.63533" lon="5.64277">
        <ele>338.20001220703</ele>
        <time>2022-03-23T09:04:59.000Z</time>
      </trkpt>
      <trkpt lat="49.63554" lon="5.64263">
        <ele>339.79998779297</ele>
        <time>2022-03-23T09:05:04.000Z</time>
      </trkpt>
      <trkpt lat="49.63557" lon="5.64262">
        <ele>340.39999389648</ele>
        <time>2022-03-23T09:05:05.000Z</time>
      </trkpt>
      <trkpt lat="49.63713" lon="5.64122">
        <ele>336.39999389648</ele>
        <time>2022-03-23T09:05:08.000Z</time>
      </trkpt>
      <trkpt lat="49.63715" lon="5.64115">
        <ele>335.39999389648</ele>
        <time>2022-03-23T09:05:09.000Z</time>
      </trkpt>
      <trkpt lat="49.63722" lon="5.64113">
        <ele>335</ele>
        <time>2022-03-23T09:05:11.000Z</time>
      </trkpt>
      <trkpt lat="49.63726" lon="5.64112">
        <ele>335.20001220703</ele>
        <time>2022-03-23T09:05:12.000Z</time>
      </trkpt>
      <trkpt lat="49.63734" lon="5.64109">
        <ele>335.39999389648</ele>
        <time>2022-03-23T09:05:14.000Z</time>
      </trkpt>
      <trkpt lat="49.63744" lon="5.64105">
        <ele>336</ele>
        <time>2022-03-23T09:05:17.000Z</time>
      </trkpt>
      <trkpt lat="49.63749" lon="5.64104">
        <ele>335.60000610352</ele>
        <time>2022-03-23T09:05:19.000Z</time>
      </trkpt>
      <trkpt lat="49.63758" lon="5.64104">
        <ele>335</ele>
        <time>2022-03-23T09:05:23.000Z</time>
      </trkpt>
      <trkpt lat="49.63762" lon="5.64108">
        <ele>335.20001220703</ele>
        <time>2022-03-23T09:05:25.000Z</time>
      </trkpt>
      <trkpt lat="49.63768" lon="5.64112">
        <ele>335.20001220703</ele>
        <time>2022-03-23T09:05:27.000Z</time>
      </trkpt>
      <trkpt lat="49.63786" lon="5.64112">
        <ele>334.60000610352</ele>
        <time>2022-03-23T09:05:30.000Z</time>
      </trkpt>
      <trkpt lat="49.63811" lon="5.64103">
        <ele>333.39999389648</ele>
        <time>2022-03-23T09:05:34.000Z</time>
      </trkpt>
      <trkpt lat="49.63821" lon="5.64103">
        <ele>334.39999389648</ele>
        <time>2022-03-23T09:05:36.000Z</time>
      </trkpt>
      <trkpt lat="49.63831" lon="5.64101">
        <ele>334.79998779297</ele>
        <time>2022-03-23T09:05:38.000Z</time>
      </trkpt>
      <trkpt lat="49.63844" lon="5.64102">
        <ele>335.79998779297</ele>
        <time>2022-03-23T09:05:41.000Z</time>
      </trkpt>
      <trkpt lat="49.63854" lon="5.64102">
        <ele>336.39999389648</ele>
        <time>2022-03-23T09:05:43.000Z</time>
      </trkpt>
      <trkpt lat="49.63867" lon="5.64101">
        <ele>338</ele>
        <time>2022-03-23T09:05:46.000Z</time>
      </trkpt>
      <trkpt lat="49.63885" lon="5.64103">
        <ele>338.39999389648</ele>
        <time>2022-03-23T09:05:50.000Z</time>
      </trkpt>
      <trkpt lat="49.63889" lon="5.64104">
        <ele>338.60000610352</ele>
        <time>2022-03-23T09:05:51.000Z</time>
      </trkpt>
      <trkpt lat="49.63907" lon="5.64108">
        <ele>339.79998779297</ele>
        <time>2022-03-23T09:05:55.000Z</time>
      </trkpt>
      <trkpt lat="49.63915" lon="5.64111">
        <ele>340.39999389648</ele>
        <time>2022-03-23T09:05:57.000Z</time>
      </trkpt>
      <trkpt lat="49.63922" lon="5.64116">
        <ele>341.20001220703</ele>
        <time>2022-03-23T09:05:59.000Z</time>
      </trkpt>
      <trkpt lat="49.63934" lon="5.64127">
        <ele>342.79998779297</ele>
        <time>2022-03-23T09:06:03.000Z</time>
      </trkpt>
      <trkpt lat="49.63942" lon="5.6413">
        <ele>343.39999389648</ele>
        <time>2022-03-23T09:06:06.000Z</time>
      </trkpt>
      <trkpt lat="49.63943" lon="5.64129">
        <ele>343.39999389648</ele>
        <time>2022-03-23T09:06:07.000Z</time>
      </trkpt>
      <trkpt lat="49.63961" lon="5.64108">
        <ele>341.79998779297</ele>
        <time>2022-03-23T09:07:58.000Z</time>
      </trkpt>
      <trkpt lat="49.63958" lon="5.64105">
        <ele>341.60000610352</ele>
        <time>2022-03-23T09:08:50.000Z</time>
      </trkpt>
      <trkpt lat="49.63951" lon="5.64094">
        <ele>341.20001220703</ele>
        <time>2022-03-23T09:08:53.000Z</time>
      </trkpt>
      <trkpt lat="49.63943" lon="5.64077">
        <ele>340.79998779297</ele>
        <time>2022-03-23T09:08:59.000Z</time>
      </trkpt>
      <trkpt lat="49.63936" lon="5.64064">
        <ele>340.39999389648</ele>
        <time>2022-03-23T09:09:04.000Z</time>
      </trkpt>
      <trkpt lat="49.63927" lon="5.64052">
        <ele>339.79998779297</ele>
        <time>2022-03-23T09:09:10.000Z</time>
      </trkpt>
      <trkpt lat="49.63913" lon="5.64027">
        <ele>338.20001220703</ele>
        <time>2022-03-23T09:09:19.000Z</time>
      </trkpt>
      <trkpt lat="49.63899" lon="5.64011">
        <ele>337.39999389648</ele>
        <time>2022-03-23T09:09:26.000Z</time>
      </trkpt>
      <trkpt lat="49.63895" lon="5.64004">
        <ele>337.20001220703</ele>
        <time>2022-03-23T09:09:29.000Z</time>
      </trkpt>
      <trkpt lat="49.63887" lon="5.63998">
        <ele>337.79998779297</ele>
        <time>2022-03-23T09:09:33.000Z</time>
      </trkpt>
      <trkpt lat="49.63881" lon="5.6399">
        <ele>338.79998779297</ele>
        <time>2022-03-23T09:09:48.000Z</time>
      </trkpt>
      <trkpt lat="49.63877" lon="5.63986">
        <ele>339.39999389648</ele>
        <time>2022-03-23T09:09:50.000Z</time>
      </trkpt>
      <trkpt lat="49.6386" lon="5.63963">
        <ele>342.79998779297</ele>
        <time>2022-03-23T09:09:56.000Z</time>
      </trkpt>
      <trkpt lat="49.63855" lon="5.63955">
        <ele>344</ele>
        <time>2022-03-23T09:09:58.000Z</time>
      </trkpt>
      <trkpt lat="49.63845" lon="5.63939">
        <ele>346.20001220703</ele>
        <time>2022-03-23T09:10:03.000Z</time>
      </trkpt>
      <trkpt lat="49.6384" lon="5.63929">
        <ele>347.20001220703</ele>
        <time>2022-03-23T09:10:07.000Z</time>
      </trkpt>
      <trkpt lat="49.63836" lon="5.63921">
        <ele>348</ele>
        <time>2022-03-23T09:10:10.000Z</time>
      </trkpt>
      <trkpt lat="49.63827" lon="5.63908">
        <ele>349.20001220703</ele>
        <time>2022-03-23T09:10:16.000Z</time>
      </trkpt>
      <trkpt lat="49.63826" lon="5.63906">
        <ele>349.20001220703</ele>
        <time>2022-03-23T09:10:17.000Z</time>
      </trkpt>
      <trkpt lat="49.6382" lon="5.63897">
        <ele>349.79998779297</ele>
        <time>2022-03-23T09:10:22.000Z</time>
      </trkpt>
      <trkpt lat="49.63811" lon="5.63885">
        <ele>350.60000610352</ele>
        <time>2022-03-23T09:10:28.000Z</time>
      </trkpt>
      <trkpt lat="49.638" lon="5.63869">
        <ele>351.39999389648</ele>
        <time>2022-03-23T09:10:35.000Z</time>
      </trkpt>
      <trkpt lat="49.63791" lon="5.63856">
        <ele>352.60000610352</ele>
        <time>2022-03-23T09:10:41.000Z</time>
      </trkpt>
      <trkpt lat="49.63788" lon="5.63851">
        <ele>353</ele>
        <time>2022-03-23T09:10:43.000Z</time>
      </trkpt>
      <trkpt lat="49.63782" lon="5.63841">
        <ele>354</ele>
        <time>2022-03-23T09:10:47.000Z</time>
      </trkpt>
      <trkpt lat="49.63771" lon="5.63825">
        <ele>353.60000610352</ele>
        <time>2022-03-23T09:10:53.000Z</time>
      </trkpt>
      <trkpt lat="49.63768" lon="5.6382">
        <ele>353.20001220703</ele>
        <time>2022-03-23T09:10:55.000Z</time>
      </trkpt>
      <trkpt lat="49.63764" lon="5.63805">
        <ele>352.39999389648</ele>
        <time>2022-03-23T09:11:02.000Z</time>
      </trkpt>
      <trkpt lat="49.63762" lon="5.63789">
        <ele>351.20001220703</ele>
        <time>2022-03-23T09:11:09.000Z</time>
      </trkpt>
      <trkpt lat="49.63759" lon="5.63773">
        <ele>350.39999389648</ele>
        <time>2022-03-23T09:11:13.000Z</time>
      </trkpt>
      <trkpt lat="49.63757" lon="5.63764">
        <ele>349.79998779297</ele>
        <time>2022-03-23T09:11:15.000Z</time>
      </trkpt>
      <trkpt lat="49.63752" lon="5.63744">
        <ele>348.79998779297</ele>
        <time>2022-03-23T09:11:20.000Z</time>
      </trkpt>
      <trkpt lat="49.63744" lon="5.63718">
        <ele>348</ele>
        <time>2022-03-23T09:11:26.000Z</time>
      </trkpt>
      <trkpt lat="49.63737" lon="5.63685">
        <ele>347.60000610352</ele>
        <time>2022-03-23T09:11:34.000Z</time>
      </trkpt>
      <trkpt lat="49.63731" lon="5.63654">
        <ele>348.39999389648</ele>
        <time>2022-03-23T09:11:41.000Z</time>
      </trkpt>
      <trkpt lat="49.63729" lon="5.63649">
        <ele>348.60000610352</ele>
        <time>2022-03-23T09:11:42.000Z</time>
      </trkpt>
      <trkpt lat="49.63723" lon="5.63626">
        <ele>349.60000610352</ele>
        <time>2022-03-23T09:11:47.000Z</time>
      </trkpt>
      <trkpt lat="49.63716" lon="5.63594">
        <ele>351.79998779297</ele>
        <time>2022-03-23T09:11:54.000Z</time>
      </trkpt>
      <trkpt lat="49.63712" lon="5.63569">
        <ele>352.60000610352</ele>
        <time>2022-03-23T09:12:00.000Z</time>
      </trkpt>
      <trkpt lat="49.63711" lon="5.63555">
        <ele>353</ele>
        <time>2022-03-23T09:12:04.000Z</time>
      </trkpt>
      <trkpt lat="49.6371" lon="5.63552">
        <ele>353</ele>
        <time>2022-03-23T09:12:05.000Z</time>
      </trkpt>
      <trkpt lat="49.63709" lon="5.63532">
        <ele>353</ele>
        <time>2022-03-23T09:12:12.000Z</time>
      </trkpt>
      <trkpt lat="49.63694" lon="5.63466">
        <ele>355</ele>
        <time>2022-03-23T09:12:33.000Z</time>
      </trkpt>
      <trkpt lat="49.63685" lon="5.63434">
        <ele>355</ele>
        <time>2022-03-23T09:12:38.000Z</time>
      </trkpt>
      <trkpt lat="49.6368" lon="5.63412">
        <ele>355</ele>
        <time>2022-03-23T09:12:43.000Z</time>
      </trkpt>
      <trkpt lat="49.63673" lon="5.63386">
        <ele>355</ele>
        <time>2022-03-23T09:12:47.000Z</time>
      </trkpt>
      <trkpt lat="49.6367" lon="5.63382">
        <ele>355</ele>
        <time>2022-03-23T09:12:48.000Z</time>
      </trkpt>
      <trkpt lat="49.63666" lon="5.63362">
        <ele>355</ele>
        <time>2022-03-23T09:12:54.000Z</time>
      </trkpt>
      <trkpt lat="49.63658" lon="5.63334">
        <ele>354.79998779297</ele>
        <time>2022-03-23T09:13:00.000Z</time>
      </trkpt>
      <trkpt lat="49.63645" lon="5.63316">
        <ele>354.20001220703</ele>
        <time>2022-03-23T09:13:07.000Z</time>
      </trkpt>
      <trkpt lat="49.63637" lon="5.63303">
        <ele>354</ele>
        <time>2022-03-23T09:13:12.000Z</time>
      </trkpt>
      <trkpt lat="49.63635" lon="5.63297">
        <ele>354</ele>
        <time>2022-03-23T09:13:14.000Z</time>
      </trkpt>
      <trkpt lat="49.6363" lon="5.63278">
        <ele>353.79998779297</ele>
        <time>2022-03-23T09:13:21.000Z</time>
      </trkpt>
      <trkpt lat="49.63627" lon="5.63255">
        <ele>353</ele>
        <time>2022-03-23T09:13:28.000Z</time>
      </trkpt>
      <trkpt lat="49.6362" lon="5.63231">
        <ele>353</ele>
        <time>2022-03-23T09:13:34.000Z</time>
      </trkpt>
      <trkpt lat="49.63619" lon="5.63204">
        <ele>354</ele>
        <time>2022-03-23T09:13:40.000Z</time>
      </trkpt>
      <trkpt lat="49.63613" lon="5.63181">
        <ele>354.60000610352</ele>
        <time>2022-03-23T09:13:45.000Z</time>
      </trkpt>
      <trkpt lat="49.63602" lon="5.63151">
        <ele>355.20001220703</ele>
        <time>2022-03-23T09:13:52.000Z</time>
      </trkpt>
      <trkpt lat="49.63596" lon="5.63123">
        <ele>355.39999389648</ele>
        <time>2022-03-23T09:13:58.000Z</time>
      </trkpt>
      <trkpt lat="49.63591" lon="5.63096">
        <ele>354.39999389648</ele>
        <time>2022-03-23T09:14:04.000Z</time>
      </trkpt>
      <trkpt lat="49.63592" lon="5.63091">
        <ele>354.39999389648</ele>
        <time>2022-03-23T09:14:05.000Z</time>
      </trkpt>
      <trkpt lat="49.63598" lon="5.63075">
        <ele>354.39999389648</ele>
        <time>2022-03-23T09:14:09.000Z</time>
      </trkpt>
      <trkpt lat="49.63614" lon="5.63052">
        <ele>354.60000610352</ele>
        <time>2022-03-23T09:14:17.000Z</time>
      </trkpt>
      <trkpt lat="49.63628" lon="5.63038">
        <ele>355.20001220703</ele>
        <time>2022-03-23T09:14:24.000Z</time>
      </trkpt>
      <trkpt lat="49.63634" lon="5.63033">
        <ele>355.39999389648</ele>
        <time>2022-03-23T09:14:26.000Z</time>
      </trkpt>
      <trkpt lat="49.63648" lon="5.63029">
        <ele>356.20001220703</ele>
        <time>2022-03-23T09:14:31.000Z</time>
      </trkpt>
      <trkpt lat="49.63665" lon="5.63032">
        <ele>356.79998779297</ele>
        <time>2022-03-23T09:14:37.000Z</time>
      </trkpt>
      <trkpt lat="49.63676" lon="5.63031">
        <ele>357</ele>
        <time>2022-03-23T09:14:39.000Z</time>
      </trkpt>
      <trkpt lat="49.63694" lon="5.63027">
        <ele>356.79998779297</ele>
        <time>2022-03-23T09:14:42.000Z</time>
      </trkpt>
      <trkpt lat="49.637" lon="5.63026">
        <ele>357</ele>
        <time>2022-03-23T09:14:43.000Z</time>
      </trkpt>
      <trkpt lat="49.63726" lon="5.63021">
        <ele>357.60000610352</ele>
        <time>2022-03-23T09:14:48.000Z</time>
      </trkpt>
      <trkpt lat="49.63742" lon="5.63019">
        <ele>358.60000610352</ele>
        <time>2022-03-23T09:14:52.000Z</time>
      </trkpt>
      <trkpt lat="49.63779" lon="5.63013">
        <ele>360</ele>
        <time>2022-03-23T09:15:00.000Z</time>
      </trkpt>
      <trkpt lat="49.6381" lon="5.63013">
        <ele>359.39999389648</ele>
        <time>2022-03-23T09:15:07.000Z</time>
      </trkpt>
      <trkpt lat="49.63848" lon="5.63017">
        <ele>358.60000610352</ele>
        <time>2022-03-23T09:15:15.000Z</time>
      </trkpt>
      <trkpt lat="49.63862" lon="5.63016">
        <ele>357.20001220703</ele>
        <time>2022-03-23T09:15:18.000Z</time>
      </trkpt>
      <trkpt lat="49.6387" lon="5.63013">
        <ele>356.20001220703</ele>
        <time>2022-03-23T09:15:20.000Z</time>
      </trkpt>
      <trkpt lat="49.63882" lon="5.63006">
        <ele>354.79998779297</ele>
        <time>2022-03-23T09:15:23.000Z</time>
      </trkpt>
      <trkpt lat="49.63892" lon="5.62999">
        <ele>353.79998779297</ele>
        <time>2022-03-23T09:15:25.000Z</time>
      </trkpt>
      <trkpt lat="49.63909" lon="5.6299">
        <ele>352.39999389648</ele>
        <time>2022-03-23T09:15:28.000Z</time>
      </trkpt>
      <trkpt lat="49.63927" lon="5.62983">
        <ele>351.60000610352</ele>
        <time>2022-03-23T09:15:31.000Z</time>
      </trkpt>
      <trkpt lat="49.63945" lon="5.62975">
        <ele>351</ele>
        <time>2022-03-23T09:15:34.000Z</time>
      </trkpt>
      <trkpt lat="49.63959" lon="5.62968">
        <ele>350.39999389648</ele>
        <time>2022-03-23T09:15:37.000Z</time>
      </trkpt>
      <trkpt lat="49.63979" lon="5.62955">
        <ele>349.60000610352</ele>
        <time>2022-03-23T09:15:42.000Z</time>
      </trkpt>
      <trkpt lat="49.63982" lon="5.62951">
        <ele>349.39999389648</ele>
        <time>2022-03-23T09:15:43.000Z</time>
      </trkpt>
      <trkpt lat="49.64004" lon="5.62928">
        <ele>351</ele>
        <time>2022-03-23T09:15:49.000Z</time>
      </trkpt>
      <trkpt lat="49.64017" lon="5.62918">
        <ele>352.39999389648</ele>
        <time>2022-03-23T09:16:27.000Z</time>
      </trkpt>
      <trkpt lat="49.64008" lon="5.62932">
        <ele>351.39999389648</ele>
        <time>2022-03-23T09:16:33.000Z</time>
      </trkpt>
      <trkpt lat="49.63997" lon="5.6295">
        <ele>350.39999389648</ele>
        <time>2022-03-23T09:16:38.000Z</time>
      </trkpt>
      <trkpt lat="49.63996" lon="5.62955">
        <ele>350.39999389648</ele>
        <time>2022-03-23T09:16:39.000Z</time>
      </trkpt>
      <trkpt lat="49.63996" lon="5.6297">
        <ele>350.60000610352</ele>
        <time>2022-03-23T09:16:42.000Z</time>
      </trkpt>
      <trkpt lat="49.63997" lon="5.62975">
        <ele>351</ele>
        <time>2022-03-23T09:16:43.000Z</time>
      </trkpt>
      <trkpt lat="49.64004" lon="5.62999">
        <ele>351.79998779297</ele>
        <time>2022-03-23T09:16:48.000Z</time>
      </trkpt>
      <trkpt lat="49.64016" lon="5.63039">
        <ele>354.39999389648</ele>
        <time>2022-03-23T09:16:55.000Z</time>
      </trkpt>
      <trkpt lat="49.64021" lon="5.6307">
        <ele>355.60000610352</ele>
        <time>2022-03-23T09:17:01.000Z</time>
      </trkpt>
      <trkpt lat="49.64021" lon="5.6309">
        <ele>356.20001220703</ele>
        <time>2022-03-23T09:17:06.000Z</time>
      </trkpt>
      <trkpt lat="49.64017" lon="5.63127">
        <ele>355.39999389648</ele>
        <time>2022-03-23T09:17:12.000Z</time>
      </trkpt>
      <trkpt lat="49.64011" lon="5.63175">
        <ele>354.20001220703</ele>
        <time>2022-03-23T09:17:18.000Z</time>
      </trkpt>
      <trkpt lat="49.64013" lon="5.6318">
        <ele>354</ele>
        <time>2022-03-23T09:17:19.000Z</time>
      </trkpt>
      <trkpt lat="49.64023" lon="5.63206">
        <ele>354</ele>
        <time>2022-03-23T09:17:23.000Z</time>
      </trkpt>
      <trkpt lat="49.64025" lon="5.6321">
        <ele>354.20001220703</ele>
        <time>2022-03-23T09:17:24.000Z</time>
      </trkpt>
      <trkpt lat="49.64031" lon="5.63237">
        <ele>355.39999389648</ele>
        <time>2022-03-23T09:17:28.000Z</time>
      </trkpt>
      <trkpt lat="49.64042" lon="5.63274">
        <ele>357</ele>
        <time>2022-03-23T09:17:34.000Z</time>
      </trkpt>
      <trkpt lat="49.64059" lon="5.63313">
        <ele>358</ele>
        <time>2022-03-23T09:17:40.000Z</time>
      </trkpt>
      <trkpt lat="49.64072" lon="5.6335">
        <ele>358</ele>
        <time>2022-03-23T09:17:46.000Z</time>
      </trkpt>
      <trkpt lat="49.64076" lon="5.63361">
        <ele>358</ele>
        <time>2022-03-23T09:17:48.000Z</time>
      </trkpt>
      <trkpt lat="49.64083" lon="5.63377">
        <ele>357.60000610352</ele>
        <time>2022-03-23T09:17:51.000Z</time>
      </trkpt>
      <trkpt lat="49.64095" lon="5.63409">
        <ele>357.20001220703</ele>
        <time>2022-03-23T09:17:57.000Z</time>
      </trkpt>
      <trkpt lat="49.64103" lon="5.63434">
        <ele>357</ele>
        <time>2022-03-23T09:18:02.000Z</time>
      </trkpt>
      <trkpt lat="49.64107" lon="5.63453">
        <ele>357</ele>
        <time>2022-03-23T09:18:05.000Z</time>
      </trkpt>
      <trkpt lat="49.64108" lon="5.63467">
        <ele>357</ele>
        <time>2022-03-23T09:18:07.000Z</time>
      </trkpt>
      <trkpt lat="49.64109" lon="5.63482">
        <ele>357.20001220703</ele>
        <time>2022-03-23T09:18:09.000Z</time>
      </trkpt>
      <trkpt lat="49.64112" lon="5.63504">
        <ele>357.20001220703</ele>
        <time>2022-03-23T09:18:11.000Z</time>
      </trkpt>
      <trkpt lat="49.64114" lon="5.63514">
        <ele>357</ele>
        <time>2022-03-23T09:18:12.000Z</time>
      </trkpt>
      <trkpt lat="49.64122" lon="5.63558">
        <ele>355</ele>
        <time>2022-03-23T09:18:16.000Z</time>
      </trkpt>
      <trkpt lat="49.64123" lon="5.63568">
        <ele>354.20001220703</ele>
        <time>2022-03-23T09:18:17.000Z</time>
      </trkpt>
      <trkpt lat="49.64127" lon="5.63587">
        <ele>352.20001220703</ele>
        <time>2022-03-23T09:18:19.000Z</time>
      </trkpt>
      <trkpt lat="49.64128" lon="5.63599">
        <ele>351.79998779297</ele>
        <time>2022-03-23T09:18:20.000Z</time>
      </trkpt>
      <trkpt lat="49.64132" lon="5.63623">
        <ele>349.20001220703</ele>
        <time>2022-03-23T09:18:22.000Z</time>
      </trkpt>
      <trkpt lat="49.64136" lon="5.63647">
        <ele>347.39999389648</ele>
        <time>2022-03-23T09:18:24.000Z</time>
      </trkpt>
      <trkpt lat="49.64141" lon="5.63683">
        <ele>346.60000610352</ele>
        <time>2022-03-23T09:18:27.000Z</time>
      </trkpt>
      <trkpt lat="49.64143" lon="5.63692">
        <ele>346.20001220703</ele>
        <time>2022-03-23T09:18:28.000Z</time>
      </trkpt>
      <trkpt lat="49.64146" lon="5.63708">
        <ele>345.79998779297</ele>
        <time>2022-03-23T09:18:30.000Z</time>
      </trkpt>
      <trkpt lat="49.64146" lon="5.63717">
        <ele>345.79998779297</ele>
        <time>2022-03-23T09:18:31.000Z</time>
      </trkpt>
      <trkpt lat="49.64147" lon="5.63741">
        <ele>345.79998779297</ele>
        <time>2022-03-23T09:18:34.000Z</time>
      </trkpt>
      <trkpt lat="49.64148" lon="5.63752">
        <ele>345.79998779297</ele>
        <time>2022-03-23T09:18:36.000Z</time>
      </trkpt>
      <trkpt lat="49.64151" lon="5.63757">
        <ele>345.60000610352</ele>
        <time>2022-03-23T09:18:39.000Z</time>
      </trkpt>
      <trkpt lat="49.64153" lon="5.63757">
        <ele>345.60000610352</ele>
        <time>2022-03-23T09:18:40.000Z</time>
      </trkpt>
      <trkpt lat="49.64164" lon="5.63749">
        <ele>345.20001220703</ele>
        <time>2022-03-23T09:18:47.000Z</time>
      </trkpt>
      <trkpt lat="49.64168" lon="5.63746">
        <ele>345</ele>
        <time>2022-03-23T09:18:49.000Z</time>
      </trkpt>
      <trkpt lat="49.64177" lon="5.63739">
        <ele>344.39999389648</ele>
        <time>2022-03-23T09:18:54.000Z</time>
      </trkpt>
      <trkpt lat="49.64194" lon="5.63736">
        <ele>344.79998779297</ele>
        <time>2022-03-23T09:19:07.000Z</time>
      </trkpt>
      <trkpt lat="49.64195" lon="5.63736">
        <ele>344.79998779297</ele>
        <time>2022-03-23T09:19:08.000Z</time>
      </trkpt>
      <trkpt lat="49.64203" lon="5.63736">
        <ele>345.60000610352</ele>
        <time>2022-03-23T09:19:13.000Z</time>
      </trkpt>
      <trkpt lat="49.64205" lon="5.63736">
        <ele>345.79998779297</ele>
        <time>2022-03-23T09:19:14.000Z</time>
      </trkpt>
      <trkpt lat="49.64217" lon="5.63735">
        <ele>346.60000610352</ele>
        <time>2022-03-23T09:19:20.000Z</time>
      </trkpt>
      <trkpt lat="49.64229" lon="5.63733">
        <ele>347.39999389648</ele>
        <time>2022-03-23T09:19:25.000Z</time>
      </trkpt>
      <trkpt lat="49.64234" lon="5.63731">
        <ele>347.79998779297</ele>
        <time>2022-03-23T09:19:27.000Z</time>
      </trkpt>
      <trkpt lat="49.64247" lon="5.63727">
        <ele>348.60000610352</ele>
        <time>2022-03-23T09:19:32.000Z</time>
      </trkpt>
      <trkpt lat="49.64255" lon="5.63725">
        <ele>349</ele>
        <time>2022-03-23T09:19:35.000Z</time>
      </trkpt>
      <trkpt lat="49.64259" lon="5.63722">
        <ele>349</ele>
        <time>2022-03-23T09:19:37.000Z</time>
      </trkpt>
      <trkpt lat="49.64269" lon="5.63718">
        <ele>349.20001220703</ele>
        <time>2022-03-23T09:19:41.000Z</time>
      </trkpt>
      <trkpt lat="49.64274" lon="5.63716">
        <ele>349.39999389648</ele>
        <time>2022-03-23T09:19:43.000Z</time>
      </trkpt>
      <trkpt lat="49.64292" lon="5.63707">
        <ele>350.79998779297</ele>
        <time>2022-03-23T09:19:49.000Z</time>
      </trkpt>
      <trkpt lat="49.64307" lon="5.63699">
        <ele>352.79998779297</ele>
        <time>2022-03-23T09:19:54.000Z</time>
      </trkpt>
      <trkpt lat="49.64315" lon="5.63693">
        <ele>354.20001220703</ele>
        <time>2022-03-23T09:19:57.000Z</time>
      </trkpt>
      <trkpt lat="49.64337" lon="5.63681">
        <ele>358.20001220703</ele>
        <time>2022-03-23T09:20:06.000Z</time>
      </trkpt>
      <trkpt lat="49.64354" lon="5.63669">
        <ele>360.20001220703</ele>
        <time>2022-03-23T09:20:13.000Z</time>
      </trkpt>
      <trkpt lat="49.64356" lon="5.63667">
        <ele>360.60000610352</ele>
        <time>2022-03-23T09:20:14.000Z</time>
      </trkpt>
      <trkpt lat="49.6437" lon="5.63656">
        <ele>361.60000610352</ele>
        <time>2022-03-23T09:20:20.000Z</time>
      </trkpt>
      <trkpt lat="49.64374" lon="5.63652">
        <ele>361.60000610352</ele>
        <time>2022-03-23T09:20:22.000Z</time>
      </trkpt>
      <trkpt lat="49.64388" lon="5.63642">
        <ele>362.79998779297</ele>
        <time>2022-03-23T09:20:28.000Z</time>
      </trkpt>
      <trkpt lat="49.64393" lon="5.63637">
        <ele>363</ele>
        <time>2022-03-23T09:20:32.000Z</time>
      </trkpt>
      <trkpt lat="49.64399" lon="5.63632">
        <ele>362.60000610352</ele>
        <time>2022-03-23T09:20:36.000Z</time>
      </trkpt>
      <trkpt lat="49.64413" lon="5.63624">
        <ele>362</ele>
        <time>2022-03-23T09:20:44.000Z</time>
      </trkpt>
      <trkpt lat="49.64424" lon="5.63614">
        <ele>361.79998779297</ele>
        <time>2022-03-23T09:20:51.000Z</time>
      </trkpt>
      <trkpt lat="49.64428" lon="5.63611">
        <ele>361.39999389648</ele>
        <time>2022-03-23T09:20:53.000Z</time>
      </trkpt>
      <trkpt lat="49.64434" lon="5.63605">
        <ele>361</ele>
        <time>2022-03-23T09:20:59.000Z</time>
      </trkpt>
      <trkpt lat="49.64446" lon="5.63592">
        <ele>360.79998779297</ele>
        <time>2022-03-23T09:21:06.000Z</time>
      </trkpt>
      <trkpt lat="49.6446" lon="5.63579">
        <ele>360</ele>
        <time>2022-03-23T09:21:12.000Z</time>
      </trkpt>
      <trkpt lat="49.64464" lon="5.63576">
        <ele>359.60000610352</ele>
        <time>2022-03-23T09:21:13.000Z</time>
      </trkpt>
      <trkpt lat="49.64481" lon="5.63561">
        <ele>358.79998779297</ele>
        <time>2022-03-23T09:21:18.000Z</time>
      </trkpt>
      <trkpt lat="49.64501" lon="5.63539">
        <ele>358.20001220703</ele>
        <time>2022-03-23T09:21:24.000Z</time>
      </trkpt>
      <trkpt lat="49.64507" lon="5.63526">
        <ele>358.39999389648</ele>
        <time>2022-03-23T09:21:27.000Z</time>
      </trkpt>
      <trkpt lat="49.64509" lon="5.63521">
        <ele>358.60000610352</ele>
        <time>2022-03-23T09:21:28.000Z</time>
      </trkpt>
      <trkpt lat="49.64512" lon="5.63492">
        <ele>359.39999389648</ele>
        <time>2022-03-23T09:21:33.000Z</time>
      </trkpt>
      <trkpt lat="49.64507" lon="5.63459">
        <ele>360</ele>
        <time>2022-03-23T09:21:39.000Z</time>
      </trkpt>
      <trkpt lat="49.64509" lon="5.6343">
        <ele>360</ele>
        <time>2022-03-23T09:21:44.000Z</time>
      </trkpt>
      <trkpt lat="49.64506" lon="5.63404">
        <ele>360.79998779297</ele>
        <time>2022-03-23T09:21:49.000Z</time>
      </trkpt>
      <trkpt lat="49.64508" lon="5.63374">
        <ele>362</ele>
        <time>2022-03-23T09:21:54.000Z</time>
      </trkpt>
      <trkpt lat="49.64508" lon="5.63361">
        <ele>362.20001220703</ele>
        <time>2022-03-23T09:21:56.000Z</time>
      </trkpt>
      <trkpt lat="49.64508" lon="5.63341">
        <ele>362.20001220703</ele>
        <time>2022-03-23T09:21:59.000Z</time>
      </trkpt>
      <trkpt lat="49.64502" lon="5.63306">
        <ele>362</ele>
        <time>2022-03-23T09:22:04.000Z</time>
      </trkpt>
      <trkpt lat="49.64499" lon="5.63269">
        <ele>362.60000610352</ele>
        <time>2022-03-23T09:22:09.000Z</time>
      </trkpt>
      <trkpt lat="49.64492" lon="5.63255">
        <ele>362.20001220703</ele>
        <time>2022-03-23T09:22:18.000Z</time>
      </trkpt>
      <trkpt lat="49.64479" lon="5.63259">
        <ele>361.20001220703</ele>
        <time>2022-03-23T09:22:22.000Z</time>
      </trkpt>
      <trkpt lat="49.64465" lon="5.63254">
        <ele>361.39999389648</ele>
        <time>2022-03-23T09:22:26.000Z</time>
      </trkpt>
      <trkpt lat="49.64449" lon="5.63239">
        <ele>361.39999389648</ele>
        <time>2022-03-23T09:22:32.000Z</time>
      </trkpt>
      <trkpt lat="49.64438" lon="5.63229">
        <ele>361.39999389648</ele>
        <time>2022-03-23T09:22:36.000Z</time>
      </trkpt>
      <trkpt lat="49.64433" lon="5.63225">
        <ele>361.39999389648</ele>
        <time>2022-03-23T09:22:38.000Z</time>
      </trkpt>
      <trkpt lat="49.64426" lon="5.63217">
        <ele>361.20001220703</ele>
        <time>2022-03-23T09:23:17.000Z</time>
      </trkpt>
      <trkpt lat="49.64429" lon="5.63195">
        <ele>359.79998779297</ele>
        <time>2022-03-23T09:23:23.000Z</time>
      </trkpt>
      <trkpt lat="49.64438" lon="5.63176">
        <ele>358.39999389648</ele>
        <time>2022-03-23T09:23:29.000Z</time>
      </trkpt>
      <trkpt lat="49.64441" lon="5.63157">
        <ele>357.39999389648</ele>
        <time>2022-03-23T09:23:35.000Z</time>
      </trkpt>
      <trkpt lat="49.64443" lon="5.63123">
        <ele>356.20001220703</ele>
        <time>2022-03-23T09:23:41.000Z</time>
      </trkpt>
      <trkpt lat="49.64445" lon="5.63079">
        <ele>357.60000610352</ele>
        <time>2022-03-23T09:23:48.000Z</time>
      </trkpt>
      <trkpt lat="49.64445" lon="5.63036">
        <ele>358.39999389648</ele>
        <time>2022-03-23T09:23:55.000Z</time>
      </trkpt>
      <trkpt lat="49.64446" lon="5.6303">
        <ele>358.39999389648</ele>
        <time>2022-03-23T09:23:56.000Z</time>
      </trkpt>
      <trkpt lat="49.64447" lon="5.62989">
        <ele>358.20001220703</ele>
        <time>2022-03-23T09:24:03.000Z</time>
      </trkpt>
      <trkpt lat="49.64448" lon="5.62982">
        <ele>358</ele>
        <time>2022-03-23T09:24:04.000Z</time>
      </trkpt>
      <trkpt lat="49.64448" lon="5.62967">
        <ele>358</ele>
        <time>2022-03-23T09:24:06.000Z</time>
      </trkpt>
      <trkpt lat="49.64449" lon="5.62947">
        <ele>358</ele>
        <time>2022-03-23T09:24:09.000Z</time>
      </trkpt>
      <trkpt lat="49.64452" lon="5.62921">
        <ele>357.79998779297</ele>
        <time>2022-03-23T09:24:14.000Z</time>
      </trkpt>
      <trkpt lat="49.64458" lon="5.62895">
        <ele>358.60000610352</ele>
        <time>2022-03-23T09:24:19.000Z</time>
      </trkpt>
      <trkpt lat="49.64464" lon="5.62872">
        <ele>359.20001220703</ele>
        <time>2022-03-23T09:24:24.000Z</time>
      </trkpt>
      <trkpt lat="49.64472" lon="5.62834">
        <ele>360.60000610352</ele>
        <time>2022-03-23T09:24:30.000Z</time>
      </trkpt>
      <trkpt lat="49.64477" lon="5.62797">
        <ele>362</ele>
        <time>2022-03-23T09:24:36.000Z</time>
      </trkpt>
      <trkpt lat="49.6448" lon="5.62758">
        <ele>361.79998779297</ele>
        <time>2022-03-23T09:24:43.000Z</time>
      </trkpt>
      <trkpt lat="49.64487" lon="5.62732">
        <ele>361</ele>
        <time>2022-03-23T09:24:48.000Z</time>
      </trkpt>
      <trkpt lat="49.64498" lon="5.62702">
        <ele>361</ele>
        <time>2022-03-23T09:24:55.000Z</time>
      </trkpt>
      <trkpt lat="49.64507" lon="5.62675">
        <ele>361</ele>
        <time>2022-03-23T09:25:02.000Z</time>
      </trkpt>
      <trkpt lat="49.6451" lon="5.62664">
        <ele>361.39999389648</ele>
        <time>2022-03-23T09:25:05.000Z</time>
      </trkpt>
      <trkpt lat="49.6451" lon="5.62657">
        <ele>361.39999389648</ele>
        <time>2022-03-23T09:25:07.000Z</time>
      </trkpt>
      <trkpt lat="49.64507" lon="5.62654">
        <ele>361.20001220703</ele>
        <time>2022-03-23T09:25:09.000Z</time>
      </trkpt>
      <trkpt lat="49.64502" lon="5.62652">
        <ele>361</ele>
        <time>2022-03-23T09:25:12.000Z</time>
      </trkpt>
      <trkpt lat="49.64486" lon="5.62645">
        <ele>361</ele>
        <time>2022-03-23T09:25:18.000Z</time>
      </trkpt>
      <trkpt lat="49.6446" lon="5.62641">
        <ele>360.39999389648</ele>
        <time>2022-03-23T09:25:26.000Z</time>
      </trkpt>
      <trkpt lat="49.64437" lon="5.6264">
        <ele>359.20001220703</ele>
        <time>2022-03-23T09:25:33.000Z</time>
      </trkpt>
      <trkpt lat="49.64416" lon="5.62635">
        <ele>358</ele>
        <time>2022-03-23T09:25:39.000Z</time>
      </trkpt>
      <trkpt lat="49.64392" lon="5.62638">
        <ele>357.20001220703</ele>
        <time>2022-03-23T09:25:45.000Z</time>
      </trkpt>
      <trkpt lat="49.64372" lon="5.62638">
        <ele>356.39999389648</ele>
        <time>2022-03-23T09:25:50.000Z</time>
      </trkpt>
      <trkpt lat="49.64347" lon="5.62641">
        <ele>356</ele>
        <time>2022-03-23T09:25:56.000Z</time>
      </trkpt>
      <trkpt lat="49.64324" lon="5.62643">
        <ele>355.60000610352</ele>
        <time>2022-03-23T09:26:02.000Z</time>
      </trkpt>
      <trkpt lat="49.64305" lon="5.62629">
        <ele>354.60000610352</ele>
        <time>2022-03-23T09:26:06.000Z</time>
      </trkpt>
      <trkpt lat="49.64288" lon="5.62614">
        <ele>353.39999389648</ele>
        <time>2022-03-23T09:26:09.000Z</time>
      </trkpt>
      <trkpt lat="49.64276" lon="5.62603">
        <ele>352.60000610352</ele>
        <time>2022-03-23T09:26:11.000Z</time>
      </trkpt>
      <trkpt lat="49.6427" lon="5.62596">
        <ele>352.39999389648</ele>
        <time>2022-03-23T09:26:12.000Z</time>
      </trkpt>
      <trkpt lat="49.64259" lon="5.62582">
        <ele>352</ele>
        <time>2022-03-23T09:26:14.000Z</time>
      </trkpt>
      <trkpt lat="49.64249" lon="5.62569">
        <ele>352</ele>
        <time>2022-03-23T09:26:16.000Z</time>
      </trkpt>
      <trkpt lat="49.64241" lon="5.62558">
        <ele>352</ele>
        <time>2022-03-23T09:26:18.000Z</time>
      </trkpt>
      <trkpt lat="49.64237" lon="5.62553">
        <ele>352.39999389648</ele>
        <time>2022-03-23T09:26:19.000Z</time>
      </trkpt>
      <trkpt lat="49.64235" lon="5.62548">
        <ele>352.79998779297</ele>
        <time>2022-03-23T09:26:20.000Z</time>
      </trkpt>
      <trkpt lat="49.64234" lon="5.62543">
        <ele>353.20001220703</ele>
        <time>2022-03-23T09:26:21.000Z</time>
      </trkpt>
      <trkpt lat="49.64238" lon="5.62535">
        <ele>353.79998779297</ele>
        <time>2022-03-23T09:26:24.000Z</time>
      </trkpt>
      <trkpt lat="49.64254" lon="5.62524">
        <ele>354.79998779297</ele>
        <time>2022-03-23T09:26:30.000Z</time>
      </trkpt>
      <trkpt lat="49.64274" lon="5.62514">
        <ele>354.79998779297</ele>
        <time>2022-03-23T09:26:37.000Z</time>
      </trkpt>
      <trkpt lat="49.64286" lon="5.62508">
        <ele>354.79998779297</ele>
        <time>2022-03-23T09:26:43.000Z</time>
      </trkpt>
      <trkpt lat="49.64299" lon="5.62498">
        <ele>355.39999389648</ele>
        <time>2022-03-23T09:26:49.000Z</time>
      </trkpt>
      <trkpt lat="49.64301" lon="5.62496">
        <ele>355.60000610352</ele>
        <time>2022-03-23T09:26:50.000Z</time>
      </trkpt>
      <trkpt lat="49.64312" lon="5.62484">
        <ele>356</ele>
        <time>2022-03-23T09:26:57.000Z</time>
      </trkpt>
      <trkpt lat="49.6432" lon="5.62481">
        <ele>356.39999389648</ele>
        <time>2022-03-23T09:27:00.000Z</time>
      </trkpt>
      <trkpt lat="49.64332" lon="5.62476">
        <ele>356.79998779297</ele>
        <time>2022-03-23T09:27:04.000Z</time>
      </trkpt>
      <trkpt lat="49.64348" lon="5.6246">
        <ele>357.39999389648</ele>
        <time>2022-03-23T09:27:09.000Z</time>
      </trkpt>
      <trkpt lat="49.64356" lon="5.62454">
        <ele>357.60000610352</ele>
        <time>2022-03-23T09:27:12.000Z</time>
      </trkpt>
      <trkpt lat="49.64373" lon="5.62439">
        <ele>358.60000610352</ele>
        <time>2022-03-23T09:27:16.000Z</time>
      </trkpt>
      <trkpt lat="49.64399" lon="5.62412">
        <ele>361.20001220703</ele>
        <time>2022-03-23T09:27:25.000Z</time>
      </trkpt>
      <trkpt lat="49.64423" lon="5.62398">
        <ele>361.79998779297</ele>
        <time>2022-03-23T09:27:33.000Z</time>
      </trkpt>
      <trkpt lat="49.64426" lon="5.62397">
        <ele>361.79998779297</ele>
        <time>2022-03-23T09:27:34.000Z</time>
      </trkpt>
      <trkpt lat="49.64449" lon="5.62383">
        <ele>359.60000610352</ele>
        <time>2022-03-23T09:27:42.000Z</time>
      </trkpt>
      <trkpt lat="49.64452" lon="5.62381">
        <ele>359.60000610352</ele>
        <time>2022-03-23T09:27:43.000Z</time>
      </trkpt>
      <trkpt lat="49.64472" lon="5.62369">
        <ele>359.20001220703</ele>
        <time>2022-03-23T09:27:50.000Z</time>
      </trkpt>
      <trkpt lat="49.64493" lon="5.62365">
        <ele>359.60000610352</ele>
        <time>2022-03-23T09:27:57.000Z</time>
      </trkpt>
      <trkpt lat="49.64496" lon="5.62364">
        <ele>359.60000610352</ele>
        <time>2022-03-23T09:27:58.000Z</time>
      </trkpt>
      <trkpt lat="49.64507" lon="5.62354">
        <ele>360</ele>
        <time>2022-03-23T09:28:03.000Z</time>
      </trkpt>
      <trkpt lat="49.64517" lon="5.62337">
        <ele>360.39999389648</ele>
        <time>2022-03-23T09:28:09.000Z</time>
      </trkpt>
      <trkpt lat="49.64518" lon="5.62334">
        <ele>360.39999389648</ele>
        <time>2022-03-23T09:28:10.000Z</time>
      </trkpt>
      <trkpt lat="49.64527" lon="5.62313">
        <ele>360.60000610352</ele>
        <time>2022-03-23T09:28:16.000Z</time>
      </trkpt>
      <trkpt lat="49.64538" lon="5.62281">
        <ele>359.79998779297</ele>
        <time>2022-03-23T09:28:24.000Z</time>
      </trkpt>
      <trkpt lat="49.64541" lon="5.62271">
        <ele>360</ele>
        <time>2022-03-23T09:28:27.000Z</time>
      </trkpt>
      <trkpt lat="49.64543" lon="5.6226">
        <ele>359.79998779297</ele>
        <time>2022-03-23T09:28:30.000Z</time>
      </trkpt>
      <trkpt lat="49.6455" lon="5.62231">
        <ele>359.60000610352</ele>
        <time>2022-03-23T09:28:38.000Z</time>
      </trkpt>
      <trkpt lat="49.64551" lon="5.62229">
        <ele>359.60000610352</ele>
        <time>2022-03-23T09:28:39.000Z</time>
      </trkpt>
      <trkpt lat="49.64557" lon="5.62215">
        <ele>359.79998779297</ele>
        <time>2022-03-23T09:28:44.000Z</time>
      </trkpt>
      <trkpt lat="49.64563" lon="5.62207">
        <ele>359.39999389648</ele>
        <time>2022-03-23T09:28:47.000Z</time>
      </trkpt>
      <trkpt lat="49.64568" lon="5.62199">
        <ele>359.39999389648</ele>
        <time>2022-03-23T09:28:50.000Z</time>
      </trkpt>
      <trkpt lat="49.64583" lon="5.62179">
        <ele>359.20001220703</ele>
        <time>2022-03-23T09:28:57.000Z</time>
      </trkpt>
      <trkpt lat="49.64589" lon="5.62171">
        <ele>359.20001220703</ele>
        <time>2022-03-23T09:29:00.000Z</time>
      </trkpt>
      <trkpt lat="49.64602" lon="5.62157">
        <ele>361</ele>
        <time>2022-03-23T09:29:04.000Z</time>
      </trkpt>
      <trkpt lat="49.64621" lon="5.6213">
        <ele>363.60000610352</ele>
        <time>2022-03-23T09:29:10.000Z</time>
      </trkpt>
      <trkpt lat="49.64637" lon="5.62113">
        <ele>364.79998779297</ele>
        <time>2022-03-23T09:29:16.000Z</time>
      </trkpt>
      <trkpt lat="49.64651" lon="5.62094">
        <ele>365</ele>
        <time>2022-03-23T09:29:23.000Z</time>
      </trkpt>
      <trkpt lat="49.64665" lon="5.62076">
        <ele>364.20001220703</ele>
        <time>2022-03-23T09:29:28.000Z</time>
      </trkpt>
      <trkpt lat="49.64685" lon="5.62048">
        <ele>364.39999389648</ele>
        <time>2022-03-23T09:29:36.000Z</time>
      </trkpt>
      <trkpt lat="49.64699" lon="5.62025">
        <ele>363</ele>
        <time>2022-03-23T09:29:43.000Z</time>
      </trkpt>
      <trkpt lat="49.64714" lon="5.61998">
        <ele>362</ele>
        <time>2022-03-23T09:29:50.000Z</time>
      </trkpt>
      <trkpt lat="49.64716" lon="5.61994">
        <ele>361.79998779297</ele>
        <time>2022-03-23T09:29:51.000Z</time>
      </trkpt>
      <trkpt lat="49.64731" lon="5.61968">
        <ele>360.79998779297</ele>
        <time>2022-03-23T09:29:57.000Z</time>
      </trkpt>
      <trkpt lat="49.64743" lon="5.61944">
        <ele>360.79998779297</ele>
        <time>2022-03-23T09:30:01.000Z</time>
      </trkpt>
      <trkpt lat="49.64746" lon="5.61938">
        <ele>361</ele>
        <time>2022-03-23T09:30:02.000Z</time>
      </trkpt>
      <trkpt lat="49.64751" lon="5.61925">
        <ele>361.79998779297</ele>
        <time>2022-03-23T09:30:04.000Z</time>
      </trkpt>
      <trkpt lat="49.64758" lon="5.61908">
        <ele>362</ele>
        <time>2022-03-23T09:30:07.000Z</time>
      </trkpt>
      <trkpt lat="49.6476" lon="5.61903">
        <ele>362</ele>
        <time>2022-03-23T09:30:08.000Z</time>
      </trkpt>
      <trkpt lat="49.64765" lon="5.61883">
        <ele>362.39999389648</ele>
        <time>2022-03-23T09:30:12.000Z</time>
      </trkpt>
      <trkpt lat="49.64777" lon="5.61856">
        <ele>363.39999389648</ele>
        <time>2022-03-23T09:30:18.000Z</time>
      </trkpt>
      <trkpt lat="49.64792" lon="5.61816">
        <ele>364</ele>
        <time>2022-03-23T09:30:25.000Z</time>
      </trkpt>
      <trkpt lat="49.64804" lon="5.61786">
        <ele>364</ele>
        <time>2022-03-23T09:30:30.000Z</time>
      </trkpt>
      <trkpt lat="49.64812" lon="5.6176">
        <ele>365.20001220703</ele>
        <time>2022-03-23T09:30:35.000Z</time>
      </trkpt>
      <trkpt lat="49.64824" lon="5.61732">
        <ele>366.60000610352</ele>
        <time>2022-03-23T09:30:40.000Z</time>
      </trkpt>
      <trkpt lat="49.64839" lon="5.61696">
        <ele>368</ele>
        <time>2022-03-23T09:30:47.000Z</time>
      </trkpt>
      <trkpt lat="49.64853" lon="5.61668">
        <ele>369</ele>
        <time>2022-03-23T09:30:54.000Z</time>
      </trkpt>
      <trkpt lat="49.64855" lon="5.61664">
        <ele>369.20001220703</ele>
        <time>2022-03-23T09:30:55.000Z</time>
      </trkpt>
      <trkpt lat="49.64862" lon="5.61652">
        <ele>369.60000610352</ele>
        <time>2022-03-23T09:30:59.000Z</time>
      </trkpt>
      <trkpt lat="49.64864" lon="5.61648">
        <ele>369.60000610352</ele>
        <time>2022-03-23T09:31:00.000Z</time>
      </trkpt>
      <trkpt lat="49.6488" lon="5.61623">
        <ele>368</ele>
        <time>2022-03-23T09:31:06.000Z</time>
      </trkpt>
      <trkpt lat="49.64897" lon="5.61598">
        <ele>367.20001220703</ele>
        <time>2022-03-23T09:31:13.000Z</time>
      </trkpt>
      <trkpt lat="49.64909" lon="5.61572">
        <ele>366.79998779297</ele>
        <time>2022-03-23T09:31:19.000Z</time>
      </trkpt>
      <trkpt lat="49.64925" lon="5.61548">
        <ele>366.20001220703</ele>
        <time>2022-03-23T09:31:23.000Z</time>
      </trkpt>
      <trkpt lat="49.64949" lon="5.61513">
        <ele>366</ele>
        <time>2022-03-23T09:31:30.000Z</time>
      </trkpt>
      <trkpt lat="49.64963" lon="5.61484">
        <ele>366.20001220703</ele>
        <time>2022-03-23T09:31:35.000Z</time>
      </trkpt>
      <trkpt lat="49.64964" lon="5.6148">
        <ele>366</ele>
        <time>2022-03-23T09:31:36.000Z</time>
      </trkpt>
      <trkpt lat="49.6497" lon="5.61463">
        <ele>365.39999389648</ele>
        <time>2022-03-23T09:31:40.000Z</time>
      </trkpt>
      <trkpt lat="49.6498" lon="5.61439">
        <ele>365.79998779297</ele>
        <time>2022-03-23T09:31:45.000Z</time>
      </trkpt>
      <trkpt lat="49.64986" lon="5.61424">
        <ele>365.79998779297</ele>
        <time>2022-03-23T09:31:48.000Z</time>
      </trkpt>
      <trkpt lat="49.64994" lon="5.61403">
        <ele>366.60000610352</ele>
        <time>2022-03-23T09:31:52.000Z</time>
      </trkpt>
      <trkpt lat="49.65" lon="5.61388">
        <ele>367.20001220703</ele>
        <time>2022-03-23T09:31:55.000Z</time>
      </trkpt>
      <trkpt lat="49.65006" lon="5.61371">
        <ele>366.79998779297</ele>
        <time>2022-03-23T09:31:58.000Z</time>
      </trkpt>
      <trkpt lat="49.65008" lon="5.61343">
        <ele>366.60000610352</ele>
        <time>2022-03-23T09:32:03.000Z</time>
      </trkpt>
      <trkpt lat="49.65011" lon="5.61312">
        <ele>365.79998779297</ele>
        <time>2022-03-23T09:32:08.000Z</time>
      </trkpt>
      <trkpt lat="49.65017" lon="5.61278">
        <ele>365.20001220703</ele>
        <time>2022-03-23T09:32:13.000Z</time>
      </trkpt>
      <trkpt lat="49.65021" lon="5.61242">
        <ele>365.39999389648</ele>
        <time>2022-03-23T09:32:19.000Z</time>
      </trkpt>
      <trkpt lat="49.65023" lon="5.61202">
        <ele>366</ele>
        <time>2022-03-23T09:32:25.000Z</time>
      </trkpt>
      <trkpt lat="49.65027" lon="5.61173">
        <ele>366.39999389648</ele>
        <time>2022-03-23T09:32:30.000Z</time>
      </trkpt>
      <trkpt lat="49.65035" lon="5.6114">
        <ele>365.79998779297</ele>
        <time>2022-03-23T09:32:36.000Z</time>
      </trkpt>
      <trkpt lat="49.65039" lon="5.61095">
        <ele>366.79998779297</ele>
        <time>2022-03-23T09:32:45.000Z</time>
      </trkpt>
      <trkpt lat="49.65036" lon="5.61056">
        <ele>368.39999389648</ele>
        <time>2022-03-23T09:32:51.000Z</time>
      </trkpt>
      <trkpt lat="49.6504" lon="5.61025">
        <ele>367.39999389648</ele>
        <time>2022-03-23T09:32:56.000Z</time>
      </trkpt>
      <trkpt lat="49.65053" lon="5.60973">
        <ele>368.39999389648</ele>
        <time>2022-03-23T09:33:05.000Z</time>
      </trkpt>
      <trkpt lat="49.65065" lon="5.60927">
        <ele>369.79998779297</ele>
        <time>2022-03-23T09:33:13.000Z</time>
      </trkpt>
      <trkpt lat="49.65074" lon="5.60886">
        <ele>367</ele>
        <time>2022-03-23T09:33:21.000Z</time>
      </trkpt>
      <trkpt lat="49.65078" lon="5.60865">
        <ele>364.79998779297</ele>
        <time>2022-03-23T09:33:26.000Z</time>
      </trkpt>
      <trkpt lat="49.65077" lon="5.60846">
        <ele>363.39999389648</ele>
        <time>2022-03-23T09:33:30.000Z</time>
      </trkpt>
      <trkpt lat="49.65074" lon="5.60842">
        <ele>363.39999389648</ele>
        <time>2022-03-23T09:33:31.000Z</time>
      </trkpt>
      <trkpt lat="49.65072" lon="5.60836">
        <ele>363</ele>
        <time>2022-03-23T09:33:32.000Z</time>
      </trkpt>
      <trkpt lat="49.65063" lon="5.60813">
        <ele>362</ele>
        <time>2022-03-23T09:33:36.000Z</time>
      </trkpt>
      <trkpt lat="49.65054" lon="5.60768">
        <ele>361.20001220703</ele>
        <time>2022-03-23T09:33:43.000Z</time>
      </trkpt>
      <trkpt lat="49.65053" lon="5.60746">
        <ele>360.39999389648</ele>
        <time>2022-03-23T09:33:47.000Z</time>
      </trkpt>
      <trkpt lat="49.65052" lon="5.60716">
        <ele>360.20001220703</ele>
        <time>2022-03-23T09:33:53.000Z</time>
      </trkpt>
      <trkpt lat="49.65052" lon="5.60703">
        <ele>360.20001220703</ele>
        <time>2022-03-23T09:33:57.000Z</time>
      </trkpt>
      <trkpt lat="49.65051" lon="5.60696">
        <ele>360.20001220703</ele>
        <time>2022-03-23T09:34:00.000Z</time>
      </trkpt>
      <trkpt lat="49.65052" lon="5.6068">
        <ele>360</ele>
        <time>2022-03-23T09:34:04.000Z</time>
      </trkpt>
      <trkpt lat="49.65052" lon="5.60654">
        <ele>359.79998779297</ele>
        <time>2022-03-23T09:34:09.000Z</time>
      </trkpt>
      <trkpt lat="49.6505" lon="5.60619">
        <ele>360.60000610352</ele>
        <time>2022-03-23T09:34:15.000Z</time>
      </trkpt>
      <trkpt lat="49.65048" lon="5.60591">
        <ele>360.79998779297</ele>
        <time>2022-03-23T09:34:20.000Z</time>
      </trkpt>
      <trkpt lat="49.65041" lon="5.60552">
        <ele>360.39999389648</ele>
        <time>2022-03-23T09:34:26.000Z</time>
      </trkpt>
      <trkpt lat="49.65034" lon="5.60528">
        <ele>360</ele>
        <time>2022-03-23T09:34:30.000Z</time>
      </trkpt>
      <trkpt lat="49.6503" lon="5.60512">
        <ele>359.39999389648</ele>
        <time>2022-03-23T09:34:33.000Z</time>
      </trkpt>
      <trkpt lat="49.65024" lon="5.60482">
        <ele>359.20001220703</ele>
        <time>2022-03-23T09:34:38.000Z</time>
      </trkpt>
      <trkpt lat="49.6502" lon="5.6045">
        <ele>358.60000610352</ele>
        <time>2022-03-23T09:34:43.000Z</time>
      </trkpt>
      <trkpt lat="49.65022" lon="5.6042">
        <ele>358</ele>
        <time>2022-03-23T09:34:49.000Z</time>
      </trkpt>
      <trkpt lat="49.65033" lon="5.60411">
        <ele>357.79998779297</ele>
        <time>2022-03-23T09:34:53.000Z</time>
      </trkpt>
      <trkpt lat="49.65052" lon="5.60395">
        <ele>358.60000610352</ele>
        <time>2022-03-23T09:34:59.000Z</time>
      </trkpt>
      <trkpt lat="49.65065" lon="5.6038">
        <ele>358.20001220703</ele>
        <time>2022-03-23T09:35:03.000Z</time>
      </trkpt>
      <trkpt lat="49.6509" lon="5.60344">
        <ele>356.60000610352</ele>
        <time>2022-03-23T09:35:11.000Z</time>
      </trkpt>
      <trkpt lat="49.65113" lon="5.60314">
        <ele>356.79998779297</ele>
        <time>2022-03-23T09:35:18.000Z</time>
      </trkpt>
      <trkpt lat="49.65141" lon="5.60282">
        <ele>357</ele>
        <time>2022-03-23T09:35:26.000Z</time>
      </trkpt>
      <trkpt lat="49.65164" lon="5.60255">
        <ele>357.79998779297</ele>
        <time>2022-03-23T09:35:33.000Z</time>
      </trkpt>
      <trkpt lat="49.65187" lon="5.60218">
        <ele>358.60000610352</ele>
        <time>2022-03-23T09:35:41.000Z</time>
      </trkpt>
      <trkpt lat="49.65191" lon="5.60213">
        <ele>358.79998779297</ele>
        <time>2022-03-23T09:35:42.000Z</time>
      </trkpt>
      <trkpt lat="49.65194" lon="5.60209">
        <ele>359</ele>
        <time>2022-03-23T09:35:43.000Z</time>
      </trkpt>
      <trkpt lat="49.65217" lon="5.60187">
        <ele>360.20001220703</ele>
        <time>2022-03-23T09:35:49.000Z</time>
      </trkpt>
      <trkpt lat="49.65251" lon="5.60159">
        <ele>363</ele>
        <time>2022-03-23T09:35:57.000Z</time>
      </trkpt>
      <trkpt lat="49.65291" lon="5.60127">
        <ele>364.20001220703</ele>
        <time>2022-03-23T09:36:06.000Z</time>
      </trkpt>
      <trkpt lat="49.65311" lon="5.60108">
        <ele>364.39999389648</ele>
        <time>2022-03-23T09:36:11.000Z</time>
      </trkpt>
      <trkpt lat="49.65323" lon="5.60095">
        <ele>363.79998779297</ele>
        <time>2022-03-23T09:36:14.000Z</time>
      </trkpt>
      <trkpt lat="49.6534" lon="5.60077">
        <ele>363.20001220703</ele>
        <time>2022-03-23T09:36:18.000Z</time>
      </trkpt>
      <trkpt lat="49.6536" lon="5.60058">
        <ele>362.60000610352</ele>
        <time>2022-03-23T09:36:23.000Z</time>
      </trkpt>
      <trkpt lat="49.65364" lon="5.60055">
        <ele>362.79998779297</ele>
        <time>2022-03-23T09:36:24.000Z</time>
      </trkpt>
      <trkpt lat="49.65387" lon="5.60036">
        <ele>364.20001220703</ele>
        <time>2022-03-23T09:36:30.000Z</time>
      </trkpt>
      <trkpt lat="49.65391" lon="5.60031">
        <ele>364.79998779297</ele>
        <time>2022-03-23T09:36:31.000Z</time>
      </trkpt>
      <trkpt lat="49.65415" lon="5.6001">
        <ele>366</ele>
        <time>2022-03-23T09:36:36.000Z</time>
      </trkpt>
      <trkpt lat="49.65419" lon="5.60006">
        <ele>366.60000610352</ele>
        <time>2022-03-23T09:36:37.000Z</time>
      </trkpt>
      <trkpt lat="49.6545" lon="5.59975">
        <ele>364.79998779297</ele>
        <time>2022-03-23T09:36:44.000Z</time>
      </trkpt>
      <trkpt lat="49.65481" lon="5.5993">
        <ele>360.60000610352</ele>
        <time>2022-03-23T09:36:51.000Z</time>
      </trkpt>
      <trkpt lat="49.65505" lon="5.59895">
        <ele>357.20001220703</ele>
        <time>2022-03-23T09:36:57.000Z</time>
      </trkpt>
      <trkpt lat="49.65513" lon="5.59882">
        <ele>357.60000610352</ele>
        <time>2022-03-23T09:36:59.000Z</time>
      </trkpt>
      <trkpt lat="49.65527" lon="5.59857">
        <ele>358</ele>
        <time>2022-03-23T09:37:02.000Z</time>
      </trkpt>
      <trkpt lat="49.65553" lon="5.59807">
        <ele>358.39999389648</ele>
        <time>2022-03-23T09:37:08.000Z</time>
      </trkpt>
      <trkpt lat="49.65557" lon="5.59799">
        <ele>358.60000610352</ele>
        <time>2022-03-23T09:37:09.000Z</time>
      </trkpt>
      <trkpt lat="49.65579" lon="5.59748">
        <ele>358.60000610352</ele>
        <time>2022-03-23T09:37:16.000Z</time>
      </trkpt>
      <trkpt lat="49.65598" lon="5.59718">
        <ele>358</ele>
        <time>2022-03-23T09:37:21.000Z</time>
      </trkpt>
      <trkpt lat="49.65606" lon="5.59709">
        <ele>357.60000610352</ele>
        <time>2022-03-23T09:37:23.000Z</time>
      </trkpt>
      <trkpt lat="49.65616" lon="5.59696">
        <ele>357.20001220703</ele>
        <time>2022-03-23T09:37:26.000Z</time>
      </trkpt>
      <trkpt lat="49.65629" lon="5.59682">
        <ele>357.79998779297</ele>
        <time>2022-03-23T09:37:29.000Z</time>
      </trkpt>
      <trkpt lat="49.65656" lon="5.59658">
        <ele>358.60000610352</ele>
        <time>2022-03-23T09:37:35.000Z</time>
      </trkpt>
      <trkpt lat="49.65665" lon="5.59653">
        <ele>358.39999389648</ele>
        <time>2022-03-23T09:37:37.000Z</time>
      </trkpt>
      <trkpt lat="49.65688" lon="5.59642">
        <ele>358.39999389648</ele>
        <time>2022-03-23T09:37:42.000Z</time>
      </trkpt>
      <trkpt lat="49.65696" lon="5.59635">
        <ele>358.60000610352</ele>
        <time>2022-03-23T09:37:44.000Z</time>
      </trkpt>
      <trkpt lat="49.6571" lon="5.59621">
        <ele>359</ele>
        <time>2022-03-23T09:37:48.000Z</time>
      </trkpt>
      <trkpt lat="49.6574" lon="5.59586">
        <ele>359.60000610352</ele>
        <time>2022-03-23T09:37:54.000Z</time>
      </trkpt>
      <trkpt lat="49.65757" lon="5.59567">
        <ele>357.60000610352</ele>
        <time>2022-03-23T09:37:57.000Z</time>
      </trkpt>
      <trkpt lat="49.65774" lon="5.59547">
        <ele>355.20001220703</ele>
        <time>2022-03-23T09:38:00.000Z</time>
      </trkpt>
      <trkpt lat="49.65785" lon="5.59534">
        <ele>353.79998779297</ele>
        <time>2022-03-23T09:38:02.000Z</time>
      </trkpt>
      <trkpt lat="49.6579" lon="5.5953">
        <ele>353.39999389648</ele>
        <time>2022-03-23T09:38:03.000Z</time>
      </trkpt>
      <trkpt lat="49.65808" lon="5.59519">
        <ele>352.60000610352</ele>
        <time>2022-03-23T09:38:06.000Z</time>
      </trkpt>
      <trkpt lat="49.65814" lon="5.59518">
        <ele>352.20001220703</ele>
        <time>2022-03-23T09:38:07.000Z</time>
      </trkpt>
      <trkpt lat="49.65829" lon="5.59525">
        <ele>350.79998779297</ele>
        <time>2022-03-23T09:38:09.000Z</time>
      </trkpt>
      <trkpt lat="49.65835" lon="5.59529">
        <ele>350.20001220703</ele>
        <time>2022-03-23T09:38:10.000Z</time>
      </trkpt>
      <trkpt lat="49.6584" lon="5.59533">
        <ele>350</ele>
        <time>2022-03-23T09:38:11.000Z</time>
      </trkpt>
      <trkpt lat="49.65859" lon="5.5955">
        <ele>349.20001220703</ele>
        <time>2022-03-23T09:38:15.000Z</time>
      </trkpt>
      <trkpt lat="49.65888" lon="5.59574">
        <ele>350.39999389648</ele>
        <time>2022-03-23T09:38:22.000Z</time>
      </trkpt>
      <trkpt lat="49.6591" lon="5.59591">
        <ele>351</ele>
        <time>2022-03-23T09:38:27.000Z</time>
      </trkpt>
      <trkpt lat="49.65918" lon="5.59598">
        <ele>351</ele>
        <time>2022-03-23T09:38:29.000Z</time>
      </trkpt>
      <trkpt lat="49.65945" lon="5.59611">
        <ele>351.79998779297</ele>
        <time>2022-03-23T09:38:35.000Z</time>
      </trkpt>
      <trkpt lat="49.65958" lon="5.59614">
        <ele>353</ele>
        <time>2022-03-23T09:38:38.000Z</time>
      </trkpt>
      <trkpt lat="49.65975" lon="5.59618">
        <ele>355</ele>
        <time>2022-03-23T09:38:41.000Z</time>
      </trkpt>
      <trkpt lat="49.66016" lon="5.59629">
        <ele>356.79998779297</ele>
        <time>2022-03-23T09:38:48.000Z</time>
      </trkpt>
      <trkpt lat="49.66045" lon="5.59636">
        <ele>352.20001220703</ele>
        <time>2022-03-23T09:38:53.000Z</time>
      </trkpt>
      <trkpt lat="49.66057" lon="5.59637">
        <ele>349.60000610352</ele>
        <time>2022-03-23T09:38:55.000Z</time>
      </trkpt>
      <trkpt lat="49.66092" lon="5.59648">
        <ele>346.20001220703</ele>
        <time>2022-03-23T09:39:01.000Z</time>
      </trkpt>
      <trkpt lat="49.66098" lon="5.5965">
        <ele>346.39999389648</ele>
        <time>2022-03-23T09:39:02.000Z</time>
      </trkpt>
      <trkpt lat="49.66143" lon="5.59662">
        <ele>348.60000610352</ele>
        <time>2022-03-23T09:39:09.000Z</time>
      </trkpt>
      <trkpt lat="49.66149" lon="5.59663">
        <ele>348.39999389648</ele>
        <time>2022-03-23T09:39:10.000Z</time>
      </trkpt>
      <trkpt lat="49.66179" lon="5.59664">
        <ele>346</ele>
        <time>2022-03-23T09:39:15.000Z</time>
      </trkpt>
      <trkpt lat="49.66192" lon="5.59665">
        <ele>344.60000610352</ele>
        <time>2022-03-23T09:39:17.000Z</time>
      </trkpt>
      <trkpt lat="49.66235" lon="5.59668">
        <ele>342</ele>
        <time>2022-03-23T09:39:24.000Z</time>
      </trkpt>
      <trkpt lat="49.66261" lon="5.59672">
        <ele>342</ele>
        <time>2022-03-23T09:39:28.000Z</time>
      </trkpt>
      <trkpt lat="49.66281" lon="5.59674">
        <ele>342</ele>
        <time>2022-03-23T09:39:31.000Z</time>
      </trkpt>
      <trkpt lat="49.66319" lon="5.59674">
        <ele>340.60000610352</ele>
        <time>2022-03-23T09:39:37.000Z</time>
      </trkpt>
      <trkpt lat="49.66343" lon="5.59675">
        <ele>338.79998779297</ele>
        <time>2022-03-23T09:39:41.000Z</time>
      </trkpt>
      <trkpt lat="49.66367" lon="5.59677">
        <ele>338</ele>
        <time>2022-03-23T09:39:45.000Z</time>
      </trkpt>
      <trkpt lat="49.66391" lon="5.5968">
        <ele>339</ele>
        <time>2022-03-23T09:39:49.000Z</time>
      </trkpt>
      <trkpt lat="49.66396" lon="5.59684">
        <ele>339.20001220703</ele>
        <time>2022-03-23T09:39:50.000Z</time>
      </trkpt>
      <trkpt lat="49.66436" lon="5.5971">
        <ele>342</ele>
        <time>2022-03-23T09:39:57.000Z</time>
      </trkpt>
      <trkpt lat="49.66482" lon="5.59731">
        <ele>342.79998779297</ele>
        <time>2022-03-23T09:40:05.000Z</time>
      </trkpt>
      <trkpt lat="49.6654" lon="5.59752">
        <ele>341.20001220703</ele>
        <time>2022-03-23T09:40:15.000Z</time>
      </trkpt>
      <trkpt lat="49.66545" lon="5.59755">
        <ele>341.39999389648</ele>
        <time>2022-03-23T09:40:16.000Z</time>
      </trkpt>
      <trkpt lat="49.6659" lon="5.59772">
        <ele>343.20001220703</ele>
        <time>2022-03-23T09:40:24.000Z</time>
      </trkpt>
      <trkpt lat="49.66636" lon="5.59788">
        <ele>341.60000610352</ele>
        <time>2022-03-23T09:40:32.000Z</time>
      </trkpt>
      <trkpt lat="49.66653" lon="5.59795">
        <ele>341</ele>
        <time>2022-03-23T09:40:35.000Z</time>
      </trkpt>
      <trkpt lat="49.66686" lon="5.59808">
        <ele>341</ele>
        <time>2022-03-23T09:40:41.000Z</time>
      </trkpt>
      <trkpt lat="49.66731" lon="5.59825">
        <ele>342.60000610352</ele>
        <time>2022-03-23T09:40:49.000Z</time>
      </trkpt>
      <trkpt lat="49.66763" lon="5.59838">
        <ele>342.39999389648</ele>
        <time>2022-03-23T09:40:56.000Z</time>
      </trkpt>
      <trkpt lat="49.66765" lon="5.59843">
        <ele>342</ele>
        <time>2022-03-23T09:40:57.000Z</time>
      </trkpt>
      <trkpt lat="49.66766" lon="5.59855">
        <ele>341.39999389648</ele>
        <time>2022-03-23T09:40:59.000Z</time>
      </trkpt>
      <trkpt lat="49.66766" lon="5.59872">
        <ele>341.20001220703</ele>
        <time>2022-03-23T09:41:01.000Z</time>
      </trkpt>
      <trkpt lat="49.66766" lon="5.59899">
        <ele>341.39999389648</ele>
        <time>2022-03-23T09:41:04.000Z</time>
      </trkpt>
      <trkpt lat="49.66767" lon="5.59982">
        <ele>341.60000610352</ele>
        <time>2022-03-23T09:41:13.000Z</time>
      </trkpt>
      <trkpt lat="49.66768" lon="5.6">
        <ele>341</ele>
        <time>2022-03-23T09:41:15.000Z</time>
      </trkpt>
      <trkpt lat="49.66769" lon="5.60015">
        <ele>341</ele>
        <time>2022-03-23T09:41:17.000Z</time>
      </trkpt>
      <trkpt lat="49.66771" lon="5.60019">
        <ele>341</ele>
        <time>2022-03-23T09:41:18.000Z</time>
      </trkpt>
      <trkpt lat="49.66782" lon="5.60023">
        <ele>341</ele>
        <time>2022-03-23T09:41:21.000Z</time>
      </trkpt>
      <trkpt lat="49.66786" lon="5.60021">
        <ele>341.20001220703</ele>
        <time>2022-03-23T09:41:22.000Z</time>
      </trkpt>
      <trkpt lat="49.66801" lon="5.60014">
        <ele>341.39999389648</ele>
        <time>2022-03-23T09:41:25.000Z</time>
      </trkpt>
      <trkpt lat="49.66821" lon="5.60005">
        <ele>341</ele>
        <time>2022-03-23T09:41:29.000Z</time>
      </trkpt>
      <trkpt lat="49.66838" lon="5.60001">
        <ele>341</ele>
        <time>2022-03-23T09:41:32.000Z</time>
      </trkpt>
      <trkpt lat="49.66883" lon="5.60003">
        <ele>340.60000610352</ele>
        <time>2022-03-23T09:41:40.000Z</time>
      </trkpt>
      <trkpt lat="49.6694" lon="5.60008">
        <ele>342</ele>
        <time>2022-03-23T09:41:50.000Z</time>
      </trkpt>
      <trkpt lat="49.66963" lon="5.60009">
        <ele>342.20001220703</ele>
        <time>2022-03-23T09:41:54.000Z</time>
      </trkpt>
      <trkpt lat="49.66998" lon="5.60012">
        <ele>342.60000610352</ele>
        <time>2022-03-23T09:42:00.000Z</time>
      </trkpt>
      <trkpt lat="49.67004" lon="5.60012">
        <ele>342.60000610352</ele>
        <time>2022-03-23T09:42:01.000Z</time>
      </trkpt>
      <trkpt lat="49.67047" lon="5.60012">
        <ele>342.60000610352</ele>
        <time>2022-03-23T09:42:09.000Z</time>
      </trkpt>
      <trkpt lat="49.67056" lon="5.60015">
        <ele>342.60000610352</ele>
        <time>2022-03-23T09:42:11.000Z</time>
      </trkpt>
      <trkpt lat="49.67059" lon="5.60021">
        <ele>342.39999389648</ele>
        <time>2022-03-23T09:42:12.000Z</time>
      </trkpt>
      <trkpt lat="49.6706" lon="5.60045">
        <ele>341.39999389648</ele>
        <time>2022-03-23T09:42:15.000Z</time>
      </trkpt>
      <trkpt lat="49.67063" lon="5.60081">
        <ele>340.20001220703</ele>
        <time>2022-03-23T09:42:19.000Z</time>
      </trkpt>
      <trkpt lat="49.67066" lon="5.60089">
        <ele>340.20001220703</ele>
        <time>2022-03-23T09:42:20.000Z</time>
      </trkpt>
      <trkpt lat="49.67084" lon="5.60115">
        <ele>340.60000610352</ele>
        <time>2022-03-23T09:42:24.000Z</time>
      </trkpt>
      <trkpt lat="49.67094" lon="5.60127">
        <ele>340.39999389648</ele>
        <time>2022-03-23T09:42:26.000Z</time>
      </trkpt>
      <trkpt lat="49.67103" lon="5.6014">
        <ele>339.60000610352</ele>
        <time>2022-03-23T09:42:28.000Z</time>
      </trkpt>
      <trkpt lat="49.67109" lon="5.60157">
        <ele>338.60000610352</ele>
        <time>2022-03-23T09:42:30.000Z</time>
      </trkpt>
      <trkpt lat="49.67113" lon="5.60186">
        <ele>338.20001220703</ele>
        <time>2022-03-23T09:42:33.000Z</time>
      </trkpt>
      <trkpt lat="49.67114" lon="5.60196">
        <ele>338</ele>
        <time>2022-03-23T09:42:34.000Z</time>
      </trkpt>
      <trkpt lat="49.67119" lon="5.60237">
        <ele>336.60000610352</ele>
        <time>2022-03-23T09:42:38.000Z</time>
      </trkpt>
      <trkpt lat="49.67123" lon="5.6028">
        <ele>336</ele>
        <time>2022-03-23T09:42:42.000Z</time>
      </trkpt>
      <trkpt lat="49.67125" lon="5.60313">
        <ele>335.79998779297</ele>
        <time>2022-03-23T09:42:45.000Z</time>
      </trkpt>
      <trkpt lat="49.67124" lon="5.60324">
        <ele>335.60000610352</ele>
        <time>2022-03-23T09:42:46.000Z</time>
      </trkpt>
      <trkpt lat="49.67123" lon="5.60347">
        <ele>335.39999389648</ele>
        <time>2022-03-23T09:42:48.000Z</time>
      </trkpt>
      <trkpt lat="49.67124" lon="5.60359">
        <ele>334.79998779297</ele>
        <time>2022-03-23T09:42:49.000Z</time>
      </trkpt>
      <trkpt lat="49.67125" lon="5.6037">
        <ele>334.39999389648</ele>
        <time>2022-03-23T09:42:50.000Z</time>
      </trkpt>
      <trkpt lat="49.67127" lon="5.60388">
        <ele>333.79998779297</ele>
        <time>2022-03-23T09:42:52.000Z</time>
      </trkpt>
      <trkpt lat="49.67129" lon="5.60395">
        <ele>333.39999389648</ele>
        <time>2022-03-23T09:42:53.000Z</time>
      </trkpt>
      <trkpt lat="49.67135" lon="5.60406">
        <ele>332.79998779297</ele>
        <time>2022-03-23T09:42:55.000Z</time>
      </trkpt>
      <trkpt lat="49.67144" lon="5.60401">
        <ele>332.60000610352</ele>
        <time>2022-03-23T09:42:57.000Z</time>
      </trkpt>
      <trkpt lat="49.67148" lon="5.60396">
        <ele>332.79998779297</ele>
        <time>2022-03-23T09:42:58.000Z</time>
      </trkpt>
      <trkpt lat="49.67152" lon="5.60391">
        <ele>333</ele>
        <time>2022-03-23T09:42:59.000Z</time>
      </trkpt>
      <trkpt lat="49.6716" lon="5.60381">
        <ele>333.39999389648</ele>
        <time>2022-03-23T09:43:01.000Z</time>
      </trkpt>
      <trkpt lat="49.67165" lon="5.60377">
        <ele>333.60000610352</ele>
        <time>2022-03-23T09:43:02.000Z</time>
      </trkpt>
      <trkpt lat="49.67179" lon="5.60375">
        <ele>333.60000610352</ele>
        <time>2022-03-23T09:43:05.000Z</time>
      </trkpt>
      <trkpt lat="49.67199" lon="5.60389">
        <ele>333.20001220703</ele>
        <time>2022-03-23T09:43:10.000Z</time>
      </trkpt>
      <trkpt lat="49.67203" lon="5.60391">
        <ele>333.20001220703</ele>
        <time>2022-03-23T09:43:11.000Z</time>
      </trkpt>
      <trkpt lat="49.67217" lon="5.60393">
        <ele>333.60000610352</ele>
        <time>2022-03-23T09:43:14.000Z</time>
      </trkpt>
      <trkpt lat="49.67222" lon="5.60393">
        <ele>333.79998779297</ele>
        <time>2022-03-23T09:43:15.000Z</time>
      </trkpt>
      <trkpt lat="49.67241" lon="5.60389">
        <ele>334</ele>
        <time>2022-03-23T09:43:19.000Z</time>
      </trkpt>
      <trkpt lat="49.67249" lon="5.60386">
        <ele>334.20001220703</ele>
        <time>2022-03-23T09:43:21.000Z</time>
      </trkpt>
      <trkpt lat="49.67257" lon="5.60382">
        <ele>334</ele>
        <time>2022-03-23T09:43:23.000Z</time>
      </trkpt>
      <trkpt lat="49.67266" lon="5.60387">
        <ele>333.60000610352</ele>
        <time>2022-03-23T09:43:25.000Z</time>
      </trkpt>
      <trkpt lat="49.67272" lon="5.60395">
        <ele>333.39999389648</ele>
        <time>2022-03-23T09:43:27.000Z</time>
      </trkpt>
      <trkpt lat="49.67276" lon="5.60395">
        <ele>333.20001220703</ele>
        <time>2022-03-23T09:43:28.000Z</time>
      </trkpt>
      <trkpt lat="49.67276" lon="5.60389">
        <ele>333.20001220703</ele>
        <time>2022-03-23T09:43:30.000Z</time>
      </trkpt>
      <trkpt lat="49.67275" lon="5.60388">
        <ele>333.20001220703</ele>
        <time>2022-03-23T09:43:31.000Z</time>
      </trkpt>
    </trkseg>
  </trk>
</gpx>